<?xml version="1.0" encoding="UTF-8" standalone="no" ?>
<gpx xmlns="http://www.topografix.com/GPX/1/1" xmlns:xsi="http://www.w3.org/2001/XMLSchema-instance" xsi:schemaLocation="http://www.topografix.com/GPX/1/1 http://www.topografix.com/GPX/1/1/gpx.xsd" version="1.1" creator="VisuGPX - https://www.visugpx.com">
  <metadata>
    <name>En direction des Bréviaires</name>
    <desc><![CDATA[Il y a bien longtemps que nous ne sommes pas allé de ce côté. Ce qui nous a permis de prendre la belle partie de la piste de galop, sur le retour.]]></desc>
  </metadata>
  <trk>
    <name><![CDATA[Les  Bréviaires (petit parcours)]]></name>
    <trkseg>
      <trkpt lat="48.70675" lon="1.75546">
        <ele>174.60000610352</ele>
        <time>2014-10-20T08:29:46.000Z</time>
      </trkpt>
      <trkpt lat="48.70681" lon="1.75545">
        <ele>174.39999389648</ele>
        <time>2014-10-20T08:29:47.000Z</time>
      </trkpt>
      <trkpt lat="48.70681" lon="1.75545">
        <ele>174.39999389648</ele>
        <time>2014-10-20T08:29:47.000Z</time>
      </trkpt>
      <trkpt lat="48.7069" lon="1.75533">
        <ele>174</ele>
        <time>2014-10-20T08:29:50.000Z</time>
      </trkpt>
      <trkpt lat="48.70688" lon="1.75541">
        <ele>174.19999694824</ele>
        <time>2014-10-20T08:29:51.000Z</time>
      </trkpt>
      <trkpt lat="48.70684" lon="1.75545">
        <ele>174.39999389648</ele>
        <time>2014-10-20T08:29:52.000Z</time>
      </trkpt>
      <trkpt lat="48.70681" lon="1.75551">
        <ele>174.60000610352</ele>
        <time>2014-10-20T08:29:58.000Z</time>
      </trkpt>
      <trkpt lat="48.70675" lon="1.75561">
        <ele>175</ele>
        <time>2014-10-20T08:30:05.000Z</time>
      </trkpt>
      <trkpt lat="48.7067" lon="1.75571">
        <ele>176.60000610352</ele>
        <time>2014-10-20T08:30:12.000Z</time>
      </trkpt>
      <trkpt lat="48.70666" lon="1.75577">
        <ele>177</ele>
        <time>2014-10-20T08:30:17.000Z</time>
      </trkpt>
      <trkpt lat="48.70662" lon="1.75589">
        <ele>177.39999389648</ele>
        <time>2014-10-20T08:30:23.000Z</time>
      </trkpt>
      <trkpt lat="48.70658" lon="1.75595">
        <ele>177.80000305176</ele>
        <time>2014-10-20T08:30:27.000Z</time>
      </trkpt>
      <trkpt lat="48.70652" lon="1.75607">
        <ele>178.39999389648</ele>
        <time>2014-10-20T08:30:35.000Z</time>
      </trkpt>
      <trkpt lat="48.70649" lon="1.75612">
        <ele>178.60000610352</ele>
        <time>2014-10-20T08:30:39.000Z</time>
      </trkpt>
      <trkpt lat="48.70648" lon="1.75616">
        <ele>178.80000305176</ele>
        <time>2014-10-20T08:30:42.000Z</time>
      </trkpt>
      <trkpt lat="48.70646" lon="1.75622">
        <ele>179.19999694824</ele>
        <time>2014-10-20T08:30:48.000Z</time>
      </trkpt>
      <trkpt lat="48.70643" lon="1.7564">
        <ele>180</ele>
        <time>2014-10-20T08:30:52.000Z</time>
      </trkpt>
      <trkpt lat="48.70644" lon="1.75647">
        <ele>180</ele>
        <time>2014-10-20T08:30:56.000Z</time>
      </trkpt>
      <trkpt lat="48.70646" lon="1.75663">
        <ele>179.80000305176</ele>
        <time>2014-10-20T08:31:04.000Z</time>
      </trkpt>
      <trkpt lat="48.70644" lon="1.75664">
        <ele>180</ele>
        <time>2014-10-20T08:31:06.000Z</time>
      </trkpt>
      <trkpt lat="48.70636" lon="1.75663">
        <ele>181</ele>
        <time>2014-10-20T08:31:13.000Z</time>
      </trkpt>
      <trkpt lat="48.70639" lon="1.75649">
        <ele>180.60000610352</ele>
        <time>2014-10-20T08:31:22.000Z</time>
      </trkpt>
      <trkpt lat="48.70639" lon="1.75649">
        <ele>180.60000610352</ele>
        <time>2014-10-20T08:31:23.000Z</time>
      </trkpt>
      <trkpt lat="48.70637" lon="1.75644">
        <ele>180.80000305176</ele>
        <time>2014-10-20T08:31:29.000Z</time>
      </trkpt>
      <trkpt lat="48.70631" lon="1.75648">
        <ele>181.60000610352</ele>
        <time>2014-10-20T08:31:37.000Z</time>
      </trkpt>
      <trkpt lat="48.70631" lon="1.75644">
        <ele>181.39999389648</ele>
        <time>2014-10-20T08:31:45.000Z</time>
      </trkpt>
      <trkpt lat="48.70627" lon="1.75644">
        <ele>181.80000305176</ele>
        <time>2014-10-20T08:31:49.000Z</time>
      </trkpt>
      <trkpt lat="48.7062" lon="1.75637">
        <ele>182.60000610352</ele>
        <time>2014-10-20T08:31:56.000Z</time>
      </trkpt>
      <trkpt lat="48.70617" lon="1.75633">
        <ele>182.80000305176</ele>
        <time>2014-10-20T08:32:00.000Z</time>
      </trkpt>
      <trkpt lat="48.70613" lon="1.75628">
        <ele>183.19999694824</ele>
        <time>2014-10-20T08:32:06.000Z</time>
      </trkpt>
      <trkpt lat="48.7061" lon="1.75624">
        <ele>183.60000610352</ele>
        <time>2014-10-20T08:32:11.000Z</time>
      </trkpt>
      <trkpt lat="48.70606" lon="1.75618">
        <ele>183.80000305176</ele>
        <time>2014-10-20T08:32:16.000Z</time>
      </trkpt>
      <trkpt lat="48.70602" lon="1.75613">
        <ele>184</ele>
        <time>2014-10-20T08:32:22.000Z</time>
      </trkpt>
      <trkpt lat="48.706" lon="1.75608">
        <ele>184</ele>
        <time>2014-10-20T08:32:27.000Z</time>
      </trkpt>
      <trkpt lat="48.70598" lon="1.75601">
        <ele>183.80000305176</ele>
        <time>2014-10-20T08:32:36.000Z</time>
      </trkpt>
      <trkpt lat="48.70597" lon="1.756">
        <ele>183.80000305176</ele>
        <time>2014-10-20T08:32:37.000Z</time>
      </trkpt>
      <trkpt lat="48.70593" lon="1.75594">
        <ele>183.80000305176</ele>
        <time>2014-10-20T08:32:42.000Z</time>
      </trkpt>
      <trkpt lat="48.7059" lon="1.7559">
        <ele>183.80000305176</ele>
        <time>2014-10-20T08:32:44.000Z</time>
      </trkpt>
      <trkpt lat="48.70587" lon="1.75587">
        <ele>183.80000305176</ele>
        <time>2014-10-20T08:32:48.000Z</time>
      </trkpt>
      <trkpt lat="48.70583" lon="1.75582">
        <ele>183.80000305176</ele>
        <time>2014-10-20T08:32:53.000Z</time>
      </trkpt>
      <trkpt lat="48.70579" lon="1.75578">
        <ele>183.80000305176</ele>
        <time>2014-10-20T08:32:59.000Z</time>
      </trkpt>
      <trkpt lat="48.70576" lon="1.75575">
        <ele>183.80000305176</ele>
        <time>2014-10-20T08:33:02.000Z</time>
      </trkpt>
      <trkpt lat="48.7057" lon="1.75571">
        <ele>183.80000305176</ele>
        <time>2014-10-20T08:33:08.000Z</time>
      </trkpt>
      <trkpt lat="48.70566" lon="1.75566">
        <ele>183.60000610352</ele>
        <time>2014-10-20T08:33:12.000Z</time>
      </trkpt>
      <trkpt lat="48.70559" lon="1.75561">
        <ele>183.60000610352</ele>
        <time>2014-10-20T08:33:17.000Z</time>
      </trkpt>
      <trkpt lat="48.70554" lon="1.75559">
        <ele>183.60000610352</ele>
        <time>2014-10-20T08:33:22.000Z</time>
      </trkpt>
      <trkpt lat="48.70553" lon="1.75553">
        <ele>183.39999389648</ele>
        <time>2014-10-20T08:33:26.000Z</time>
      </trkpt>
      <trkpt lat="48.70549" lon="1.75551">
        <ele>183.39999389648</ele>
        <time>2014-10-20T08:33:32.000Z</time>
      </trkpt>
      <trkpt lat="48.70544" lon="1.75546">
        <ele>183.19999694824</ele>
        <time>2014-10-20T08:33:36.000Z</time>
      </trkpt>
      <trkpt lat="48.70544" lon="1.75544">
        <ele>183.19999694824</ele>
        <time>2014-10-20T08:33:38.000Z</time>
      </trkpt>
      <trkpt lat="48.70537" lon="1.7554">
        <ele>183</ele>
        <time>2014-10-20T08:33:43.000Z</time>
      </trkpt>
      <trkpt lat="48.70534" lon="1.7553">
        <ele>182.60000610352</ele>
        <time>2014-10-20T08:33:50.000Z</time>
      </trkpt>
      <trkpt lat="48.70529" lon="1.75525">
        <ele>182.60000610352</ele>
        <time>2014-10-20T08:33:55.000Z</time>
      </trkpt>
      <trkpt lat="48.70527" lon="1.75522">
        <ele>182.39999389648</ele>
        <time>2014-10-20T08:33:58.000Z</time>
      </trkpt>
      <trkpt lat="48.70518" lon="1.75515">
        <ele>182.39999389648</ele>
        <time>2014-10-20T08:34:05.000Z</time>
      </trkpt>
      <trkpt lat="48.70516" lon="1.75512">
        <ele>182.39999389648</ele>
        <time>2014-10-20T08:34:07.000Z</time>
      </trkpt>
      <trkpt lat="48.70513" lon="1.7551">
        <ele>182.39999389648</ele>
        <time>2014-10-20T08:34:09.000Z</time>
      </trkpt>
      <trkpt lat="48.70508" lon="1.75503">
        <ele>182.19999694824</ele>
        <time>2014-10-20T08:34:14.000Z</time>
      </trkpt>
      <trkpt lat="48.70506" lon="1.75503">
        <ele>182.19999694824</ele>
        <time>2014-10-20T08:34:15.000Z</time>
      </trkpt>
      <trkpt lat="48.705" lon="1.75502">
        <ele>182.39999389648</ele>
        <time>2014-10-20T08:34:21.000Z</time>
      </trkpt>
      <trkpt lat="48.70499" lon="1.75498">
        <ele>182.19999694824</ele>
        <time>2014-10-20T08:34:24.000Z</time>
      </trkpt>
      <trkpt lat="48.70494" lon="1.75495">
        <ele>182.19999694824</ele>
        <time>2014-10-20T08:34:31.000Z</time>
      </trkpt>
      <trkpt lat="48.70491" lon="1.75489">
        <ele>182.19999694824</ele>
        <time>2014-10-20T08:34:35.000Z</time>
      </trkpt>
      <trkpt lat="48.7049" lon="1.75488">
        <ele>182</ele>
        <time>2014-10-20T08:34:36.000Z</time>
      </trkpt>
      <trkpt lat="48.70481" lon="1.75478">
        <ele>182.19999694824</ele>
        <time>2014-10-20T08:34:43.000Z</time>
      </trkpt>
      <trkpt lat="48.70473" lon="1.75474">
        <ele>182.39999389648</ele>
        <time>2014-10-20T08:34:49.000Z</time>
      </trkpt>
      <trkpt lat="48.70469" lon="1.75467">
        <ele>182.39999389648</ele>
        <time>2014-10-20T08:34:55.000Z</time>
      </trkpt>
      <trkpt lat="48.70469" lon="1.75462">
        <ele>182.19999694824</ele>
        <time>2014-10-20T08:35:02.000Z</time>
      </trkpt>
      <trkpt lat="48.70464" lon="1.75464">
        <ele>182.39999389648</ele>
        <time>2014-10-20T08:35:07.000Z</time>
      </trkpt>
      <trkpt lat="48.7046" lon="1.75462">
        <ele>182.60000610352</ele>
        <time>2014-10-20T08:35:10.000Z</time>
      </trkpt>
      <trkpt lat="48.70457" lon="1.75452">
        <ele>182.39999389648</ele>
        <time>2014-10-20T08:35:16.000Z</time>
      </trkpt>
      <trkpt lat="48.70453" lon="1.75453">
        <ele>182.60000610352</ele>
        <time>2014-10-20T08:35:18.000Z</time>
      </trkpt>
      <trkpt lat="48.70447" lon="1.75454">
        <ele>182.80000305176</ele>
        <time>2014-10-20T08:35:22.000Z</time>
      </trkpt>
      <trkpt lat="48.70444" lon="1.75451">
        <ele>182.80000305176</ele>
        <time>2014-10-20T08:35:27.000Z</time>
      </trkpt>
      <trkpt lat="48.7044" lon="1.75448">
        <ele>183</ele>
        <time>2014-10-20T08:35:31.000Z</time>
      </trkpt>
      <trkpt lat="48.70435" lon="1.75447">
        <ele>183</ele>
        <time>2014-10-20T08:35:37.000Z</time>
      </trkpt>
      <trkpt lat="48.70438" lon="1.75445">
        <ele>183</ele>
        <time>2014-10-20T08:35:44.000Z</time>
      </trkpt>
      <trkpt lat="48.70429" lon="1.75439">
        <ele>182.80000305176</ele>
        <time>2014-10-20T08:35:51.000Z</time>
      </trkpt>
      <trkpt lat="48.70424" lon="1.75437">
        <ele>182.60000610352</ele>
        <time>2014-10-20T08:35:56.000Z</time>
      </trkpt>
      <trkpt lat="48.70418" lon="1.75433">
        <ele>182.39999389648</ele>
        <time>2014-10-20T08:36:02.000Z</time>
      </trkpt>
      <trkpt lat="48.70414" lon="1.75427">
        <ele>182.19999694824</ele>
        <time>2014-10-20T08:36:07.000Z</time>
      </trkpt>
      <trkpt lat="48.70412" lon="1.75425">
        <ele>182.19999694824</ele>
        <time>2014-10-20T08:36:09.000Z</time>
      </trkpt>
      <trkpt lat="48.70408" lon="1.75418">
        <ele>182</ele>
        <time>2014-10-20T08:36:15.000Z</time>
      </trkpt>
      <trkpt lat="48.70407" lon="1.75417">
        <ele>182</ele>
        <time>2014-10-20T08:36:16.000Z</time>
      </trkpt>
      <trkpt lat="48.70402" lon="1.75414">
        <ele>181.80000305176</ele>
        <time>2014-10-20T08:36:21.000Z</time>
      </trkpt>
      <trkpt lat="48.70398" lon="1.75414">
        <ele>181.80000305176</ele>
        <time>2014-10-20T08:36:27.000Z</time>
      </trkpt>
      <trkpt lat="48.70394" lon="1.75415">
        <ele>181.80000305176</ele>
        <time>2014-10-20T08:36:32.000Z</time>
      </trkpt>
      <trkpt lat="48.70391" lon="1.75411">
        <ele>181.60000610352</ele>
        <time>2014-10-20T08:36:38.000Z</time>
      </trkpt>
      <trkpt lat="48.7039" lon="1.75407">
        <ele>181.39999389648</ele>
        <time>2014-10-20T08:36:40.000Z</time>
      </trkpt>
      <trkpt lat="48.70389" lon="1.75402">
        <ele>181.39999389648</ele>
        <time>2014-10-20T08:36:44.000Z</time>
      </trkpt>
      <trkpt lat="48.70388" lon="1.754">
        <ele>181.39999389648</ele>
        <time>2014-10-20T08:36:47.000Z</time>
      </trkpt>
      <trkpt lat="48.70383" lon="1.75398">
        <ele>181.39999389648</ele>
        <time>2014-10-20T08:36:52.000Z</time>
      </trkpt>
      <trkpt lat="48.7038" lon="1.754">
        <ele>181.39999389648</ele>
        <time>2014-10-20T08:36:54.000Z</time>
      </trkpt>
      <trkpt lat="48.70378" lon="1.75397">
        <ele>181.19999694824</ele>
        <time>2014-10-20T08:36:59.000Z</time>
      </trkpt>
      <trkpt lat="48.70375" lon="1.75399">
        <ele>181.19999694824</ele>
        <time>2014-10-20T08:37:08.000Z</time>
      </trkpt>
      <trkpt lat="48.70376" lon="1.75397">
        <ele>181.19999694824</ele>
        <time>2014-10-20T08:37:12.000Z</time>
      </trkpt>
      <trkpt lat="48.70381" lon="1.75402">
        <ele>181.39999389648</ele>
        <time>2014-10-20T08:37:18.000Z</time>
      </trkpt>
      <trkpt lat="48.70383" lon="1.75406">
        <ele>181.39999389648</ele>
        <time>2014-10-20T08:37:21.000Z</time>
      </trkpt>
      <trkpt lat="48.7038" lon="1.75406">
        <ele>181.39999389648</ele>
        <time>2014-10-20T08:37:29.000Z</time>
      </trkpt>
      <trkpt lat="48.70381" lon="1.75407">
        <ele>181.39999389648</ele>
        <time>2014-10-20T08:37:35.000Z</time>
      </trkpt>
      <trkpt lat="48.70373" lon="1.75398">
        <ele>181.19999694824</ele>
        <time>2014-10-20T08:37:51.000Z</time>
      </trkpt>
      <trkpt lat="48.70365" lon="1.75396">
        <ele>181.19999694824</ele>
        <time>2014-10-20T08:37:56.000Z</time>
      </trkpt>
      <trkpt lat="48.70361" lon="1.75395">
        <ele>181</ele>
        <time>2014-10-20T08:37:59.000Z</time>
      </trkpt>
      <trkpt lat="48.70358" lon="1.75395">
        <ele>181</ele>
        <time>2014-10-20T08:38:01.000Z</time>
      </trkpt>
      <trkpt lat="48.7035" lon="1.75391">
        <ele>181</ele>
        <time>2014-10-20T08:38:07.000Z</time>
      </trkpt>
      <trkpt lat="48.70349" lon="1.75389">
        <ele>180.80000305176</ele>
        <time>2014-10-20T08:38:08.000Z</time>
      </trkpt>
      <trkpt lat="48.70347" lon="1.75383">
        <ele>180.80000305176</ele>
        <time>2014-10-20T08:38:12.000Z</time>
      </trkpt>
      <trkpt lat="48.70347" lon="1.75376">
        <ele>180.80000305176</ele>
        <time>2014-10-20T08:38:15.000Z</time>
      </trkpt>
      <trkpt lat="48.70347" lon="1.75373">
        <ele>180.80000305176</ele>
        <time>2014-10-20T08:38:17.000Z</time>
      </trkpt>
      <trkpt lat="48.70346" lon="1.75365">
        <ele>180.80000305176</ele>
        <time>2014-10-20T08:38:22.000Z</time>
      </trkpt>
      <trkpt lat="48.70339" lon="1.75363">
        <ele>180.60000610352</ele>
        <time>2014-10-20T08:38:28.000Z</time>
      </trkpt>
      <trkpt lat="48.70334" lon="1.7536">
        <ele>180.60000610352</ele>
        <time>2014-10-20T08:38:33.000Z</time>
      </trkpt>
      <trkpt lat="48.70331" lon="1.7536">
        <ele>180.39999389648</ele>
        <time>2014-10-20T08:38:38.000Z</time>
      </trkpt>
      <trkpt lat="48.70327" lon="1.75359">
        <ele>180.39999389648</ele>
        <time>2014-10-20T08:38:42.000Z</time>
      </trkpt>
      <trkpt lat="48.70323" lon="1.75356">
        <ele>180.19999694824</ele>
        <time>2014-10-20T08:38:46.000Z</time>
      </trkpt>
      <trkpt lat="48.70314" lon="1.75347">
        <ele>180</ele>
        <time>2014-10-20T08:38:52.000Z</time>
      </trkpt>
      <trkpt lat="48.70313" lon="1.75345">
        <ele>180</ele>
        <time>2014-10-20T08:38:53.000Z</time>
      </trkpt>
      <trkpt lat="48.70309" lon="1.75339">
        <ele>180</ele>
        <time>2014-10-20T08:38:57.000Z</time>
      </trkpt>
      <trkpt lat="48.70308" lon="1.7534">
        <ele>180</ele>
        <time>2014-10-20T08:39:00.000Z</time>
      </trkpt>
      <trkpt lat="48.70305" lon="1.75336">
        <ele>179.80000305176</ele>
        <time>2014-10-20T08:39:06.000Z</time>
      </trkpt>
      <trkpt lat="48.70306" lon="1.75329">
        <ele>179.80000305176</ele>
        <time>2014-10-20T08:39:11.000Z</time>
      </trkpt>
      <trkpt lat="48.70305" lon="1.7532">
        <ele>179.80000305176</ele>
        <time>2014-10-20T08:39:29.000Z</time>
      </trkpt>
      <trkpt lat="48.70308" lon="1.75317">
        <ele>180</ele>
        <time>2014-10-20T08:39:35.000Z</time>
      </trkpt>
      <trkpt lat="48.70305" lon="1.75313">
        <ele>180</ele>
        <time>2014-10-20T08:39:43.000Z</time>
      </trkpt>
      <trkpt lat="48.70308" lon="1.75312">
        <ele>180</ele>
        <time>2014-10-20T08:40:05.000Z</time>
      </trkpt>
      <trkpt lat="48.70304" lon="1.75305">
        <ele>180</ele>
        <time>2014-10-20T08:40:08.000Z</time>
      </trkpt>
      <trkpt lat="48.70301" lon="1.75299">
        <ele>180</ele>
        <time>2014-10-20T08:40:11.000Z</time>
      </trkpt>
      <trkpt lat="48.70297" lon="1.75293">
        <ele>180</ele>
        <time>2014-10-20T08:40:15.000Z</time>
      </trkpt>
      <trkpt lat="48.70294" lon="1.75289">
        <ele>180</ele>
        <time>2014-10-20T08:40:18.000Z</time>
      </trkpt>
      <trkpt lat="48.70287" lon="1.75285">
        <ele>179.80000305176</ele>
        <time>2014-10-20T08:40:24.000Z</time>
      </trkpt>
      <trkpt lat="48.70279" lon="1.75285">
        <ele>179.60000610352</ele>
        <time>2014-10-20T08:40:31.000Z</time>
      </trkpt>
      <trkpt lat="48.70271" lon="1.7528">
        <ele>179.60000610352</ele>
        <time>2014-10-20T08:40:37.000Z</time>
      </trkpt>
      <trkpt lat="48.70269" lon="1.75277">
        <ele>179.39999389648</ele>
        <time>2014-10-20T08:40:40.000Z</time>
      </trkpt>
      <trkpt lat="48.70268" lon="1.75275">
        <ele>179.39999389648</ele>
        <time>2014-10-20T08:40:42.000Z</time>
      </trkpt>
      <trkpt lat="48.70264" lon="1.75272">
        <ele>179.19999694824</ele>
        <time>2014-10-20T08:40:48.000Z</time>
      </trkpt>
      <trkpt lat="48.70261" lon="1.75272">
        <ele>179.19999694824</ele>
        <time>2014-10-20T08:40:50.000Z</time>
      </trkpt>
      <trkpt lat="48.70258" lon="1.7527">
        <ele>179</ele>
        <time>2014-10-20T08:40:52.000Z</time>
      </trkpt>
      <trkpt lat="48.70251" lon="1.75262">
        <ele>178.80000305176</ele>
        <time>2014-10-20T08:40:58.000Z</time>
      </trkpt>
      <trkpt lat="48.70242" lon="1.75257">
        <ele>178.39999389648</ele>
        <time>2014-10-20T08:41:04.000Z</time>
      </trkpt>
      <trkpt lat="48.70231" lon="1.75254">
        <ele>178</ele>
        <time>2014-10-20T08:41:11.000Z</time>
      </trkpt>
      <trkpt lat="48.70221" lon="1.75251">
        <ele>177.39999389648</ele>
        <time>2014-10-20T08:41:18.000Z</time>
      </trkpt>
      <trkpt lat="48.70215" lon="1.7525">
        <ele>177.19999694824</ele>
        <time>2014-10-20T08:41:25.000Z</time>
      </trkpt>
      <trkpt lat="48.70208" lon="1.75247">
        <ele>177</ele>
        <time>2014-10-20T08:41:31.000Z</time>
      </trkpt>
      <trkpt lat="48.70206" lon="1.75247">
        <ele>176.80000305176</ele>
        <time>2014-10-20T08:41:34.000Z</time>
      </trkpt>
      <trkpt lat="48.70199" lon="1.75252">
        <ele>176.39999389648</ele>
        <time>2014-10-20T08:41:41.000Z</time>
      </trkpt>
      <trkpt lat="48.7019" lon="1.75257">
        <ele>176.19999694824</ele>
        <time>2014-10-20T08:41:49.000Z</time>
      </trkpt>
      <trkpt lat="48.70183" lon="1.75261">
        <ele>176</ele>
        <time>2014-10-20T08:41:55.000Z</time>
      </trkpt>
      <trkpt lat="48.70178" lon="1.75264">
        <ele>175.80000305176</ele>
        <time>2014-10-20T08:41:59.000Z</time>
      </trkpt>
      <trkpt lat="48.70168" lon="1.75272">
        <ele>175.80000305176</ele>
        <time>2014-10-20T08:42:08.000Z</time>
      </trkpt>
      <trkpt lat="48.70162" lon="1.75276">
        <ele>175.80000305176</ele>
        <time>2014-10-20T08:42:14.000Z</time>
      </trkpt>
      <trkpt lat="48.70161" lon="1.75276">
        <ele>175.60000610352</ele>
        <time>2014-10-20T08:42:15.000Z</time>
      </trkpt>
      <trkpt lat="48.70158" lon="1.75277">
        <ele>175.60000610352</ele>
        <time>2014-10-20T08:42:19.000Z</time>
      </trkpt>
      <trkpt lat="48.70149" lon="1.7528">
        <ele>175.60000610352</ele>
        <time>2014-10-20T08:42:23.000Z</time>
      </trkpt>
      <trkpt lat="48.70141" lon="1.75286">
        <ele>175.19999694824</ele>
        <time>2014-10-20T08:42:31.000Z</time>
      </trkpt>
      <trkpt lat="48.70137" lon="1.75289">
        <ele>175</ele>
        <time>2014-10-20T08:42:35.000Z</time>
      </trkpt>
      <trkpt lat="48.70125" lon="1.75292">
        <ele>174.39999389648</ele>
        <time>2014-10-20T08:42:42.000Z</time>
      </trkpt>
      <trkpt lat="48.7012" lon="1.75293">
        <ele>174.19999694824</ele>
        <time>2014-10-20T08:42:45.000Z</time>
      </trkpt>
      <trkpt lat="48.70113" lon="1.75298">
        <ele>173.80000305176</ele>
        <time>2014-10-20T08:42:51.000Z</time>
      </trkpt>
      <trkpt lat="48.70108" lon="1.75302">
        <ele>173.60000610352</ele>
        <time>2014-10-20T08:42:55.000Z</time>
      </trkpt>
      <trkpt lat="48.70103" lon="1.75309">
        <ele>173.19999694824</ele>
        <time>2014-10-20T08:42:59.000Z</time>
      </trkpt>
      <trkpt lat="48.70097" lon="1.75311">
        <ele>173.19999694824</ele>
        <time>2014-10-20T08:43:03.000Z</time>
      </trkpt>
      <trkpt lat="48.70092" lon="1.75314">
        <ele>173</ele>
        <time>2014-10-20T08:43:07.000Z</time>
      </trkpt>
      <trkpt lat="48.70086" lon="1.75317">
        <ele>172.80000305176</ele>
        <time>2014-10-20T08:43:11.000Z</time>
      </trkpt>
      <trkpt lat="48.70082" lon="1.75316">
        <ele>172.80000305176</ele>
        <time>2014-10-20T08:43:14.000Z</time>
      </trkpt>
      <trkpt lat="48.70079" lon="1.75319">
        <ele>172.80000305176</ele>
        <time>2014-10-20T08:43:18.000Z</time>
      </trkpt>
      <trkpt lat="48.70073" lon="1.75318">
        <ele>172.60000610352</ele>
        <time>2014-10-20T08:43:24.000Z</time>
      </trkpt>
      <trkpt lat="48.70065" lon="1.75322">
        <ele>172.39999389648</ele>
        <time>2014-10-20T08:43:30.000Z</time>
      </trkpt>
      <trkpt lat="48.70062" lon="1.75322">
        <ele>172.39999389648</ele>
        <time>2014-10-20T08:43:32.000Z</time>
      </trkpt>
      <trkpt lat="48.70052" lon="1.75324">
        <ele>172.19999694824</ele>
        <time>2014-10-20T08:43:38.000Z</time>
      </trkpt>
      <trkpt lat="48.70048" lon="1.75325">
        <ele>172</ele>
        <time>2014-10-20T08:43:40.000Z</time>
      </trkpt>
      <trkpt lat="48.70039" lon="1.75328">
        <ele>171.80000305176</ele>
        <time>2014-10-20T08:43:47.000Z</time>
      </trkpt>
      <trkpt lat="48.70034" lon="1.75333">
        <ele>171.39999389648</ele>
        <time>2014-10-20T08:43:51.000Z</time>
      </trkpt>
      <trkpt lat="48.70025" lon="1.75339">
        <ele>171</ele>
        <time>2014-10-20T08:43:58.000Z</time>
      </trkpt>
      <trkpt lat="48.70023" lon="1.7534">
        <ele>171</ele>
        <time>2014-10-20T08:43:59.000Z</time>
      </trkpt>
      <trkpt lat="48.70017" lon="1.75345">
        <ele>170.80000305176</ele>
        <time>2014-10-20T08:44:04.000Z</time>
      </trkpt>
      <trkpt lat="48.70012" lon="1.75348">
        <ele>170.80000305176</ele>
        <time>2014-10-20T08:44:08.000Z</time>
      </trkpt>
      <trkpt lat="48.70003" lon="1.75351">
        <ele>170.80000305176</ele>
        <time>2014-10-20T08:44:15.000Z</time>
      </trkpt>
      <trkpt lat="48.69993" lon="1.75354">
        <ele>170.80000305176</ele>
        <time>2014-10-20T08:44:23.000Z</time>
      </trkpt>
      <trkpt lat="48.69988" lon="1.7536">
        <ele>170.60000610352</ele>
        <time>2014-10-20T08:44:28.000Z</time>
      </trkpt>
      <trkpt lat="48.69976" lon="1.75366">
        <ele>170.60000610352</ele>
        <time>2014-10-20T08:44:36.000Z</time>
      </trkpt>
      <trkpt lat="48.69966" lon="1.75368">
        <ele>171</ele>
        <time>2014-10-20T08:44:43.000Z</time>
      </trkpt>
      <trkpt lat="48.69957" lon="1.75373">
        <ele>171.39999389648</ele>
        <time>2014-10-20T08:44:49.000Z</time>
      </trkpt>
      <trkpt lat="48.69947" lon="1.75377">
        <ele>171.80000305176</ele>
        <time>2014-10-20T08:44:55.000Z</time>
      </trkpt>
      <trkpt lat="48.69944" lon="1.75379">
        <ele>172</ele>
        <time>2014-10-20T08:44:58.000Z</time>
      </trkpt>
      <trkpt lat="48.6994" lon="1.75384">
        <ele>172</ele>
        <time>2014-10-20T08:45:03.000Z</time>
      </trkpt>
      <trkpt lat="48.69936" lon="1.75386">
        <ele>172.19999694824</ele>
        <time>2014-10-20T08:45:10.000Z</time>
      </trkpt>
      <trkpt lat="48.69922" lon="1.75388">
        <ele>172</ele>
        <time>2014-10-20T08:45:18.000Z</time>
      </trkpt>
      <trkpt lat="48.69909" lon="1.75391">
        <ele>171.60000610352</ele>
        <time>2014-10-20T08:45:26.000Z</time>
      </trkpt>
      <trkpt lat="48.69907" lon="1.75392">
        <ele>171.60000610352</ele>
        <time>2014-10-20T08:45:30.000Z</time>
      </trkpt>
      <trkpt lat="48.69903" lon="1.75396">
        <ele>171.39999389648</ele>
        <time>2014-10-20T08:45:33.000Z</time>
      </trkpt>
      <trkpt lat="48.69892" lon="1.75403">
        <ele>171</ele>
        <time>2014-10-20T08:45:40.000Z</time>
      </trkpt>
      <trkpt lat="48.69882" lon="1.75407">
        <ele>170.60000610352</ele>
        <time>2014-10-20T08:45:47.000Z</time>
      </trkpt>
      <trkpt lat="48.69879" lon="1.75409">
        <ele>170.60000610352</ele>
        <time>2014-10-20T08:45:49.000Z</time>
      </trkpt>
      <trkpt lat="48.69871" lon="1.75409">
        <ele>170.39999389648</ele>
        <time>2014-10-20T08:45:55.000Z</time>
      </trkpt>
      <trkpt lat="48.69869" lon="1.7541">
        <ele>170.19999694824</ele>
        <time>2014-10-20T08:45:56.000Z</time>
      </trkpt>
      <trkpt lat="48.69862" lon="1.75412">
        <ele>170</ele>
        <time>2014-10-20T08:46:02.000Z</time>
      </trkpt>
      <trkpt lat="48.69853" lon="1.75416">
        <ele>169.60000610352</ele>
        <time>2014-10-20T08:46:09.000Z</time>
      </trkpt>
      <trkpt lat="48.69851" lon="1.75417">
        <ele>169.39999389648</ele>
        <time>2014-10-20T08:46:11.000Z</time>
      </trkpt>
      <trkpt lat="48.69843" lon="1.7542">
        <ele>169</ele>
        <time>2014-10-20T08:46:18.000Z</time>
      </trkpt>
      <trkpt lat="48.69839" lon="1.75422">
        <ele>168.80000305176</ele>
        <time>2014-10-20T08:46:20.000Z</time>
      </trkpt>
      <trkpt lat="48.69833" lon="1.75424">
        <ele>168.60000610352</ele>
        <time>2014-10-20T08:46:24.000Z</time>
      </trkpt>
      <trkpt lat="48.69824" lon="1.75428">
        <ele>168.19999694824</ele>
        <time>2014-10-20T08:46:30.000Z</time>
      </trkpt>
      <trkpt lat="48.69813" lon="1.75437">
        <ele>167.39999389648</ele>
        <time>2014-10-20T08:46:38.000Z</time>
      </trkpt>
      <trkpt lat="48.6981" lon="1.75439">
        <ele>167.19999694824</ele>
        <time>2014-10-20T08:46:40.000Z</time>
      </trkpt>
      <trkpt lat="48.69801" lon="1.75452">
        <ele>166.19999694824</ele>
        <time>2014-10-20T08:46:46.000Z</time>
      </trkpt>
      <trkpt lat="48.69791" lon="1.75456">
        <ele>165.60000610352</ele>
        <time>2014-10-20T08:46:53.000Z</time>
      </trkpt>
      <trkpt lat="48.69788" lon="1.75456">
        <ele>165.39999389648</ele>
        <time>2014-10-20T08:46:55.000Z</time>
      </trkpt>
      <trkpt lat="48.69784" lon="1.75458">
        <ele>165.19999694824</ele>
        <time>2014-10-20T08:46:58.000Z</time>
      </trkpt>
      <trkpt lat="48.69779" lon="1.75458">
        <ele>164.80000305176</ele>
        <time>2014-10-20T08:47:03.000Z</time>
      </trkpt>
      <trkpt lat="48.69776" lon="1.75456">
        <ele>164.80000305176</ele>
        <time>2014-10-20T08:47:06.000Z</time>
      </trkpt>
      <trkpt lat="48.69767" lon="1.75457">
        <ele>164.39999389648</ele>
        <time>2014-10-20T08:47:12.000Z</time>
      </trkpt>
      <trkpt lat="48.69755" lon="1.75464">
        <ele>163.39999389648</ele>
        <time>2014-10-20T08:47:20.000Z</time>
      </trkpt>
      <trkpt lat="48.69749" lon="1.75469">
        <ele>162.80000305176</ele>
        <time>2014-10-20T08:47:26.000Z</time>
      </trkpt>
      <trkpt lat="48.69738" lon="1.75473">
        <ele>162.19999694824</ele>
        <time>2014-10-20T08:47:33.000Z</time>
      </trkpt>
      <trkpt lat="48.69728" lon="1.75477">
        <ele>161.39999389648</ele>
        <time>2014-10-20T08:47:39.000Z</time>
      </trkpt>
      <trkpt lat="48.6972" lon="1.7548">
        <ele>161</ele>
        <time>2014-10-20T08:47:45.000Z</time>
      </trkpt>
      <trkpt lat="48.6971" lon="1.75486">
        <ele>160.19999694824</ele>
        <time>2014-10-20T08:47:52.000Z</time>
      </trkpt>
      <trkpt lat="48.69702" lon="1.75489">
        <ele>159.80000305176</ele>
        <time>2014-10-20T08:47:58.000Z</time>
      </trkpt>
      <trkpt lat="48.69698" lon="1.75489">
        <ele>159.39999389648</ele>
        <time>2014-10-20T08:48:02.000Z</time>
      </trkpt>
      <trkpt lat="48.69692" lon="1.75492">
        <ele>159</ele>
        <time>2014-10-20T08:48:07.000Z</time>
      </trkpt>
      <trkpt lat="48.69682" lon="1.75496">
        <ele>158.60000610352</ele>
        <time>2014-10-20T08:48:14.000Z</time>
      </trkpt>
      <trkpt lat="48.69674" lon="1.75499">
        <ele>158.19999694824</ele>
        <time>2014-10-20T08:48:20.000Z</time>
      </trkpt>
      <trkpt lat="48.69665" lon="1.75501">
        <ele>157.80000305176</ele>
        <time>2014-10-20T08:48:27.000Z</time>
      </trkpt>
      <trkpt lat="48.69655" lon="1.75509">
        <ele>157.39999389648</ele>
        <time>2014-10-20T08:48:35.000Z</time>
      </trkpt>
      <trkpt lat="48.6965" lon="1.75512">
        <ele>157</ele>
        <time>2014-10-20T08:48:39.000Z</time>
      </trkpt>
      <trkpt lat="48.69643" lon="1.75516">
        <ele>156.80000305176</ele>
        <time>2014-10-20T08:48:45.000Z</time>
      </trkpt>
      <trkpt lat="48.69634" lon="1.7552">
        <ele>156.39999389648</ele>
        <time>2014-10-20T08:48:52.000Z</time>
      </trkpt>
      <trkpt lat="48.6963" lon="1.75523">
        <ele>156.39999389648</ele>
        <time>2014-10-20T08:48:56.000Z</time>
      </trkpt>
      <trkpt lat="48.69624" lon="1.75524">
        <ele>156.19999694824</ele>
        <time>2014-10-20T08:49:00.000Z</time>
      </trkpt>
      <trkpt lat="48.69613" lon="1.75529">
        <ele>156.19999694824</ele>
        <time>2014-10-20T08:49:08.000Z</time>
      </trkpt>
      <trkpt lat="48.69605" lon="1.75532">
        <ele>156</ele>
        <time>2014-10-20T08:49:14.000Z</time>
      </trkpt>
      <trkpt lat="48.69604" lon="1.75532">
        <ele>156</ele>
        <time>2014-10-20T08:49:15.000Z</time>
      </trkpt>
      <trkpt lat="48.69597" lon="1.75537">
        <ele>155.80000305176</ele>
        <time>2014-10-20T08:49:22.000Z</time>
      </trkpt>
      <trkpt lat="48.69588" lon="1.75541">
        <ele>155.60000610352</ele>
        <time>2014-10-20T08:49:30.000Z</time>
      </trkpt>
      <trkpt lat="48.69586" lon="1.75541">
        <ele>155.60000610352</ele>
        <time>2014-10-20T08:49:32.000Z</time>
      </trkpt>
      <trkpt lat="48.6958" lon="1.75543">
        <ele>155.39999389648</ele>
        <time>2014-10-20T08:49:36.000Z</time>
      </trkpt>
      <trkpt lat="48.69577" lon="1.75546">
        <ele>155.39999389648</ele>
        <time>2014-10-20T08:49:39.000Z</time>
      </trkpt>
      <trkpt lat="48.69568" lon="1.75549">
        <ele>155.39999389648</ele>
        <time>2014-10-20T08:49:47.000Z</time>
      </trkpt>
      <trkpt lat="48.69558" lon="1.75552">
        <ele>155.60000610352</ele>
        <time>2014-10-20T08:49:54.000Z</time>
      </trkpt>
      <trkpt lat="48.69548" lon="1.75557">
        <ele>155.60000610352</ele>
        <time>2014-10-20T08:50:03.000Z</time>
      </trkpt>
      <trkpt lat="48.6954" lon="1.75562">
        <ele>155.80000305176</ele>
        <time>2014-10-20T08:50:10.000Z</time>
      </trkpt>
      <trkpt lat="48.69538" lon="1.75563">
        <ele>155.80000305176</ele>
        <time>2014-10-20T08:50:12.000Z</time>
      </trkpt>
      <trkpt lat="48.69528" lon="1.75568">
        <ele>156</ele>
        <time>2014-10-20T08:50:19.000Z</time>
      </trkpt>
      <trkpt lat="48.69517" lon="1.75574">
        <ele>156.19999694824</ele>
        <time>2014-10-20T08:50:27.000Z</time>
      </trkpt>
      <trkpt lat="48.69506" lon="1.7558">
        <ele>157</ele>
        <time>2014-10-20T08:50:36.000Z</time>
      </trkpt>
      <trkpt lat="48.69499" lon="1.75582">
        <ele>157.19999694824</ele>
        <time>2014-10-20T08:50:42.000Z</time>
      </trkpt>
      <trkpt lat="48.69491" lon="1.75588">
        <ele>157.80000305176</ele>
        <time>2014-10-20T08:50:49.000Z</time>
      </trkpt>
      <trkpt lat="48.69481" lon="1.75595">
        <ele>158.60000610352</ele>
        <time>2014-10-20T08:50:57.000Z</time>
      </trkpt>
      <trkpt lat="48.69472" lon="1.75601">
        <ele>159.19999694824</ele>
        <time>2014-10-20T08:51:04.000Z</time>
      </trkpt>
      <trkpt lat="48.69463" lon="1.75607">
        <ele>159.80000305176</ele>
        <time>2014-10-20T08:51:12.000Z</time>
      </trkpt>
      <trkpt lat="48.69454" lon="1.75606">
        <ele>160</ele>
        <time>2014-10-20T08:51:18.000Z</time>
      </trkpt>
      <trkpt lat="48.69452" lon="1.75606">
        <ele>160.19999694824</ele>
        <time>2014-10-20T08:51:20.000Z</time>
      </trkpt>
      <trkpt lat="48.6945" lon="1.75608">
        <ele>160.19999694824</ele>
        <time>2014-10-20T08:51:22.000Z</time>
      </trkpt>
      <trkpt lat="48.6944" lon="1.75608">
        <ele>160.60000610352</ele>
        <time>2014-10-20T08:51:30.000Z</time>
      </trkpt>
      <trkpt lat="48.69432" lon="1.75607">
        <ele>160.80000305176</ele>
        <time>2014-10-20T08:51:36.000Z</time>
      </trkpt>
      <trkpt lat="48.69424" lon="1.75607">
        <ele>161</ele>
        <time>2014-10-20T08:51:42.000Z</time>
      </trkpt>
      <trkpt lat="48.69419" lon="1.75606">
        <ele>161</ele>
        <time>2014-10-20T08:51:47.000Z</time>
      </trkpt>
      <trkpt lat="48.69418" lon="1.75606">
        <ele>161.19999694824</ele>
        <time>2014-10-20T08:51:48.000Z</time>
      </trkpt>
      <trkpt lat="48.69412" lon="1.75608">
        <ele>161.39999389648</ele>
        <time>2014-10-20T08:51:54.000Z</time>
      </trkpt>
      <trkpt lat="48.69406" lon="1.75606">
        <ele>161.39999389648</ele>
        <time>2014-10-20T08:51:59.000Z</time>
      </trkpt>
      <trkpt lat="48.69403" lon="1.75606">
        <ele>161.39999389648</ele>
        <time>2014-10-20T08:52:01.000Z</time>
      </trkpt>
      <trkpt lat="48.69395" lon="1.75604">
        <ele>161.60000610352</ele>
        <time>2014-10-20T08:52:05.000Z</time>
      </trkpt>
      <trkpt lat="48.69385" lon="1.75604">
        <ele>161.80000305176</ele>
        <time>2014-10-20T08:52:11.000Z</time>
      </trkpt>
      <trkpt lat="48.69374" lon="1.75602">
        <ele>161.80000305176</ele>
        <time>2014-10-20T08:52:18.000Z</time>
      </trkpt>
      <trkpt lat="48.69364" lon="1.75599">
        <ele>161.60000610352</ele>
        <time>2014-10-20T08:52:26.000Z</time>
      </trkpt>
      <trkpt lat="48.6936" lon="1.75599">
        <ele>161.60000610352</ele>
        <time>2014-10-20T08:52:32.000Z</time>
      </trkpt>
      <trkpt lat="48.69351" lon="1.75598">
        <ele>161.60000610352</ele>
        <time>2014-10-20T08:52:38.000Z</time>
      </trkpt>
      <trkpt lat="48.69342" lon="1.75594">
        <ele>161.19999694824</ele>
        <time>2014-10-20T08:52:44.000Z</time>
      </trkpt>
      <trkpt lat="48.69338" lon="1.75595">
        <ele>161</ele>
        <time>2014-10-20T08:52:50.000Z</time>
      </trkpt>
      <trkpt lat="48.69333" lon="1.75598">
        <ele>161</ele>
        <time>2014-10-20T08:53:01.000Z</time>
      </trkpt>
      <trkpt lat="48.69334" lon="1.75589">
        <ele>160.80000305176</ele>
        <time>2014-10-20T08:53:07.000Z</time>
      </trkpt>
      <trkpt lat="48.69325" lon="1.75618">
        <ele>161.19999694824</ele>
        <time>2014-10-20T08:53:56.000Z</time>
      </trkpt>
      <trkpt lat="48.69323" lon="1.75632">
        <ele>161.39999389648</ele>
        <time>2014-10-20T08:54:02.000Z</time>
      </trkpt>
      <trkpt lat="48.6932" lon="1.75649">
        <ele>161.60000610352</ele>
        <time>2014-10-20T08:54:11.000Z</time>
      </trkpt>
      <trkpt lat="48.69318" lon="1.75665">
        <ele>161.80000305176</ele>
        <time>2014-10-20T08:54:19.000Z</time>
      </trkpt>
      <trkpt lat="48.69319" lon="1.75681">
        <ele>162</ele>
        <time>2014-10-20T08:54:27.000Z</time>
      </trkpt>
      <trkpt lat="48.69317" lon="1.75695">
        <ele>162.19999694824</ele>
        <time>2014-10-20T08:54:35.000Z</time>
      </trkpt>
      <trkpt lat="48.69316" lon="1.75697">
        <ele>162.19999694824</ele>
        <time>2014-10-20T08:54:36.000Z</time>
      </trkpt>
      <trkpt lat="48.69314" lon="1.75704">
        <ele>162.19999694824</ele>
        <time>2014-10-20T08:54:39.000Z</time>
      </trkpt>
      <trkpt lat="48.69311" lon="1.75723">
        <ele>162.39999389648</ele>
        <time>2014-10-20T08:54:48.000Z</time>
      </trkpt>
      <trkpt lat="48.69309" lon="1.7573">
        <ele>162.39999389648</ele>
        <time>2014-10-20T08:54:52.000Z</time>
      </trkpt>
      <trkpt lat="48.69304" lon="1.7574">
        <ele>162.19999694824</ele>
        <time>2014-10-20T08:54:57.000Z</time>
      </trkpt>
      <trkpt lat="48.69302" lon="1.75755">
        <ele>162.39999389648</ele>
        <time>2014-10-20T08:55:05.000Z</time>
      </trkpt>
      <trkpt lat="48.69297" lon="1.75767">
        <ele>162.39999389648</ele>
        <time>2014-10-20T08:55:11.000Z</time>
      </trkpt>
      <trkpt lat="48.69292" lon="1.75776">
        <ele>162.60000610352</ele>
        <time>2014-10-20T08:55:18.000Z</time>
      </trkpt>
      <trkpt lat="48.69288" lon="1.75789">
        <ele>163</ele>
        <time>2014-10-20T08:55:25.000Z</time>
      </trkpt>
      <trkpt lat="48.69288" lon="1.75802">
        <ele>163.60000610352</ele>
        <time>2014-10-20T08:55:33.000Z</time>
      </trkpt>
      <trkpt lat="48.69288" lon="1.75816">
        <ele>164</ele>
        <time>2014-10-20T08:55:40.000Z</time>
      </trkpt>
      <trkpt lat="48.69281" lon="1.75826">
        <ele>164.39999389648</ele>
        <time>2014-10-20T08:55:46.000Z</time>
      </trkpt>
      <trkpt lat="48.69279" lon="1.75835">
        <ele>164.80000305176</ele>
        <time>2014-10-20T08:55:51.000Z</time>
      </trkpt>
      <trkpt lat="48.69279" lon="1.75849">
        <ele>165.60000610352</ele>
        <time>2014-10-20T08:55:58.000Z</time>
      </trkpt>
      <trkpt lat="48.69278" lon="1.75852">
        <ele>165.80000305176</ele>
        <time>2014-10-20T08:56:00.000Z</time>
      </trkpt>
      <trkpt lat="48.69278" lon="1.75859">
        <ele>166.19999694824</ele>
        <time>2014-10-20T08:56:05.000Z</time>
      </trkpt>
      <trkpt lat="48.69278" lon="1.75873">
        <ele>167</ele>
        <time>2014-10-20T08:56:13.000Z</time>
      </trkpt>
      <trkpt lat="48.69277" lon="1.75888">
        <ele>168</ele>
        <time>2014-10-20T08:56:19.000Z</time>
      </trkpt>
      <trkpt lat="48.69275" lon="1.759">
        <ele>168.60000610352</ele>
        <time>2014-10-20T08:56:25.000Z</time>
      </trkpt>
      <trkpt lat="48.69272" lon="1.75909">
        <ele>169.19999694824</ele>
        <time>2014-10-20T08:56:30.000Z</time>
      </trkpt>
      <trkpt lat="48.69274" lon="1.75913">
        <ele>169.60000610352</ele>
        <time>2014-10-20T08:56:36.000Z</time>
      </trkpt>
      <trkpt lat="48.69273" lon="1.75915">
        <ele>169.60000610352</ele>
        <time>2014-10-20T08:56:39.000Z</time>
      </trkpt>
      <trkpt lat="48.69272" lon="1.75917">
        <ele>169.80000305176</ele>
        <time>2014-10-20T08:56:40.000Z</time>
      </trkpt>
      <trkpt lat="48.69272" lon="1.75924">
        <ele>170.19999694824</ele>
        <time>2014-10-20T08:56:45.000Z</time>
      </trkpt>
      <trkpt lat="48.69273" lon="1.75931">
        <ele>170.60000610352</ele>
        <time>2014-10-20T08:56:48.000Z</time>
      </trkpt>
      <trkpt lat="48.69272" lon="1.75944">
        <ele>171.39999389648</ele>
        <time>2014-10-20T08:56:53.000Z</time>
      </trkpt>
      <trkpt lat="48.69271" lon="1.75955">
        <ele>172</ele>
        <time>2014-10-20T08:56:58.000Z</time>
      </trkpt>
      <trkpt lat="48.69269" lon="1.75964">
        <ele>172.60000610352</ele>
        <time>2014-10-20T08:57:03.000Z</time>
      </trkpt>
      <trkpt lat="48.69266" lon="1.75972">
        <ele>173</ele>
        <time>2014-10-20T08:57:07.000Z</time>
      </trkpt>
      <trkpt lat="48.69266" lon="1.75984">
        <ele>173.80000305176</ele>
        <time>2014-10-20T08:57:13.000Z</time>
      </trkpt>
      <trkpt lat="48.69264" lon="1.75991">
        <ele>174.19999694824</ele>
        <time>2014-10-20T08:57:17.000Z</time>
      </trkpt>
      <trkpt lat="48.69258" lon="1.75999">
        <ele>174.60000610352</ele>
        <time>2014-10-20T08:57:22.000Z</time>
      </trkpt>
      <trkpt lat="48.69257" lon="1.76001">
        <ele>174.60000610352</ele>
        <time>2014-10-20T08:57:24.000Z</time>
      </trkpt>
      <trkpt lat="48.69254" lon="1.76011">
        <ele>175.19999694824</ele>
        <time>2014-10-20T08:57:29.000Z</time>
      </trkpt>
      <trkpt lat="48.69249" lon="1.76009">
        <ele>175</ele>
        <time>2014-10-20T08:57:35.000Z</time>
      </trkpt>
      <trkpt lat="48.69244" lon="1.76004">
        <ele>174.60000610352</ele>
        <time>2014-10-20T08:57:42.000Z</time>
      </trkpt>
      <trkpt lat="48.6924" lon="1.76006">
        <ele>174.80000305176</ele>
        <time>2014-10-20T08:57:46.000Z</time>
      </trkpt>
      <trkpt lat="48.69236" lon="1.76014">
        <ele>175.19999694824</ele>
        <time>2014-10-20T08:57:50.000Z</time>
      </trkpt>
      <trkpt lat="48.69234" lon="1.76017">
        <ele>175.39999389648</ele>
        <time>2014-10-20T08:57:52.000Z</time>
      </trkpt>
      <trkpt lat="48.69236" lon="1.76026">
        <ele>175.80000305176</ele>
        <time>2014-10-20T08:57:57.000Z</time>
      </trkpt>
      <trkpt lat="48.69236" lon="1.7603">
        <ele>176.19999694824</ele>
        <time>2014-10-20T08:57:59.000Z</time>
      </trkpt>
      <trkpt lat="48.69236" lon="1.76047">
        <ele>177</ele>
        <time>2014-10-20T08:58:07.000Z</time>
      </trkpt>
      <trkpt lat="48.69237" lon="1.76053">
        <ele>177.19999694824</ele>
        <time>2014-10-20T08:58:10.000Z</time>
      </trkpt>
      <trkpt lat="48.69235" lon="1.76066">
        <ele>177.60000610352</ele>
        <time>2014-10-20T08:58:16.000Z</time>
      </trkpt>
      <trkpt lat="48.69231" lon="1.76082">
        <ele>178</ele>
        <time>2014-10-20T08:58:23.000Z</time>
      </trkpt>
      <trkpt lat="48.6923" lon="1.76096">
        <ele>178.39999389648</ele>
        <time>2014-10-20T08:58:30.000Z</time>
      </trkpt>
      <trkpt lat="48.69228" lon="1.76104">
        <ele>178.60000610352</ele>
        <time>2014-10-20T08:58:35.000Z</time>
      </trkpt>
      <trkpt lat="48.69226" lon="1.7611">
        <ele>178.80000305176</ele>
        <time>2014-10-20T08:58:38.000Z</time>
      </trkpt>
      <trkpt lat="48.69226" lon="1.76122">
        <ele>179.39999389648</ele>
        <time>2014-10-20T08:58:43.000Z</time>
      </trkpt>
      <trkpt lat="48.69226" lon="1.76134">
        <ele>180</ele>
        <time>2014-10-20T08:58:48.000Z</time>
      </trkpt>
      <trkpt lat="48.69225" lon="1.76151">
        <ele>180.80000305176</ele>
        <time>2014-10-20T08:58:57.000Z</time>
      </trkpt>
      <trkpt lat="48.69221" lon="1.76171">
        <ele>180.80000305176</ele>
        <time>2014-10-20T08:59:06.000Z</time>
      </trkpt>
      <trkpt lat="48.69221" lon="1.76184">
        <ele>180.80000305176</ele>
        <time>2014-10-20T08:59:13.000Z</time>
      </trkpt>
      <trkpt lat="48.69219" lon="1.76188">
        <ele>180.80000305176</ele>
        <time>2014-10-20T08:59:15.000Z</time>
      </trkpt>
      <trkpt lat="48.69214" lon="1.76202">
        <ele>181.39999389648</ele>
        <time>2014-10-20T08:59:22.000Z</time>
      </trkpt>
      <trkpt lat="48.69211" lon="1.76211">
        <ele>181.80000305176</ele>
        <time>2014-10-20T08:59:27.000Z</time>
      </trkpt>
      <trkpt lat="48.69209" lon="1.76219">
        <ele>182</ele>
        <time>2014-10-20T08:59:31.000Z</time>
      </trkpt>
      <trkpt lat="48.69208" lon="1.7622">
        <ele>182</ele>
        <time>2014-10-20T08:59:32.000Z</time>
      </trkpt>
      <trkpt lat="48.69207" lon="1.7623">
        <ele>182.39999389648</ele>
        <time>2014-10-20T08:59:38.000Z</time>
      </trkpt>
      <trkpt lat="48.69208" lon="1.76244">
        <ele>182.60000610352</ele>
        <time>2014-10-20T08:59:44.000Z</time>
      </trkpt>
      <trkpt lat="48.69206" lon="1.76255">
        <ele>182.60000610352</ele>
        <time>2014-10-20T08:59:49.000Z</time>
      </trkpt>
      <trkpt lat="48.69203" lon="1.7627">
        <ele>182.60000610352</ele>
        <time>2014-10-20T08:59:57.000Z</time>
      </trkpt>
      <trkpt lat="48.69203" lon="1.76275">
        <ele>182.60000610352</ele>
        <time>2014-10-20T08:59:59.000Z</time>
      </trkpt>
      <trkpt lat="48.692" lon="1.7629">
        <ele>182.60000610352</ele>
        <time>2014-10-20T09:00:06.000Z</time>
      </trkpt>
      <trkpt lat="48.69198" lon="1.763">
        <ele>182.80000305176</ele>
        <time>2014-10-20T09:00:10.000Z</time>
      </trkpt>
      <trkpt lat="48.69197" lon="1.76317">
        <ele>182.80000305176</ele>
        <time>2014-10-20T09:00:17.000Z</time>
      </trkpt>
      <trkpt lat="48.69194" lon="1.76328">
        <ele>182.60000610352</ele>
        <time>2014-10-20T09:00:22.000Z</time>
      </trkpt>
      <trkpt lat="48.69192" lon="1.76341">
        <ele>182</ele>
        <time>2014-10-20T09:00:29.000Z</time>
      </trkpt>
      <trkpt lat="48.69189" lon="1.76348">
        <ele>181.60000610352</ele>
        <time>2014-10-20T09:00:33.000Z</time>
      </trkpt>
      <trkpt lat="48.69186" lon="1.76358">
        <ele>181.19999694824</ele>
        <time>2014-10-20T09:00:39.000Z</time>
      </trkpt>
      <trkpt lat="48.69184" lon="1.76362">
        <ele>181</ele>
        <time>2014-10-20T09:00:42.000Z</time>
      </trkpt>
      <trkpt lat="48.69179" lon="1.76371">
        <ele>180.60000610352</ele>
        <time>2014-10-20T09:00:46.000Z</time>
      </trkpt>
      <trkpt lat="48.6918" lon="1.76377">
        <ele>180.39999389648</ele>
        <time>2014-10-20T09:00:48.000Z</time>
      </trkpt>
      <trkpt lat="48.69181" lon="1.76386">
        <ele>180</ele>
        <time>2014-10-20T09:00:52.000Z</time>
      </trkpt>
      <trkpt lat="48.69181" lon="1.76397">
        <ele>179.39999389648</ele>
        <time>2014-10-20T09:00:56.000Z</time>
      </trkpt>
      <trkpt lat="48.6918" lon="1.764">
        <ele>179.39999389648</ele>
        <time>2014-10-20T09:00:58.000Z</time>
      </trkpt>
      <trkpt lat="48.69178" lon="1.76408">
        <ele>179.19999694824</ele>
        <time>2014-10-20T09:01:02.000Z</time>
      </trkpt>
      <trkpt lat="48.69175" lon="1.76426">
        <ele>178.80000305176</ele>
        <time>2014-10-20T09:01:09.000Z</time>
      </trkpt>
      <trkpt lat="48.69172" lon="1.76432">
        <ele>178.60000610352</ele>
        <time>2014-10-20T09:01:12.000Z</time>
      </trkpt>
      <trkpt lat="48.69168" lon="1.76436">
        <ele>178.60000610352</ele>
        <time>2014-10-20T09:01:15.000Z</time>
      </trkpt>
      <trkpt lat="48.69167" lon="1.76443">
        <ele>178.60000610352</ele>
        <time>2014-10-20T09:01:20.000Z</time>
      </trkpt>
      <trkpt lat="48.69167" lon="1.76449">
        <ele>178.39999389648</ele>
        <time>2014-10-20T09:01:23.000Z</time>
      </trkpt>
      <trkpt lat="48.69165" lon="1.76463">
        <ele>178</ele>
        <time>2014-10-20T09:01:29.000Z</time>
      </trkpt>
      <trkpt lat="48.69161" lon="1.76469">
        <ele>177.80000305176</ele>
        <time>2014-10-20T09:01:33.000Z</time>
      </trkpt>
      <trkpt lat="48.6916" lon="1.76486">
        <ele>177</ele>
        <time>2014-10-20T09:01:40.000Z</time>
      </trkpt>
      <trkpt lat="48.69159" lon="1.765">
        <ele>176.80000305176</ele>
        <time>2014-10-20T09:01:47.000Z</time>
      </trkpt>
      <trkpt lat="48.69155" lon="1.7651">
        <ele>176.80000305176</ele>
        <time>2014-10-20T09:01:53.000Z</time>
      </trkpt>
      <trkpt lat="48.69152" lon="1.76514">
        <ele>176.60000610352</ele>
        <time>2014-10-20T09:01:56.000Z</time>
      </trkpt>
      <trkpt lat="48.6915" lon="1.76523">
        <ele>176.60000610352</ele>
        <time>2014-10-20T09:02:02.000Z</time>
      </trkpt>
      <trkpt lat="48.69147" lon="1.76534">
        <ele>176.39999389648</ele>
        <time>2014-10-20T09:02:07.000Z</time>
      </trkpt>
      <trkpt lat="48.69145" lon="1.76551">
        <ele>175.80000305176</ele>
        <time>2014-10-20T09:02:15.000Z</time>
      </trkpt>
      <trkpt lat="48.69144" lon="1.76554">
        <ele>175.60000610352</ele>
        <time>2014-10-20T09:02:17.000Z</time>
      </trkpt>
      <trkpt lat="48.69142" lon="1.76564">
        <ele>175.19999694824</ele>
        <time>2014-10-20T09:02:22.000Z</time>
      </trkpt>
      <trkpt lat="48.6914" lon="1.76568">
        <ele>175</ele>
        <time>2014-10-20T09:02:24.000Z</time>
      </trkpt>
      <trkpt lat="48.6914" lon="1.76572">
        <ele>174.80000305176</ele>
        <time>2014-10-20T09:02:26.000Z</time>
      </trkpt>
      <trkpt lat="48.69138" lon="1.76586">
        <ele>174.39999389648</ele>
        <time>2014-10-20T09:02:32.000Z</time>
      </trkpt>
      <trkpt lat="48.69137" lon="1.76591">
        <ele>174</ele>
        <time>2014-10-20T09:02:35.000Z</time>
      </trkpt>
      <trkpt lat="48.69135" lon="1.76601">
        <ele>173.60000610352</ele>
        <time>2014-10-20T09:02:41.000Z</time>
      </trkpt>
      <trkpt lat="48.69135" lon="1.76603">
        <ele>173.60000610352</ele>
        <time>2014-10-20T09:02:42.000Z</time>
      </trkpt>
      <trkpt lat="48.69132" lon="1.76614">
        <ele>173.19999694824</ele>
        <time>2014-10-20T09:02:48.000Z</time>
      </trkpt>
      <trkpt lat="48.6913" lon="1.76623">
        <ele>172.80000305176</ele>
        <time>2014-10-20T09:02:53.000Z</time>
      </trkpt>
      <trkpt lat="48.69125" lon="1.76631">
        <ele>172.39999389648</ele>
        <time>2014-10-20T09:02:57.000Z</time>
      </trkpt>
      <trkpt lat="48.69122" lon="1.76639">
        <ele>172</ele>
        <time>2014-10-20T09:03:02.000Z</time>
      </trkpt>
      <trkpt lat="48.69121" lon="1.76643">
        <ele>171.80000305176</ele>
        <time>2014-10-20T09:03:05.000Z</time>
      </trkpt>
      <trkpt lat="48.69118" lon="1.76652">
        <ele>171.39999389648</ele>
        <time>2014-10-20T09:03:11.000Z</time>
      </trkpt>
      <trkpt lat="48.69117" lon="1.76661">
        <ele>170.80000305176</ele>
        <time>2014-10-20T09:03:15.000Z</time>
      </trkpt>
      <trkpt lat="48.69114" lon="1.76671">
        <ele>170</ele>
        <time>2014-10-20T09:03:21.000Z</time>
      </trkpt>
      <trkpt lat="48.69114" lon="1.76682">
        <ele>169.60000610352</ele>
        <time>2014-10-20T09:03:28.000Z</time>
      </trkpt>
      <trkpt lat="48.6911" lon="1.76691">
        <ele>169.19999694824</ele>
        <time>2014-10-20T09:03:33.000Z</time>
      </trkpt>
      <trkpt lat="48.69108" lon="1.76698">
        <ele>168.80000305176</ele>
        <time>2014-10-20T09:03:36.000Z</time>
      </trkpt>
      <trkpt lat="48.69099" lon="1.76721">
        <ele>167.60000610352</ele>
        <time>2014-10-20T09:03:43.000Z</time>
      </trkpt>
      <trkpt lat="48.69101" lon="1.76735">
        <ele>167</ele>
        <time>2014-10-20T09:03:49.000Z</time>
      </trkpt>
      <trkpt lat="48.691" lon="1.76749">
        <ele>166.60000610352</ele>
        <time>2014-10-20T09:03:55.000Z</time>
      </trkpt>
      <trkpt lat="48.69095" lon="1.76762">
        <ele>166.19999694824</ele>
        <time>2014-10-20T09:04:01.000Z</time>
      </trkpt>
      <trkpt lat="48.6909" lon="1.76776">
        <ele>165.80000305176</ele>
        <time>2014-10-20T09:04:07.000Z</time>
      </trkpt>
      <trkpt lat="48.69088" lon="1.76787">
        <ele>165.39999389648</ele>
        <time>2014-10-20T09:04:13.000Z</time>
      </trkpt>
      <trkpt lat="48.69088" lon="1.76796">
        <ele>165.19999694824</ele>
        <time>2014-10-20T09:04:17.000Z</time>
      </trkpt>
      <trkpt lat="48.69088" lon="1.7681">
        <ele>165</ele>
        <time>2014-10-20T09:04:24.000Z</time>
      </trkpt>
      <trkpt lat="48.69087" lon="1.76816">
        <ele>165</ele>
        <time>2014-10-20T09:04:27.000Z</time>
      </trkpt>
      <trkpt lat="48.69085" lon="1.76826">
        <ele>164.80000305176</ele>
        <time>2014-10-20T09:04:33.000Z</time>
      </trkpt>
      <trkpt lat="48.69084" lon="1.76833">
        <ele>164.60000610352</ele>
        <time>2014-10-20T09:04:37.000Z</time>
      </trkpt>
      <trkpt lat="48.69079" lon="1.76846">
        <ele>164.19999694824</ele>
        <time>2014-10-20T09:04:44.000Z</time>
      </trkpt>
      <trkpt lat="48.69075" lon="1.76861">
        <ele>163.60000610352</ele>
        <time>2014-10-20T09:04:52.000Z</time>
      </trkpt>
      <trkpt lat="48.69073" lon="1.76867">
        <ele>163.39999389648</ele>
        <time>2014-10-20T09:04:58.000Z</time>
      </trkpt>
      <trkpt lat="48.69073" lon="1.76867">
        <ele>163.39999389648</ele>
        <time>2014-10-20T09:04:59.000Z</time>
      </trkpt>
      <trkpt lat="48.69073" lon="1.76875">
        <ele>163</ele>
        <time>2014-10-20T09:05:12.000Z</time>
      </trkpt>
      <trkpt lat="48.69084" lon="1.76884">
        <ele>162.80000305176</ele>
        <time>2014-10-20T09:05:17.000Z</time>
      </trkpt>
      <trkpt lat="48.69086" lon="1.76886">
        <ele>162.60000610352</ele>
        <time>2014-10-20T09:05:19.000Z</time>
      </trkpt>
      <trkpt lat="48.69093" lon="1.76887">
        <ele>162.60000610352</ele>
        <time>2014-10-20T09:05:23.000Z</time>
      </trkpt>
      <trkpt lat="48.69108" lon="1.76889">
        <ele>162.60000610352</ele>
        <time>2014-10-20T09:05:32.000Z</time>
      </trkpt>
      <trkpt lat="48.69116" lon="1.76891">
        <ele>162.60000610352</ele>
        <time>2014-10-20T09:05:37.000Z</time>
      </trkpt>
      <trkpt lat="48.69121" lon="1.76895">
        <ele>162.60000610352</ele>
        <time>2014-10-20T09:05:40.000Z</time>
      </trkpt>
      <trkpt lat="48.6913" lon="1.76897">
        <ele>162.60000610352</ele>
        <time>2014-10-20T09:05:47.000Z</time>
      </trkpt>
      <trkpt lat="48.69139" lon="1.76898">
        <ele>162.60000610352</ele>
        <time>2014-10-20T09:05:53.000Z</time>
      </trkpt>
      <trkpt lat="48.69147" lon="1.76903">
        <ele>162.60000610352</ele>
        <time>2014-10-20T09:06:00.000Z</time>
      </trkpt>
      <trkpt lat="48.69157" lon="1.7691">
        <ele>162.60000610352</ele>
        <time>2014-10-20T09:06:07.000Z</time>
      </trkpt>
      <trkpt lat="48.69167" lon="1.76913">
        <ele>162.80000305176</ele>
        <time>2014-10-20T09:06:13.000Z</time>
      </trkpt>
      <trkpt lat="48.69171" lon="1.76917">
        <ele>162.80000305176</ele>
        <time>2014-10-20T09:06:16.000Z</time>
      </trkpt>
      <trkpt lat="48.69182" lon="1.76925">
        <ele>163</ele>
        <time>2014-10-20T09:06:23.000Z</time>
      </trkpt>
      <trkpt lat="48.69187" lon="1.76931">
        <ele>163</ele>
        <time>2014-10-20T09:06:29.000Z</time>
      </trkpt>
      <trkpt lat="48.69191" lon="1.76935">
        <ele>163</ele>
        <time>2014-10-20T09:06:33.000Z</time>
      </trkpt>
      <trkpt lat="48.69206" lon="1.76942">
        <ele>163.39999389648</ele>
        <time>2014-10-20T09:06:41.000Z</time>
      </trkpt>
      <trkpt lat="48.69213" lon="1.76942">
        <ele>163.60000610352</ele>
        <time>2014-10-20T09:06:45.000Z</time>
      </trkpt>
      <trkpt lat="48.69223" lon="1.76948">
        <ele>163.80000305176</ele>
        <time>2014-10-20T09:06:52.000Z</time>
      </trkpt>
      <trkpt lat="48.69228" lon="1.76951">
        <ele>164</ele>
        <time>2014-10-20T09:06:57.000Z</time>
      </trkpt>
      <trkpt lat="48.69237" lon="1.76958">
        <ele>164.19999694824</ele>
        <time>2014-10-20T09:07:05.000Z</time>
      </trkpt>
      <trkpt lat="48.69245" lon="1.76961">
        <ele>164.39999389648</ele>
        <time>2014-10-20T09:07:11.000Z</time>
      </trkpt>
      <trkpt lat="48.69254" lon="1.76969">
        <ele>164.60000610352</ele>
        <time>2014-10-20T09:07:18.000Z</time>
      </trkpt>
      <trkpt lat="48.69258" lon="1.76977">
        <ele>164.80000305176</ele>
        <time>2014-10-20T09:07:22.000Z</time>
      </trkpt>
      <trkpt lat="48.69256" lon="1.76989">
        <ele>164.60000610352</ele>
        <time>2014-10-20T09:07:28.000Z</time>
      </trkpt>
      <trkpt lat="48.69255" lon="1.76991">
        <ele>164.60000610352</ele>
        <time>2014-10-20T09:07:29.000Z</time>
      </trkpt>
      <trkpt lat="48.69245" lon="1.77002">
        <ele>164.19999694824</ele>
        <time>2014-10-20T09:07:36.000Z</time>
      </trkpt>
      <trkpt lat="48.69236" lon="1.77012">
        <ele>164</ele>
        <time>2014-10-20T09:07:43.000Z</time>
      </trkpt>
      <trkpt lat="48.69231" lon="1.77016">
        <ele>163.80000305176</ele>
        <time>2014-10-20T09:07:48.000Z</time>
      </trkpt>
      <trkpt lat="48.69224" lon="1.77028">
        <ele>163.39999389648</ele>
        <time>2014-10-20T09:07:55.000Z</time>
      </trkpt>
      <trkpt lat="48.69222" lon="1.77029">
        <ele>163.19999694824</ele>
        <time>2014-10-20T09:07:56.000Z</time>
      </trkpt>
      <trkpt lat="48.69209" lon="1.77036">
        <ele>162</ele>
        <time>2014-10-20T09:08:04.000Z</time>
      </trkpt>
      <trkpt lat="48.69202" lon="1.77045">
        <ele>161.19999694824</ele>
        <time>2014-10-20T09:08:11.000Z</time>
      </trkpt>
      <trkpt lat="48.69196" lon="1.77046">
        <ele>160.80000305176</ele>
        <time>2014-10-20T09:08:15.000Z</time>
      </trkpt>
      <trkpt lat="48.69193" lon="1.77051">
        <ele>160.39999389648</ele>
        <time>2014-10-20T09:08:19.000Z</time>
      </trkpt>
      <trkpt lat="48.69185" lon="1.7706">
        <ele>159.60000610352</ele>
        <time>2014-10-20T09:08:26.000Z</time>
      </trkpt>
      <trkpt lat="48.69176" lon="1.77059">
        <ele>159.39999389648</ele>
        <time>2014-10-20T09:08:32.000Z</time>
      </trkpt>
      <trkpt lat="48.69168" lon="1.77054">
        <ele>159.39999389648</ele>
        <time>2014-10-20T09:08:38.000Z</time>
      </trkpt>
      <trkpt lat="48.69162" lon="1.77053">
        <ele>159.39999389648</ele>
        <time>2014-10-20T09:08:41.000Z</time>
      </trkpt>
      <trkpt lat="48.69159" lon="1.77053">
        <ele>159.39999389648</ele>
        <time>2014-10-20T09:08:43.000Z</time>
      </trkpt>
      <trkpt lat="48.69155" lon="1.77051">
        <ele>159.39999389648</ele>
        <time>2014-10-20T09:08:49.000Z</time>
      </trkpt>
      <trkpt lat="48.69152" lon="1.7705">
        <ele>159.60000610352</ele>
        <time>2014-10-20T09:08:52.000Z</time>
      </trkpt>
      <trkpt lat="48.69139" lon="1.77051">
        <ele>159.39999389648</ele>
        <time>2014-10-20T09:09:00.000Z</time>
      </trkpt>
      <trkpt lat="48.6913" lon="1.77052">
        <ele>159.39999389648</ele>
        <time>2014-10-20T09:09:05.000Z</time>
      </trkpt>
      <trkpt lat="48.6912" lon="1.77053">
        <ele>159.39999389648</ele>
        <time>2014-10-20T09:09:11.000Z</time>
      </trkpt>
      <trkpt lat="48.69113" lon="1.77047">
        <ele>159.60000610352</ele>
        <time>2014-10-20T09:09:17.000Z</time>
      </trkpt>
      <trkpt lat="48.69103" lon="1.77046">
        <ele>159.60000610352</ele>
        <time>2014-10-20T09:09:23.000Z</time>
      </trkpt>
      <trkpt lat="48.69092" lon="1.7704">
        <ele>159.39999389648</ele>
        <time>2014-10-20T09:09:30.000Z</time>
      </trkpt>
      <trkpt lat="48.69091" lon="1.7704">
        <ele>159.39999389648</ele>
        <time>2014-10-20T09:09:31.000Z</time>
      </trkpt>
      <trkpt lat="48.6908" lon="1.77038">
        <ele>159.19999694824</ele>
        <time>2014-10-20T09:09:37.000Z</time>
      </trkpt>
      <trkpt lat="48.69075" lon="1.77038">
        <ele>159.19999694824</ele>
        <time>2014-10-20T09:09:40.000Z</time>
      </trkpt>
      <trkpt lat="48.69071" lon="1.7704">
        <ele>159</ele>
        <time>2014-10-20T09:09:44.000Z</time>
      </trkpt>
      <trkpt lat="48.69063" lon="1.77039">
        <ele>159</ele>
        <time>2014-10-20T09:09:48.000Z</time>
      </trkpt>
      <trkpt lat="48.69055" lon="1.77044">
        <ele>158.80000305176</ele>
        <time>2014-10-20T09:09:54.000Z</time>
      </trkpt>
      <trkpt lat="48.69054" lon="1.77047">
        <ele>158.80000305176</ele>
        <time>2014-10-20T09:09:58.000Z</time>
      </trkpt>
      <trkpt lat="48.69043" lon="1.7705">
        <ele>158.60000610352</ele>
        <time>2014-10-20T09:10:03.000Z</time>
      </trkpt>
      <trkpt lat="48.69034" lon="1.77058">
        <ele>158.39999389648</ele>
        <time>2014-10-20T09:10:11.000Z</time>
      </trkpt>
      <trkpt lat="48.69036" lon="1.77062">
        <ele>158.39999389648</ele>
        <time>2014-10-20T09:10:18.000Z</time>
      </trkpt>
      <trkpt lat="48.6904" lon="1.77061">
        <ele>158.39999389648</ele>
        <time>2014-10-20T09:10:29.000Z</time>
      </trkpt>
      <trkpt lat="48.69036" lon="1.77056">
        <ele>158.39999389648</ele>
        <time>2014-10-20T09:10:35.000Z</time>
      </trkpt>
      <trkpt lat="48.69035" lon="1.77049">
        <ele>158.39999389648</ele>
        <time>2014-10-20T09:10:42.000Z</time>
      </trkpt>
      <trkpt lat="48.69021" lon="1.77049">
        <ele>158.19999694824</ele>
        <time>2014-10-20T09:10:51.000Z</time>
      </trkpt>
      <trkpt lat="48.69009" lon="1.77047">
        <ele>158.39999389648</ele>
        <time>2014-10-20T09:10:56.000Z</time>
      </trkpt>
      <trkpt lat="48.69003" lon="1.77052">
        <ele>158.39999389648</ele>
        <time>2014-10-20T09:11:00.000Z</time>
      </trkpt>
      <trkpt lat="48.6899" lon="1.77059">
        <ele>157.60000610352</ele>
        <time>2014-10-20T09:11:07.000Z</time>
      </trkpt>
      <trkpt lat="48.6898" lon="1.77067">
        <ele>156.80000305176</ele>
        <time>2014-10-20T09:11:12.000Z</time>
      </trkpt>
      <trkpt lat="48.68965" lon="1.77073">
        <ele>156</ele>
        <time>2014-10-20T09:11:17.000Z</time>
      </trkpt>
      <trkpt lat="48.68944" lon="1.77078">
        <ele>155.39999389648</ele>
        <time>2014-10-20T09:11:23.000Z</time>
      </trkpt>
      <trkpt lat="48.68932" lon="1.77087">
        <ele>155</ele>
        <time>2014-10-20T09:11:27.000Z</time>
      </trkpt>
      <trkpt lat="48.6893" lon="1.77086">
        <ele>155</ele>
        <time>2014-10-20T09:11:28.000Z</time>
      </trkpt>
      <trkpt lat="48.6891" lon="1.77086">
        <ele>154.60000610352</ele>
        <time>2014-10-20T09:11:35.000Z</time>
      </trkpt>
      <trkpt lat="48.68891" lon="1.77086">
        <ele>154</ele>
        <time>2014-10-20T09:11:40.000Z</time>
      </trkpt>
      <trkpt lat="48.68874" lon="1.7709">
        <ele>153.80000305176</ele>
        <time>2014-10-20T09:11:45.000Z</time>
      </trkpt>
      <trkpt lat="48.68858" lon="1.77089">
        <ele>153.39999389648</ele>
        <time>2014-10-20T09:11:49.000Z</time>
      </trkpt>
      <trkpt lat="48.68838" lon="1.77091">
        <ele>152.80000305176</ele>
        <time>2014-10-20T09:11:54.000Z</time>
      </trkpt>
      <trkpt lat="48.68823" lon="1.77095">
        <ele>152.60000610352</ele>
        <time>2014-10-20T09:11:59.000Z</time>
      </trkpt>
      <trkpt lat="48.68811" lon="1.77099">
        <ele>152.39999389648</ele>
        <time>2014-10-20T09:12:05.000Z</time>
      </trkpt>
      <trkpt lat="48.68802" lon="1.77106">
        <ele>152.19999694824</ele>
        <time>2014-10-20T09:12:11.000Z</time>
      </trkpt>
      <trkpt lat="48.68797" lon="1.77113">
        <ele>152.39999389648</ele>
        <time>2014-10-20T09:12:16.000Z</time>
      </trkpt>
      <trkpt lat="48.68791" lon="1.77122">
        <ele>152.39999389648</ele>
        <time>2014-10-20T09:12:22.000Z</time>
      </trkpt>
      <trkpt lat="48.68779" lon="1.77133">
        <ele>152.60000610352</ele>
        <time>2014-10-20T09:12:31.000Z</time>
      </trkpt>
      <trkpt lat="48.68778" lon="1.77134">
        <ele>152.60000610352</ele>
        <time>2014-10-20T09:12:32.000Z</time>
      </trkpt>
      <trkpt lat="48.68771" lon="1.77137">
        <ele>152.60000610352</ele>
        <time>2014-10-20T09:12:36.000Z</time>
      </trkpt>
      <trkpt lat="48.68764" lon="1.77144">
        <ele>152.80000305176</ele>
        <time>2014-10-20T09:12:41.000Z</time>
      </trkpt>
      <trkpt lat="48.68756" lon="1.7715">
        <ele>152.80000305176</ele>
        <time>2014-10-20T09:12:46.000Z</time>
      </trkpt>
      <trkpt lat="48.68749" lon="1.77149">
        <ele>152.60000610352</ele>
        <time>2014-10-20T09:12:50.000Z</time>
      </trkpt>
      <trkpt lat="48.68737" lon="1.77154">
        <ele>152.19999694824</ele>
        <time>2014-10-20T09:12:58.000Z</time>
      </trkpt>
      <trkpt lat="48.68729" lon="1.7716">
        <ele>152.19999694824</ele>
        <time>2014-10-20T09:13:05.000Z</time>
      </trkpt>
      <trkpt lat="48.68726" lon="1.7717">
        <ele>152.39999389648</ele>
        <time>2014-10-20T09:13:13.000Z</time>
      </trkpt>
      <trkpt lat="48.6872" lon="1.77176">
        <ele>152.60000610352</ele>
        <time>2014-10-20T09:13:19.000Z</time>
      </trkpt>
      <trkpt lat="48.68715" lon="1.77185">
        <ele>152.80000305176</ele>
        <time>2014-10-20T09:13:25.000Z</time>
      </trkpt>
      <trkpt lat="48.68712" lon="1.77191">
        <ele>152.80000305176</ele>
        <time>2014-10-20T09:13:30.000Z</time>
      </trkpt>
      <trkpt lat="48.68706" lon="1.77195">
        <ele>152.60000610352</ele>
        <time>2014-10-20T09:13:34.000Z</time>
      </trkpt>
      <trkpt lat="48.68702" lon="1.77196">
        <ele>152.60000610352</ele>
        <time>2014-10-20T09:13:42.000Z</time>
      </trkpt>
      <trkpt lat="48.68702" lon="1.77196">
        <ele>152.60000610352</ele>
        <time>2014-10-20T09:13:43.000Z</time>
      </trkpt>
      <trkpt lat="48.68706" lon="1.77226">
        <ele>153.39999389648</ele>
        <time>2014-10-20T09:14:16.000Z</time>
      </trkpt>
      <trkpt lat="48.68704" lon="1.77232">
        <ele>153.39999389648</ele>
        <time>2014-10-20T09:14:18.000Z</time>
      </trkpt>
      <trkpt lat="48.687" lon="1.77252">
        <ele>154</ele>
        <time>2014-10-20T09:14:26.000Z</time>
      </trkpt>
      <trkpt lat="48.68698" lon="1.77263">
        <ele>154.60000610352</ele>
        <time>2014-10-20T09:14:31.000Z</time>
      </trkpt>
      <trkpt lat="48.68698" lon="1.77269">
        <ele>155</ele>
        <time>2014-10-20T09:14:35.000Z</time>
      </trkpt>
      <trkpt lat="48.68695" lon="1.77285">
        <ele>156</ele>
        <time>2014-10-20T09:14:42.000Z</time>
      </trkpt>
      <trkpt lat="48.68693" lon="1.77293">
        <ele>156.39999389648</ele>
        <time>2014-10-20T09:14:45.000Z</time>
      </trkpt>
      <trkpt lat="48.68691" lon="1.77312">
        <ele>157.39999389648</ele>
        <time>2014-10-20T09:14:52.000Z</time>
      </trkpt>
      <trkpt lat="48.68685" lon="1.77336">
        <ele>158.80000305176</ele>
        <time>2014-10-20T09:14:58.000Z</time>
      </trkpt>
      <trkpt lat="48.68677" lon="1.77362">
        <ele>159.80000305176</ele>
        <time>2014-10-20T09:15:03.000Z</time>
      </trkpt>
      <trkpt lat="48.68673" lon="1.77395">
        <ele>161.39999389648</ele>
        <time>2014-10-20T09:15:09.000Z</time>
      </trkpt>
      <trkpt lat="48.68672" lon="1.7742">
        <ele>161.80000305176</ele>
        <time>2014-10-20T09:15:14.000Z</time>
      </trkpt>
      <trkpt lat="48.68675" lon="1.77445">
        <ele>162.39999389648</ele>
        <time>2014-10-20T09:15:19.000Z</time>
      </trkpt>
      <trkpt lat="48.68676" lon="1.77468">
        <ele>162.80000305176</ele>
        <time>2014-10-20T09:15:24.000Z</time>
      </trkpt>
      <trkpt lat="48.68677" lon="1.77502">
        <ele>163.60000610352</ele>
        <time>2014-10-20T09:15:31.000Z</time>
      </trkpt>
      <trkpt lat="48.68679" lon="1.7751">
        <ele>163.80000305176</ele>
        <time>2014-10-20T09:15:33.000Z</time>
      </trkpt>
      <trkpt lat="48.68678" lon="1.77528">
        <ele>164</ele>
        <time>2014-10-20T09:15:38.000Z</time>
      </trkpt>
      <trkpt lat="48.68677" lon="1.77534">
        <ele>164</ele>
        <time>2014-10-20T09:15:40.000Z</time>
      </trkpt>
      <trkpt lat="48.68676" lon="1.77566">
        <ele>164.39999389648</ele>
        <time>2014-10-20T09:15:46.000Z</time>
      </trkpt>
      <trkpt lat="48.68676" lon="1.77591">
        <ele>165</ele>
        <time>2014-10-20T09:15:51.000Z</time>
      </trkpt>
      <trkpt lat="48.68678" lon="1.7761">
        <ele>165.60000610352</ele>
        <time>2014-10-20T09:15:56.000Z</time>
      </trkpt>
      <trkpt lat="48.68676" lon="1.77632">
        <ele>166</ele>
        <time>2014-10-20T09:16:01.000Z</time>
      </trkpt>
      <trkpt lat="48.6868" lon="1.77662">
        <ele>167</ele>
        <time>2014-10-20T09:16:07.000Z</time>
      </trkpt>
      <trkpt lat="48.68685" lon="1.77692">
        <ele>167.80000305176</ele>
        <time>2014-10-20T09:16:13.000Z</time>
      </trkpt>
      <trkpt lat="48.68687" lon="1.7771">
        <ele>168.39999389648</ele>
        <time>2014-10-20T09:16:18.000Z</time>
      </trkpt>
      <trkpt lat="48.6869" lon="1.77731">
        <ele>168.80000305176</ele>
        <time>2014-10-20T09:16:23.000Z</time>
      </trkpt>
      <trkpt lat="48.68692" lon="1.77744">
        <ele>169.19999694824</ele>
        <time>2014-10-20T09:16:26.000Z</time>
      </trkpt>
      <trkpt lat="48.68693" lon="1.77763">
        <ele>169.80000305176</ele>
        <time>2014-10-20T09:16:31.000Z</time>
      </trkpt>
      <trkpt lat="48.68694" lon="1.7779">
        <ele>170.80000305176</ele>
        <time>2014-10-20T09:16:36.000Z</time>
      </trkpt>
      <trkpt lat="48.68701" lon="1.77816">
        <ele>171.60000610352</ele>
        <time>2014-10-20T09:16:42.000Z</time>
      </trkpt>
      <trkpt lat="48.68702" lon="1.77843">
        <ele>173.60000610352</ele>
        <time>2014-10-20T09:16:48.000Z</time>
      </trkpt>
      <trkpt lat="48.68706" lon="1.77866">
        <ele>175.60000610352</ele>
        <time>2014-10-20T09:16:53.000Z</time>
      </trkpt>
      <trkpt lat="48.68706" lon="1.7787">
        <ele>175.80000305176</ele>
        <time>2014-10-20T09:16:54.000Z</time>
      </trkpt>
      <trkpt lat="48.68707" lon="1.77888">
        <ele>177.39999389648</ele>
        <time>2014-10-20T09:16:59.000Z</time>
      </trkpt>
      <trkpt lat="48.68708" lon="1.77892">
        <ele>177.60000610352</ele>
        <time>2014-10-20T09:17:00.000Z</time>
      </trkpt>
      <trkpt lat="48.68717" lon="1.77916">
        <ele>179.19999694824</ele>
        <time>2014-10-20T09:17:06.000Z</time>
      </trkpt>
      <trkpt lat="48.6872" lon="1.77939">
        <ele>180.19999694824</ele>
        <time>2014-10-20T09:17:11.000Z</time>
      </trkpt>
      <trkpt lat="48.68725" lon="1.77962">
        <ele>181</ele>
        <time>2014-10-20T09:17:16.000Z</time>
      </trkpt>
      <trkpt lat="48.68727" lon="1.77981">
        <ele>181.80000305176</ele>
        <time>2014-10-20T09:17:20.000Z</time>
      </trkpt>
      <trkpt lat="48.68728" lon="1.77994">
        <ele>182</ele>
        <time>2014-10-20T09:17:24.000Z</time>
      </trkpt>
      <trkpt lat="48.68731" lon="1.78021">
        <ele>182</ele>
        <time>2014-10-20T09:17:31.000Z</time>
      </trkpt>
      <trkpt lat="48.68734" lon="1.78037">
        <ele>182</ele>
        <time>2014-10-20T09:17:37.000Z</time>
      </trkpt>
      <trkpt lat="48.68737" lon="1.78044">
        <ele>182</ele>
        <time>2014-10-20T09:17:42.000Z</time>
      </trkpt>
      <trkpt lat="48.68737" lon="1.78047">
        <ele>182</ele>
        <time>2014-10-20T09:17:46.000Z</time>
      </trkpt>
      <trkpt lat="48.68735" lon="1.78047">
        <ele>182</ele>
        <time>2014-10-20T09:17:54.000Z</time>
      </trkpt>
      <trkpt lat="48.68733" lon="1.78048">
        <ele>182</ele>
        <time>2014-10-20T09:17:56.000Z</time>
      </trkpt>
      <trkpt lat="48.68722" lon="1.78045">
        <ele>182</ele>
        <time>2014-10-20T09:18:03.000Z</time>
      </trkpt>
      <trkpt lat="48.6872" lon="1.78045">
        <ele>182</ele>
        <time>2014-10-20T09:18:04.000Z</time>
      </trkpt>
      <trkpt lat="48.68709" lon="1.78042">
        <ele>182</ele>
        <time>2014-10-20T09:18:12.000Z</time>
      </trkpt>
      <trkpt lat="48.68702" lon="1.7804">
        <ele>182</ele>
        <time>2014-10-20T09:18:17.000Z</time>
      </trkpt>
      <trkpt lat="48.68694" lon="1.78038">
        <ele>182</ele>
        <time>2014-10-20T09:18:23.000Z</time>
      </trkpt>
      <trkpt lat="48.68684" lon="1.78037">
        <ele>181.80000305176</ele>
        <time>2014-10-20T09:18:29.000Z</time>
      </trkpt>
      <trkpt lat="48.68675" lon="1.78032">
        <ele>181</ele>
        <time>2014-10-20T09:18:36.000Z</time>
      </trkpt>
      <trkpt lat="48.6867" lon="1.78026">
        <ele>180.60000610352</ele>
        <time>2014-10-20T09:18:41.000Z</time>
      </trkpt>
      <trkpt lat="48.68662" lon="1.78024">
        <ele>180</ele>
        <time>2014-10-20T09:18:48.000Z</time>
      </trkpt>
      <trkpt lat="48.68653" lon="1.78025">
        <ele>179.19999694824</ele>
        <time>2014-10-20T09:18:53.000Z</time>
      </trkpt>
      <trkpt lat="48.68645" lon="1.78029">
        <ele>178.60000610352</ele>
        <time>2014-10-20T09:19:00.000Z</time>
      </trkpt>
      <trkpt lat="48.68643" lon="1.78032">
        <ele>178.39999389648</ele>
        <time>2014-10-20T09:19:04.000Z</time>
      </trkpt>
      <trkpt lat="48.68641" lon="1.78034">
        <ele>178.39999389648</ele>
        <time>2014-10-20T09:19:07.000Z</time>
      </trkpt>
      <trkpt lat="48.68635" lon="1.78042">
        <ele>178.19999694824</ele>
        <time>2014-10-20T09:19:11.000Z</time>
      </trkpt>
      <trkpt lat="48.68632" lon="1.78044">
        <ele>178.19999694824</ele>
        <time>2014-10-20T09:19:13.000Z</time>
      </trkpt>
      <trkpt lat="48.68623" lon="1.78054">
        <ele>177.80000305176</ele>
        <time>2014-10-20T09:19:21.000Z</time>
      </trkpt>
      <trkpt lat="48.68616" lon="1.78063">
        <ele>177.60000610352</ele>
        <time>2014-10-20T09:19:27.000Z</time>
      </trkpt>
      <trkpt lat="48.68614" lon="1.78067">
        <ele>177.60000610352</ele>
        <time>2014-10-20T09:19:29.000Z</time>
      </trkpt>
      <trkpt lat="48.68611" lon="1.78074">
        <ele>177.39999389648</ele>
        <time>2014-10-20T09:19:34.000Z</time>
      </trkpt>
      <trkpt lat="48.68607" lon="1.7808">
        <ele>176.80000305176</ele>
        <time>2014-10-20T09:19:38.000Z</time>
      </trkpt>
      <trkpt lat="48.68603" lon="1.78087">
        <ele>176.19999694824</ele>
        <time>2014-10-20T09:19:42.000Z</time>
      </trkpt>
      <trkpt lat="48.68596" lon="1.78099">
        <ele>174.80000305176</ele>
        <time>2014-10-20T09:19:49.000Z</time>
      </trkpt>
      <trkpt lat="48.68588" lon="1.7811">
        <ele>173.60000610352</ele>
        <time>2014-10-20T09:19:55.000Z</time>
      </trkpt>
      <trkpt lat="48.68582" lon="1.78115">
        <ele>172.60000610352</ele>
        <time>2014-10-20T09:20:00.000Z</time>
      </trkpt>
      <trkpt lat="48.6858" lon="1.78118">
        <ele>172.19999694824</ele>
        <time>2014-10-20T09:20:03.000Z</time>
      </trkpt>
      <trkpt lat="48.68571" lon="1.78129">
        <ele>171</ele>
        <time>2014-10-20T09:20:10.000Z</time>
      </trkpt>
      <trkpt lat="48.68564" lon="1.78138">
        <ele>170.60000610352</ele>
        <time>2014-10-20T09:20:17.000Z</time>
      </trkpt>
      <trkpt lat="48.68563" lon="1.78139">
        <ele>170.60000610352</ele>
        <time>2014-10-20T09:20:18.000Z</time>
      </trkpt>
      <trkpt lat="48.68552" lon="1.78152">
        <ele>170</ele>
        <time>2014-10-20T09:20:27.000Z</time>
      </trkpt>
      <trkpt lat="48.68543" lon="1.78162">
        <ele>169.19999694824</ele>
        <time>2014-10-20T09:20:34.000Z</time>
      </trkpt>
      <trkpt lat="48.68541" lon="1.78163">
        <ele>169.19999694824</ele>
        <time>2014-10-20T09:20:35.000Z</time>
      </trkpt>
      <trkpt lat="48.68536" lon="1.78172">
        <ele>168.60000610352</ele>
        <time>2014-10-20T09:20:40.000Z</time>
      </trkpt>
      <trkpt lat="48.68528" lon="1.78184">
        <ele>169</ele>
        <time>2014-10-20T09:20:46.000Z</time>
      </trkpt>
      <trkpt lat="48.68524" lon="1.78187">
        <ele>169.19999694824</ele>
        <time>2014-10-20T09:20:48.000Z</time>
      </trkpt>
      <trkpt lat="48.68512" lon="1.78198">
        <ele>169.19999694824</ele>
        <time>2014-10-20T09:20:55.000Z</time>
      </trkpt>
      <trkpt lat="48.68508" lon="1.78204">
        <ele>169.39999389648</ele>
        <time>2014-10-20T09:20:59.000Z</time>
      </trkpt>
      <trkpt lat="48.68499" lon="1.78211">
        <ele>169.19999694824</ele>
        <time>2014-10-20T09:21:05.000Z</time>
      </trkpt>
      <trkpt lat="48.68493" lon="1.78222">
        <ele>170.19999694824</ele>
        <time>2014-10-20T09:21:13.000Z</time>
      </trkpt>
      <trkpt lat="48.68487" lon="1.78234">
        <ele>171.80000305176</ele>
        <time>2014-10-20T09:21:19.000Z</time>
      </trkpt>
      <trkpt lat="48.68485" lon="1.78238">
        <ele>172.19999694824</ele>
        <time>2014-10-20T09:21:22.000Z</time>
      </trkpt>
      <trkpt lat="48.6847" lon="1.7825">
        <ele>173.60000610352</ele>
        <time>2014-10-20T09:21:30.000Z</time>
      </trkpt>
      <trkpt lat="48.68462" lon="1.7826">
        <ele>174.60000610352</ele>
        <time>2014-10-20T09:21:34.000Z</time>
      </trkpt>
      <trkpt lat="48.68458" lon="1.78266">
        <ele>175.19999694824</ele>
        <time>2014-10-20T09:21:37.000Z</time>
      </trkpt>
      <trkpt lat="48.68445" lon="1.78274">
        <ele>176</ele>
        <time>2014-10-20T09:21:44.000Z</time>
      </trkpt>
      <trkpt lat="48.68438" lon="1.78284">
        <ele>176.80000305176</ele>
        <time>2014-10-20T09:21:51.000Z</time>
      </trkpt>
      <trkpt lat="48.68435" lon="1.78294">
        <ele>177.39999389648</ele>
        <time>2014-10-20T09:21:58.000Z</time>
      </trkpt>
      <trkpt lat="48.68435" lon="1.78295">
        <ele>177.39999389648</ele>
        <time>2014-10-20T09:21:59.000Z</time>
      </trkpt>
      <trkpt lat="48.6843" lon="1.78307">
        <ele>177.80000305176</ele>
        <time>2014-10-20T09:22:06.000Z</time>
      </trkpt>
      <trkpt lat="48.68424" lon="1.78315">
        <ele>178</ele>
        <time>2014-10-20T09:22:13.000Z</time>
      </trkpt>
      <trkpt lat="48.68417" lon="1.78325">
        <ele>178.19999694824</ele>
        <time>2014-10-20T09:22:20.000Z</time>
      </trkpt>
      <trkpt lat="48.68411" lon="1.78337">
        <ele>178.60000610352</ele>
        <time>2014-10-20T09:22:26.000Z</time>
      </trkpt>
      <trkpt lat="48.68409" lon="1.78341">
        <ele>178.60000610352</ele>
        <time>2014-10-20T09:22:28.000Z</time>
      </trkpt>
      <trkpt lat="48.68401" lon="1.78348">
        <ele>178.60000610352</ele>
        <time>2014-10-20T09:22:34.000Z</time>
      </trkpt>
      <trkpt lat="48.68395" lon="1.78356">
        <ele>178.60000610352</ele>
        <time>2014-10-20T09:22:40.000Z</time>
      </trkpt>
      <trkpt lat="48.6839" lon="1.78367">
        <ele>178.60000610352</ele>
        <time>2014-10-20T09:22:47.000Z</time>
      </trkpt>
      <trkpt lat="48.68394" lon="1.78378">
        <ele>179.19999694824</ele>
        <time>2014-10-20T09:22:53.000Z</time>
      </trkpt>
      <trkpt lat="48.68394" lon="1.7838">
        <ele>179.19999694824</ele>
        <time>2014-10-20T09:22:54.000Z</time>
      </trkpt>
      <trkpt lat="48.68395" lon="1.78388">
        <ele>179.39999389648</ele>
        <time>2014-10-20T09:22:58.000Z</time>
      </trkpt>
      <trkpt lat="48.68385" lon="1.78404">
        <ele>178.80000305176</ele>
        <time>2014-10-20T09:23:06.000Z</time>
      </trkpt>
      <trkpt lat="48.68381" lon="1.78421">
        <ele>178.60000610352</ele>
        <time>2014-10-20T09:23:14.000Z</time>
      </trkpt>
      <trkpt lat="48.68379" lon="1.78424">
        <ele>178.39999389648</ele>
        <time>2014-10-20T09:23:16.000Z</time>
      </trkpt>
      <trkpt lat="48.68371" lon="1.78436">
        <ele>178.19999694824</ele>
        <time>2014-10-20T09:23:24.000Z</time>
      </trkpt>
      <trkpt lat="48.68367" lon="1.78447">
        <ele>178.39999389648</ele>
        <time>2014-10-20T09:23:30.000Z</time>
      </trkpt>
      <trkpt lat="48.6836" lon="1.78455">
        <ele>178.19999694824</ele>
        <time>2014-10-20T09:23:37.000Z</time>
      </trkpt>
      <trkpt lat="48.68357" lon="1.7846">
        <ele>178.19999694824</ele>
        <time>2014-10-20T09:23:40.000Z</time>
      </trkpt>
      <trkpt lat="48.68354" lon="1.78473">
        <ele>178.39999389648</ele>
        <time>2014-10-20T09:23:47.000Z</time>
      </trkpt>
      <trkpt lat="48.6835" lon="1.78478">
        <ele>178.39999389648</ele>
        <time>2014-10-20T09:23:50.000Z</time>
      </trkpt>
      <trkpt lat="48.68349" lon="1.78485">
        <ele>178.39999389648</ele>
        <time>2014-10-20T09:23:54.000Z</time>
      </trkpt>
      <trkpt lat="48.68341" lon="1.78496">
        <ele>177.60000610352</ele>
        <time>2014-10-20T09:24:01.000Z</time>
      </trkpt>
      <trkpt lat="48.68341" lon="1.78502">
        <ele>177.60000610352</ele>
        <time>2014-10-20T09:24:04.000Z</time>
      </trkpt>
      <trkpt lat="48.68336" lon="1.78514">
        <ele>177</ele>
        <time>2014-10-20T09:24:11.000Z</time>
      </trkpt>
      <trkpt lat="48.6833" lon="1.78525">
        <ele>176.39999389648</ele>
        <time>2014-10-20T09:24:17.000Z</time>
      </trkpt>
      <trkpt lat="48.68325" lon="1.78531">
        <ele>175.80000305176</ele>
        <time>2014-10-20T09:24:21.000Z</time>
      </trkpt>
      <trkpt lat="48.68322" lon="1.78537">
        <ele>175.39999389648</ele>
        <time>2014-10-20T09:24:24.000Z</time>
      </trkpt>
      <trkpt lat="48.68318" lon="1.78542">
        <ele>175</ele>
        <time>2014-10-20T09:24:28.000Z</time>
      </trkpt>
      <trkpt lat="48.68311" lon="1.78556">
        <ele>174</ele>
        <time>2014-10-20T09:24:36.000Z</time>
      </trkpt>
      <trkpt lat="48.68307" lon="1.78563">
        <ele>173.39999389648</ele>
        <time>2014-10-20T09:24:40.000Z</time>
      </trkpt>
      <trkpt lat="48.68301" lon="1.78575">
        <ele>172.60000610352</ele>
        <time>2014-10-20T09:24:47.000Z</time>
      </trkpt>
      <trkpt lat="48.68297" lon="1.78588">
        <ele>172.19999694824</ele>
        <time>2014-10-20T09:24:53.000Z</time>
      </trkpt>
      <trkpt lat="48.68293" lon="1.786">
        <ele>172</ele>
        <time>2014-10-20T09:24:59.000Z</time>
      </trkpt>
      <trkpt lat="48.68292" lon="1.78604">
        <ele>172</ele>
        <time>2014-10-20T09:25:01.000Z</time>
      </trkpt>
      <trkpt lat="48.6829" lon="1.78609">
        <ele>172.19999694824</ele>
        <time>2014-10-20T09:25:04.000Z</time>
      </trkpt>
      <trkpt lat="48.68286" lon="1.78619">
        <ele>172.39999389648</ele>
        <time>2014-10-20T09:25:10.000Z</time>
      </trkpt>
      <trkpt lat="48.68283" lon="1.78627">
        <ele>172.60000610352</ele>
        <time>2014-10-20T09:25:14.000Z</time>
      </trkpt>
      <trkpt lat="48.6828" lon="1.78638">
        <ele>173</ele>
        <time>2014-10-20T09:25:19.000Z</time>
      </trkpt>
      <trkpt lat="48.68278" lon="1.78651">
        <ele>173.60000610352</ele>
        <time>2014-10-20T09:25:24.000Z</time>
      </trkpt>
      <trkpt lat="48.68273" lon="1.7866">
        <ele>173.39999389648</ele>
        <time>2014-10-20T09:25:30.000Z</time>
      </trkpt>
      <trkpt lat="48.68268" lon="1.78667">
        <ele>173.60000610352</ele>
        <time>2014-10-20T09:25:34.000Z</time>
      </trkpt>
      <trkpt lat="48.68262" lon="1.78677">
        <ele>174.19999694824</ele>
        <time>2014-10-20T09:25:40.000Z</time>
      </trkpt>
      <trkpt lat="48.68258" lon="1.78689">
        <ele>174.80000305176</ele>
        <time>2014-10-20T09:25:46.000Z</time>
      </trkpt>
      <trkpt lat="48.68251" lon="1.78701">
        <ele>175.39999389648</ele>
        <time>2014-10-20T09:25:50.000Z</time>
      </trkpt>
      <trkpt lat="48.68246" lon="1.78715">
        <ele>176</ele>
        <time>2014-10-20T09:25:55.000Z</time>
      </trkpt>
      <trkpt lat="48.6824" lon="1.78728">
        <ele>176.19999694824</ele>
        <time>2014-10-20T09:26:02.000Z</time>
      </trkpt>
      <trkpt lat="48.68232" lon="1.78743">
        <ele>176.39999389648</ele>
        <time>2014-10-20T09:26:10.000Z</time>
      </trkpt>
      <trkpt lat="48.68226" lon="1.78754">
        <ele>176.39999389648</ele>
        <time>2014-10-20T09:26:16.000Z</time>
      </trkpt>
      <trkpt lat="48.68224" lon="1.78763">
        <ele>176.60000610352</ele>
        <time>2014-10-20T09:26:21.000Z</time>
      </trkpt>
      <trkpt lat="48.68222" lon="1.78774">
        <ele>177</ele>
        <time>2014-10-20T09:26:27.000Z</time>
      </trkpt>
      <trkpt lat="48.6822" lon="1.78778">
        <ele>177</ele>
        <time>2014-10-20T09:26:30.000Z</time>
      </trkpt>
      <trkpt lat="48.68221" lon="1.78789">
        <ele>177.19999694824</ele>
        <time>2014-10-20T09:26:34.000Z</time>
      </trkpt>
      <trkpt lat="48.68217" lon="1.78803">
        <ele>177.39999389648</ele>
        <time>2014-10-20T09:26:41.000Z</time>
      </trkpt>
      <trkpt lat="48.68215" lon="1.78809">
        <ele>177.39999389648</ele>
        <time>2014-10-20T09:26:44.000Z</time>
      </trkpt>
      <trkpt lat="48.68208" lon="1.78822">
        <ele>177.39999389648</ele>
        <time>2014-10-20T09:26:52.000Z</time>
      </trkpt>
      <trkpt lat="48.68207" lon="1.78828">
        <ele>177.39999389648</ele>
        <time>2014-10-20T09:26:55.000Z</time>
      </trkpt>
      <trkpt lat="48.68203" lon="1.7884">
        <ele>177.39999389648</ele>
        <time>2014-10-20T09:27:02.000Z</time>
      </trkpt>
      <trkpt lat="48.68203" lon="1.78842">
        <ele>177.39999389648</ele>
        <time>2014-10-20T09:27:03.000Z</time>
      </trkpt>
      <trkpt lat="48.682" lon="1.78857">
        <ele>177.60000610352</ele>
        <time>2014-10-20T09:27:10.000Z</time>
      </trkpt>
      <trkpt lat="48.68198" lon="1.78869">
        <ele>177.80000305176</ele>
        <time>2014-10-20T09:27:15.000Z</time>
      </trkpt>
      <trkpt lat="48.68191" lon="1.78879">
        <ele>177.60000610352</ele>
        <time>2014-10-20T09:27:21.000Z</time>
      </trkpt>
      <trkpt lat="48.68188" lon="1.7889">
        <ele>177.80000305176</ele>
        <time>2014-10-20T09:27:27.000Z</time>
      </trkpt>
      <trkpt lat="48.68183" lon="1.78904">
        <ele>177.80000305176</ele>
        <time>2014-10-20T09:27:34.000Z</time>
      </trkpt>
      <trkpt lat="48.68175" lon="1.78916">
        <ele>177.19999694824</ele>
        <time>2014-10-20T09:27:40.000Z</time>
      </trkpt>
      <trkpt lat="48.68174" lon="1.78931">
        <ele>177.19999694824</ele>
        <time>2014-10-20T09:27:47.000Z</time>
      </trkpt>
      <trkpt lat="48.68174" lon="1.78944">
        <ele>177.39999389648</ele>
        <time>2014-10-20T09:27:53.000Z</time>
      </trkpt>
      <trkpt lat="48.68174" lon="1.78946">
        <ele>177.39999389648</ele>
        <time>2014-10-20T09:27:54.000Z</time>
      </trkpt>
      <trkpt lat="48.68175" lon="1.78955">
        <ele>177.60000610352</ele>
        <time>2014-10-20T09:27:58.000Z</time>
      </trkpt>
      <trkpt lat="48.68174" lon="1.78963">
        <ele>177.60000610352</ele>
        <time>2014-10-20T09:28:03.000Z</time>
      </trkpt>
      <trkpt lat="48.68173" lon="1.78965">
        <ele>177.60000610352</ele>
        <time>2014-10-20T09:28:04.000Z</time>
      </trkpt>
      <trkpt lat="48.68175" lon="1.78982">
        <ele>178</ele>
        <time>2014-10-20T09:28:12.000Z</time>
      </trkpt>
      <trkpt lat="48.68175" lon="1.78998">
        <ele>178</ele>
        <time>2014-10-20T09:28:19.000Z</time>
      </trkpt>
      <trkpt lat="48.68171" lon="1.79012">
        <ele>177.80000305176</ele>
        <time>2014-10-20T09:28:26.000Z</time>
      </trkpt>
      <trkpt lat="48.68171" lon="1.79021">
        <ele>178</ele>
        <time>2014-10-20T09:28:30.000Z</time>
      </trkpt>
      <trkpt lat="48.6817" lon="1.79041">
        <ele>178.19999694824</ele>
        <time>2014-10-20T09:28:36.000Z</time>
      </trkpt>
      <trkpt lat="48.68169" lon="1.79068">
        <ele>178.39999389648</ele>
        <time>2014-10-20T09:28:42.000Z</time>
      </trkpt>
      <trkpt lat="48.68168" lon="1.79097">
        <ele>179</ele>
        <time>2014-10-20T09:28:48.000Z</time>
      </trkpt>
      <trkpt lat="48.68163" lon="1.79116">
        <ele>179.19999694824</ele>
        <time>2014-10-20T09:28:52.000Z</time>
      </trkpt>
      <trkpt lat="48.68159" lon="1.79142">
        <ele>179.39999389648</ele>
        <time>2014-10-20T09:28:58.000Z</time>
      </trkpt>
      <trkpt lat="48.68155" lon="1.7918">
        <ele>179.39999389648</ele>
        <time>2014-10-20T09:29:06.000Z</time>
      </trkpt>
      <trkpt lat="48.68152" lon="1.79219">
        <ele>179</ele>
        <time>2014-10-20T09:29:14.000Z</time>
      </trkpt>
      <trkpt lat="48.6815" lon="1.79251">
        <ele>179.19999694824</ele>
        <time>2014-10-20T09:29:21.000Z</time>
      </trkpt>
      <trkpt lat="48.68149" lon="1.79279">
        <ele>179.80000305176</ele>
        <time>2014-10-20T09:29:27.000Z</time>
      </trkpt>
      <trkpt lat="48.68146" lon="1.79307">
        <ele>179.39999389648</ele>
        <time>2014-10-20T09:29:33.000Z</time>
      </trkpt>
      <trkpt lat="48.6814" lon="1.79347">
        <ele>177.80000305176</ele>
        <time>2014-10-20T09:29:41.000Z</time>
      </trkpt>
      <trkpt lat="48.6814" lon="1.7937">
        <ele>177.60000610352</ele>
        <time>2014-10-20T09:29:46.000Z</time>
      </trkpt>
      <trkpt lat="48.68137" lon="1.79411">
        <ele>177.19999694824</ele>
        <time>2014-10-20T09:29:54.000Z</time>
      </trkpt>
      <trkpt lat="48.68136" lon="1.79444">
        <ele>176.80000305176</ele>
        <time>2014-10-20T09:30:01.000Z</time>
      </trkpt>
      <trkpt lat="48.68136" lon="1.79481">
        <ele>177.39999389648</ele>
        <time>2014-10-20T09:30:09.000Z</time>
      </trkpt>
      <trkpt lat="48.68136" lon="1.79504">
        <ele>177</ele>
        <time>2014-10-20T09:30:14.000Z</time>
      </trkpt>
      <trkpt lat="48.68136" lon="1.79538">
        <ele>176</ele>
        <time>2014-10-20T09:30:21.000Z</time>
      </trkpt>
      <trkpt lat="48.68135" lon="1.79567">
        <ele>174.80000305176</ele>
        <time>2014-10-20T09:30:27.000Z</time>
      </trkpt>
      <trkpt lat="48.68133" lon="1.796">
        <ele>175.19999694824</ele>
        <time>2014-10-20T09:30:33.000Z</time>
      </trkpt>
      <trkpt lat="48.68136" lon="1.79624">
        <ele>176.60000610352</ele>
        <time>2014-10-20T09:30:38.000Z</time>
      </trkpt>
      <trkpt lat="48.68137" lon="1.79645">
        <ele>177.60000610352</ele>
        <time>2014-10-20T09:30:42.000Z</time>
      </trkpt>
      <trkpt lat="48.68135" lon="1.79673">
        <ele>178.60000610352</ele>
        <time>2014-10-20T09:30:47.000Z</time>
      </trkpt>
      <trkpt lat="48.6813" lon="1.7971">
        <ele>180.19999694824</ele>
        <time>2014-10-20T09:30:54.000Z</time>
      </trkpt>
      <trkpt lat="48.68128" lon="1.79753">
        <ele>182.19999694824</ele>
        <time>2014-10-20T09:31:02.000Z</time>
      </trkpt>
      <trkpt lat="48.68126" lon="1.79781">
        <ele>182.60000610352</ele>
        <time>2014-10-20T09:31:07.000Z</time>
      </trkpt>
      <trkpt lat="48.68127" lon="1.79799">
        <ele>182.80000305176</ele>
        <time>2014-10-20T09:31:11.000Z</time>
      </trkpt>
      <trkpt lat="48.68123" lon="1.79824">
        <ele>183</ele>
        <time>2014-10-20T09:31:16.000Z</time>
      </trkpt>
      <trkpt lat="48.68124" lon="1.79853">
        <ele>183.60000610352</ele>
        <time>2014-10-20T09:31:22.000Z</time>
      </trkpt>
      <trkpt lat="48.68124" lon="1.79877">
        <ele>184.39999389648</ele>
        <time>2014-10-20T09:31:27.000Z</time>
      </trkpt>
      <trkpt lat="48.68115" lon="1.79892">
        <ele>184.80000305176</ele>
        <time>2014-10-20T09:31:32.000Z</time>
      </trkpt>
      <trkpt lat="48.68115" lon="1.79901">
        <ele>185.19999694824</ele>
        <time>2014-10-20T09:31:37.000Z</time>
      </trkpt>
      <trkpt lat="48.68115" lon="1.79915">
        <ele>185.19999694824</ele>
        <time>2014-10-20T09:31:41.000Z</time>
      </trkpt>
      <trkpt lat="48.68113" lon="1.79934">
        <ele>185</ele>
        <time>2014-10-20T09:31:45.000Z</time>
      </trkpt>
      <trkpt lat="48.68115" lon="1.7995">
        <ele>184.80000305176</ele>
        <time>2014-10-20T09:31:49.000Z</time>
      </trkpt>
      <trkpt lat="48.68112" lon="1.79964">
        <ele>184.60000610352</ele>
        <time>2014-10-20T09:31:52.000Z</time>
      </trkpt>
      <trkpt lat="48.68112" lon="1.80005">
        <ele>184.19999694824</ele>
        <time>2014-10-20T09:32:00.000Z</time>
      </trkpt>
      <trkpt lat="48.68112" lon="1.80031">
        <ele>184</ele>
        <time>2014-10-20T09:32:05.000Z</time>
      </trkpt>
      <trkpt lat="48.68112" lon="1.80051">
        <ele>183.60000610352</ele>
        <time>2014-10-20T09:32:10.000Z</time>
      </trkpt>
      <trkpt lat="48.68113" lon="1.80056">
        <ele>183.60000610352</ele>
        <time>2014-10-20T09:32:12.000Z</time>
      </trkpt>
      <trkpt lat="48.68113" lon="1.80071">
        <ele>183.60000610352</ele>
        <time>2014-10-20T09:32:19.000Z</time>
      </trkpt>
      <trkpt lat="48.68119" lon="1.8008">
        <ele>183.80000305176</ele>
        <time>2014-10-20T09:32:23.000Z</time>
      </trkpt>
      <trkpt lat="48.68119" lon="1.80085">
        <ele>184</ele>
        <time>2014-10-20T09:32:25.000Z</time>
      </trkpt>
      <trkpt lat="48.68118" lon="1.80091">
        <ele>184</ele>
        <time>2014-10-20T09:32:27.000Z</time>
      </trkpt>
      <trkpt lat="48.68111" lon="1.80107">
        <ele>184.19999694824</ele>
        <time>2014-10-20T09:32:34.000Z</time>
      </trkpt>
      <trkpt lat="48.68109" lon="1.80117">
        <ele>184.39999389648</ele>
        <time>2014-10-20T09:32:40.000Z</time>
      </trkpt>
      <trkpt lat="48.68112" lon="1.80131">
        <ele>184.80000305176</ele>
        <time>2014-10-20T09:32:47.000Z</time>
      </trkpt>
      <trkpt lat="48.68112" lon="1.80146">
        <ele>185.19999694824</ele>
        <time>2014-10-20T09:32:53.000Z</time>
      </trkpt>
      <trkpt lat="48.6811" lon="1.80158">
        <ele>185.19999694824</ele>
        <time>2014-10-20T09:32:59.000Z</time>
      </trkpt>
      <trkpt lat="48.68108" lon="1.80173">
        <ele>184.80000305176</ele>
        <time>2014-10-20T09:33:06.000Z</time>
      </trkpt>
      <trkpt lat="48.68109" lon="1.8019">
        <ele>184.60000610352</ele>
        <time>2014-10-20T09:33:14.000Z</time>
      </trkpt>
      <trkpt lat="48.68107" lon="1.80211">
        <ele>184.39999389648</ele>
        <time>2014-10-20T09:33:22.000Z</time>
      </trkpt>
      <trkpt lat="48.68107" lon="1.80226">
        <ele>184.19999694824</ele>
        <time>2014-10-20T09:33:29.000Z</time>
      </trkpt>
      <trkpt lat="48.68106" lon="1.80244">
        <ele>183.80000305176</ele>
        <time>2014-10-20T09:33:36.000Z</time>
      </trkpt>
      <trkpt lat="48.68103" lon="1.80268">
        <ele>182.60000610352</ele>
        <time>2014-10-20T09:33:46.000Z</time>
      </trkpt>
      <trkpt lat="48.68103" lon="1.8028">
        <ele>182</ele>
        <time>2014-10-20T09:33:53.000Z</time>
      </trkpt>
      <trkpt lat="48.68104" lon="1.80296">
        <ele>181.19999694824</ele>
        <time>2014-10-20T09:34:00.000Z</time>
      </trkpt>
      <trkpt lat="48.68103" lon="1.80316">
        <ele>180.19999694824</ele>
        <time>2014-10-20T09:34:08.000Z</time>
      </trkpt>
      <trkpt lat="48.681" lon="1.80336">
        <ele>180</ele>
        <time>2014-10-20T09:34:17.000Z</time>
      </trkpt>
      <trkpt lat="48.681" lon="1.80356">
        <ele>180</ele>
        <time>2014-10-20T09:34:26.000Z</time>
      </trkpt>
      <trkpt lat="48.68099" lon="1.80375">
        <ele>180.19999694824</ele>
        <time>2014-10-20T09:34:33.000Z</time>
      </trkpt>
      <trkpt lat="48.68097" lon="1.80398">
        <ele>180.19999694824</ele>
        <time>2014-10-20T09:34:40.000Z</time>
      </trkpt>
      <trkpt lat="48.68096" lon="1.8041">
        <ele>180.39999389648</ele>
        <time>2014-10-20T09:34:45.000Z</time>
      </trkpt>
      <trkpt lat="48.68094" lon="1.80432">
        <ele>180.60000610352</ele>
        <time>2014-10-20T09:34:54.000Z</time>
      </trkpt>
      <trkpt lat="48.68093" lon="1.80447">
        <ele>180.80000305176</ele>
        <time>2014-10-20T09:35:00.000Z</time>
      </trkpt>
      <trkpt lat="48.68091" lon="1.80467">
        <ele>181.19999694824</ele>
        <time>2014-10-20T09:35:09.000Z</time>
      </trkpt>
      <trkpt lat="48.68092" lon="1.8047">
        <ele>181.19999694824</ele>
        <time>2014-10-20T09:35:10.000Z</time>
      </trkpt>
      <trkpt lat="48.68091" lon="1.80485">
        <ele>181.19999694824</ele>
        <time>2014-10-20T09:35:17.000Z</time>
      </trkpt>
      <trkpt lat="48.68091" lon="1.80487">
        <ele>181.19999694824</ele>
        <time>2014-10-20T09:35:18.000Z</time>
      </trkpt>
      <trkpt lat="48.6809" lon="1.80492">
        <ele>181</ele>
        <time>2014-10-20T09:35:21.000Z</time>
      </trkpt>
      <trkpt lat="48.68089" lon="1.80497">
        <ele>181</ele>
        <time>2014-10-20T09:35:26.000Z</time>
      </trkpt>
      <trkpt lat="48.68094" lon="1.80497">
        <ele>180.80000305176</ele>
        <time>2014-10-20T09:35:29.000Z</time>
      </trkpt>
      <trkpt lat="48.681" lon="1.80496">
        <ele>180.80000305176</ele>
        <time>2014-10-20T09:35:34.000Z</time>
      </trkpt>
      <trkpt lat="48.68102" lon="1.80489">
        <ele>181</ele>
        <time>2014-10-20T09:35:40.000Z</time>
      </trkpt>
      <trkpt lat="48.68105" lon="1.80482">
        <ele>180.80000305176</ele>
        <time>2014-10-20T09:35:46.000Z</time>
      </trkpt>
      <trkpt lat="48.68119" lon="1.80479">
        <ele>180.60000610352</ele>
        <time>2014-10-20T09:35:51.000Z</time>
      </trkpt>
      <trkpt lat="48.68139" lon="1.80473">
        <ele>180.39999389648</ele>
        <time>2014-10-20T09:35:56.000Z</time>
      </trkpt>
      <trkpt lat="48.68166" lon="1.8046">
        <ele>180</ele>
        <time>2014-10-20T09:36:01.000Z</time>
      </trkpt>
      <trkpt lat="48.68183" lon="1.80453">
        <ele>179.60000610352</ele>
        <time>2014-10-20T09:36:04.000Z</time>
      </trkpt>
      <trkpt lat="48.68205" lon="1.80441">
        <ele>179.39999389648</ele>
        <time>2014-10-20T09:36:08.000Z</time>
      </trkpt>
      <trkpt lat="48.68237" lon="1.80425">
        <ele>181</ele>
        <time>2014-10-20T09:36:14.000Z</time>
      </trkpt>
      <trkpt lat="48.68242" lon="1.80423">
        <ele>181.39999389648</ele>
        <time>2014-10-20T09:36:15.000Z</time>
      </trkpt>
      <trkpt lat="48.68272" lon="1.80411">
        <ele>183.80000305176</ele>
        <time>2014-10-20T09:36:20.000Z</time>
      </trkpt>
      <trkpt lat="48.68292" lon="1.80406">
        <ele>184.60000610352</ele>
        <time>2014-10-20T09:36:23.000Z</time>
      </trkpt>
      <trkpt lat="48.68327" lon="1.80391">
        <ele>185.39999389648</ele>
        <time>2014-10-20T09:36:30.000Z</time>
      </trkpt>
      <trkpt lat="48.68354" lon="1.80379">
        <ele>186.39999389648</ele>
        <time>2014-10-20T09:36:35.000Z</time>
      </trkpt>
      <trkpt lat="48.68385" lon="1.80367">
        <ele>186.39999389648</ele>
        <time>2014-10-20T09:36:40.000Z</time>
      </trkpt>
      <trkpt lat="48.68391" lon="1.80365">
        <ele>186.39999389648</ele>
        <time>2014-10-20T09:36:41.000Z</time>
      </trkpt>
      <trkpt lat="48.68416" lon="1.80354">
        <ele>187</ele>
        <time>2014-10-20T09:36:45.000Z</time>
      </trkpt>
      <trkpt lat="48.68452" lon="1.80337">
        <ele>187.60000610352</ele>
        <time>2014-10-20T09:36:52.000Z</time>
      </trkpt>
      <trkpt lat="48.68463" lon="1.80333">
        <ele>187.39999389648</ele>
        <time>2014-10-20T09:36:54.000Z</time>
      </trkpt>
      <trkpt lat="48.68481" lon="1.80321">
        <ele>187</ele>
        <time>2014-10-20T09:36:58.000Z</time>
      </trkpt>
      <trkpt lat="48.6852" lon="1.80308">
        <ele>186.19999694824</ele>
        <time>2014-10-20T09:37:04.000Z</time>
      </trkpt>
      <trkpt lat="48.68532" lon="1.803">
        <ele>186.19999694824</ele>
        <time>2014-10-20T09:37:07.000Z</time>
      </trkpt>
      <trkpt lat="48.68544" lon="1.80292">
        <ele>186.39999389648</ele>
        <time>2014-10-20T09:37:10.000Z</time>
      </trkpt>
      <trkpt lat="48.6856" lon="1.80285">
        <ele>186.39999389648</ele>
        <time>2014-10-20T09:37:14.000Z</time>
      </trkpt>
      <trkpt lat="48.68577" lon="1.80276">
        <ele>186</ele>
        <time>2014-10-20T09:37:20.000Z</time>
      </trkpt>
      <trkpt lat="48.68593" lon="1.80269">
        <ele>185.60000610352</ele>
        <time>2014-10-20T09:37:25.000Z</time>
      </trkpt>
      <trkpt lat="48.68608" lon="1.80258">
        <ele>185.39999389648</ele>
        <time>2014-10-20T09:37:30.000Z</time>
      </trkpt>
      <trkpt lat="48.68622" lon="1.80254">
        <ele>186</ele>
        <time>2014-10-20T09:37:34.000Z</time>
      </trkpt>
      <trkpt lat="48.68636" lon="1.8025">
        <ele>186.19999694824</ele>
        <time>2014-10-20T09:37:38.000Z</time>
      </trkpt>
      <trkpt lat="48.68653" lon="1.80241">
        <ele>186.19999694824</ele>
        <time>2014-10-20T09:37:42.000Z</time>
      </trkpt>
      <trkpt lat="48.68689" lon="1.80224">
        <ele>187.19999694824</ele>
        <time>2014-10-20T09:37:48.000Z</time>
      </trkpt>
      <trkpt lat="48.68723" lon="1.80214">
        <ele>187.80000305176</ele>
        <time>2014-10-20T09:37:54.000Z</time>
      </trkpt>
      <trkpt lat="48.68733" lon="1.80209">
        <ele>188</ele>
        <time>2014-10-20T09:37:56.000Z</time>
      </trkpt>
      <trkpt lat="48.68755" lon="1.80198">
        <ele>187.39999389648</ele>
        <time>2014-10-20T09:38:00.000Z</time>
      </trkpt>
      <trkpt lat="48.68786" lon="1.80183">
        <ele>186.80000305176</ele>
        <time>2014-10-20T09:38:06.000Z</time>
      </trkpt>
      <trkpt lat="48.68804" lon="1.80174">
        <ele>187</ele>
        <time>2014-10-20T09:38:10.000Z</time>
      </trkpt>
      <trkpt lat="48.68814" lon="1.8017">
        <ele>187.19999694824</ele>
        <time>2014-10-20T09:38:12.000Z</time>
      </trkpt>
      <trkpt lat="48.68854" lon="1.8015">
        <ele>188.19999694824</ele>
        <time>2014-10-20T09:38:20.000Z</time>
      </trkpt>
      <trkpt lat="48.68868" lon="1.80144">
        <ele>188.39999389648</ele>
        <time>2014-10-20T09:38:23.000Z</time>
      </trkpt>
      <trkpt lat="48.68891" lon="1.80135">
        <ele>188.80000305176</ele>
        <time>2014-10-20T09:38:27.000Z</time>
      </trkpt>
      <trkpt lat="48.6892" lon="1.80121">
        <ele>189</ele>
        <time>2014-10-20T09:38:32.000Z</time>
      </trkpt>
      <trkpt lat="48.6895" lon="1.8011">
        <ele>188.80000305176</ele>
        <time>2014-10-20T09:38:37.000Z</time>
      </trkpt>
      <trkpt lat="48.68956" lon="1.80108">
        <ele>188.60000610352</ele>
        <time>2014-10-20T09:38:38.000Z</time>
      </trkpt>
      <trkpt lat="48.68975" lon="1.80099">
        <ele>188.19999694824</ele>
        <time>2014-10-20T09:38:42.000Z</time>
      </trkpt>
      <trkpt lat="48.6899" lon="1.80091">
        <ele>187.39999389648</ele>
        <time>2014-10-20T09:38:45.000Z</time>
      </trkpt>
      <trkpt lat="48.69002" lon="1.80083">
        <ele>186.80000305176</ele>
        <time>2014-10-20T09:38:48.000Z</time>
      </trkpt>
      <trkpt lat="48.69014" lon="1.80079">
        <ele>186.19999694824</ele>
        <time>2014-10-20T09:38:50.000Z</time>
      </trkpt>
      <trkpt lat="48.69041" lon="1.80072">
        <ele>186</ele>
        <time>2014-10-20T09:38:54.000Z</time>
      </trkpt>
      <trkpt lat="48.69062" lon="1.80063">
        <ele>186.39999389648</ele>
        <time>2014-10-20T09:38:59.000Z</time>
      </trkpt>
      <trkpt lat="48.69072" lon="1.80058">
        <ele>186.60000610352</ele>
        <time>2014-10-20T09:39:01.000Z</time>
      </trkpt>
      <trkpt lat="48.691" lon="1.80041">
        <ele>187.19999694824</ele>
        <time>2014-10-20T09:39:06.000Z</time>
      </trkpt>
      <trkpt lat="48.69121" lon="1.80025">
        <ele>187.39999389648</ele>
        <time>2014-10-20T09:39:12.000Z</time>
      </trkpt>
      <trkpt lat="48.69138" lon="1.80018">
        <ele>187.60000610352</ele>
        <time>2014-10-20T09:39:15.000Z</time>
      </trkpt>
      <trkpt lat="48.69161" lon="1.80011">
        <ele>187.39999389648</ele>
        <time>2014-10-20T09:39:22.000Z</time>
      </trkpt>
      <trkpt lat="48.69191" lon="1.79998">
        <ele>187.19999694824</ele>
        <time>2014-10-20T09:39:29.000Z</time>
      </trkpt>
      <trkpt lat="48.69213" lon="1.79988">
        <ele>185.80000305176</ele>
        <time>2014-10-20T09:39:34.000Z</time>
      </trkpt>
      <trkpt lat="48.69231" lon="1.79981">
        <ele>184.60000610352</ele>
        <time>2014-10-20T09:39:38.000Z</time>
      </trkpt>
      <trkpt lat="48.69256" lon="1.79969">
        <ele>182.80000305176</ele>
        <time>2014-10-20T09:39:44.000Z</time>
      </trkpt>
      <trkpt lat="48.69294" lon="1.79952">
        <ele>181.39999389648</ele>
        <time>2014-10-20T09:39:52.000Z</time>
      </trkpt>
      <trkpt lat="48.69313" lon="1.79943">
        <ele>181</ele>
        <time>2014-10-20T09:39:57.000Z</time>
      </trkpt>
      <trkpt lat="48.69344" lon="1.79927">
        <ele>180.60000610352</ele>
        <time>2014-10-20T09:40:05.000Z</time>
      </trkpt>
      <trkpt lat="48.69368" lon="1.79915">
        <ele>181.19999694824</ele>
        <time>2014-10-20T09:40:12.000Z</time>
      </trkpt>
      <trkpt lat="48.69384" lon="1.79906">
        <ele>182.39999389648</ele>
        <time>2014-10-20T09:40:17.000Z</time>
      </trkpt>
      <trkpt lat="48.69402" lon="1.79901">
        <ele>183.60000610352</ele>
        <time>2014-10-20T09:40:22.000Z</time>
      </trkpt>
      <trkpt lat="48.69421" lon="1.79889">
        <ele>185</ele>
        <time>2014-10-20T09:40:27.000Z</time>
      </trkpt>
      <trkpt lat="48.6944" lon="1.79881">
        <ele>185.80000305176</ele>
        <time>2014-10-20T09:40:32.000Z</time>
      </trkpt>
      <trkpt lat="48.69447" lon="1.79878">
        <ele>186.19999694824</ele>
        <time>2014-10-20T09:40:37.000Z</time>
      </trkpt>
      <trkpt lat="48.69454" lon="1.79874">
        <ele>186.39999389648</ele>
        <time>2014-10-20T09:40:42.000Z</time>
      </trkpt>
      <trkpt lat="48.69454" lon="1.79873">
        <ele>186.39999389648</ele>
        <time>2014-10-20T09:40:43.000Z</time>
      </trkpt>
      <trkpt lat="48.6946" lon="1.79869">
        <ele>186.60000610352</ele>
        <time>2014-10-20T09:40:47.000Z</time>
      </trkpt>
      <trkpt lat="48.69467" lon="1.79862">
        <ele>186.80000305176</ele>
        <time>2014-10-20T09:40:53.000Z</time>
      </trkpt>
      <trkpt lat="48.6947" lon="1.79861">
        <ele>187</ele>
        <time>2014-10-20T09:40:54.000Z</time>
      </trkpt>
      <trkpt lat="48.69474" lon="1.79859">
        <ele>187</ele>
        <time>2014-10-20T09:40:57.000Z</time>
      </trkpt>
      <trkpt lat="48.69484" lon="1.79855">
        <ele>187.60000610352</ele>
        <time>2014-10-20T09:41:04.000Z</time>
      </trkpt>
      <trkpt lat="48.69493" lon="1.79852">
        <ele>188</ele>
        <time>2014-10-20T09:41:09.000Z</time>
      </trkpt>
      <trkpt lat="48.69499" lon="1.79848">
        <ele>188.19999694824</ele>
        <time>2014-10-20T09:41:13.000Z</time>
      </trkpt>
      <trkpt lat="48.69506" lon="1.79841">
        <ele>188.80000305176</ele>
        <time>2014-10-20T09:41:19.000Z</time>
      </trkpt>
      <trkpt lat="48.69514" lon="1.79839">
        <ele>189</ele>
        <time>2014-10-20T09:41:22.000Z</time>
      </trkpt>
      <trkpt lat="48.69523" lon="1.79837">
        <ele>189.39999389648</ele>
        <time>2014-10-20T09:41:29.000Z</time>
      </trkpt>
      <trkpt lat="48.69534" lon="1.79831">
        <ele>189.39999389648</ele>
        <time>2014-10-20T09:41:37.000Z</time>
      </trkpt>
      <trkpt lat="48.69542" lon="1.79825">
        <ele>189</ele>
        <time>2014-10-20T09:41:43.000Z</time>
      </trkpt>
      <trkpt lat="48.69551" lon="1.79817">
        <ele>188.60000610352</ele>
        <time>2014-10-20T09:41:50.000Z</time>
      </trkpt>
      <trkpt lat="48.69563" lon="1.79814">
        <ele>188</ele>
        <time>2014-10-20T09:41:58.000Z</time>
      </trkpt>
      <trkpt lat="48.69566" lon="1.79813">
        <ele>187.80000305176</ele>
        <time>2014-10-20T09:42:01.000Z</time>
      </trkpt>
      <trkpt lat="48.69569" lon="1.79813">
        <ele>187.60000610352</ele>
        <time>2014-10-20T09:42:05.000Z</time>
      </trkpt>
      <trkpt lat="48.69575" lon="1.79812">
        <ele>187.39999389648</ele>
        <time>2014-10-20T09:42:11.000Z</time>
      </trkpt>
      <trkpt lat="48.69581" lon="1.79808">
        <ele>187</ele>
        <time>2014-10-20T09:42:15.000Z</time>
      </trkpt>
      <trkpt lat="48.6959" lon="1.79804">
        <ele>186.60000610352</ele>
        <time>2014-10-20T09:42:21.000Z</time>
      </trkpt>
      <trkpt lat="48.69599" lon="1.79801">
        <ele>185.80000305176</ele>
        <time>2014-10-20T09:42:26.000Z</time>
      </trkpt>
      <trkpt lat="48.69608" lon="1.79795">
        <ele>185.39999389648</ele>
        <time>2014-10-20T09:42:32.000Z</time>
      </trkpt>
      <trkpt lat="48.6962" lon="1.79793">
        <ele>185.39999389648</ele>
        <time>2014-10-20T09:42:38.000Z</time>
      </trkpt>
      <trkpt lat="48.69625" lon="1.7979">
        <ele>185.19999694824</ele>
        <time>2014-10-20T09:42:41.000Z</time>
      </trkpt>
      <trkpt lat="48.69634" lon="1.79785">
        <ele>185.19999694824</ele>
        <time>2014-10-20T09:42:47.000Z</time>
      </trkpt>
      <trkpt lat="48.69645" lon="1.79781">
        <ele>185</ele>
        <time>2014-10-20T09:42:53.000Z</time>
      </trkpt>
      <trkpt lat="48.69657" lon="1.79774">
        <ele>184.39999389648</ele>
        <time>2014-10-20T09:43:00.000Z</time>
      </trkpt>
      <trkpt lat="48.69667" lon="1.7977">
        <ele>184</ele>
        <time>2014-10-20T09:43:06.000Z</time>
      </trkpt>
      <trkpt lat="48.69678" lon="1.79765">
        <ele>183.39999389648</ele>
        <time>2014-10-20T09:43:12.000Z</time>
      </trkpt>
      <trkpt lat="48.69689" lon="1.79756">
        <ele>182.80000305176</ele>
        <time>2014-10-20T09:43:19.000Z</time>
      </trkpt>
      <trkpt lat="48.69704" lon="1.7975">
        <ele>182.60000610352</ele>
        <time>2014-10-20T09:43:26.000Z</time>
      </trkpt>
      <trkpt lat="48.69712" lon="1.79749">
        <ele>182.80000305176</ele>
        <time>2014-10-20T09:43:31.000Z</time>
      </trkpt>
      <trkpt lat="48.69719" lon="1.79748">
        <ele>183</ele>
        <time>2014-10-20T09:43:36.000Z</time>
      </trkpt>
      <trkpt lat="48.69725" lon="1.79747">
        <ele>183.19999694824</ele>
        <time>2014-10-20T09:43:39.000Z</time>
      </trkpt>
      <trkpt lat="48.69738" lon="1.79738">
        <ele>183.19999694824</ele>
        <time>2014-10-20T09:43:47.000Z</time>
      </trkpt>
      <trkpt lat="48.69742" lon="1.79737">
        <ele>183.39999389648</ele>
        <time>2014-10-20T09:43:49.000Z</time>
      </trkpt>
      <trkpt lat="48.69756" lon="1.79727">
        <ele>183.60000610352</ele>
        <time>2014-10-20T09:43:57.000Z</time>
      </trkpt>
      <trkpt lat="48.69769" lon="1.79716">
        <ele>183.80000305176</ele>
        <time>2014-10-20T09:44:05.000Z</time>
      </trkpt>
      <trkpt lat="48.69779" lon="1.79708">
        <ele>183.80000305176</ele>
        <time>2014-10-20T09:44:12.000Z</time>
      </trkpt>
      <trkpt lat="48.69789" lon="1.797">
        <ele>184</ele>
        <time>2014-10-20T09:44:19.000Z</time>
      </trkpt>
      <trkpt lat="48.69799" lon="1.79689">
        <ele>184.19999694824</ele>
        <time>2014-10-20T09:44:27.000Z</time>
      </trkpt>
      <trkpt lat="48.69807" lon="1.7968">
        <ele>184</ele>
        <time>2014-10-20T09:44:34.000Z</time>
      </trkpt>
      <trkpt lat="48.6982" lon="1.79669">
        <ele>184</ele>
        <time>2014-10-20T09:44:42.000Z</time>
      </trkpt>
      <trkpt lat="48.69829" lon="1.79658">
        <ele>183.80000305176</ele>
        <time>2014-10-20T09:44:48.000Z</time>
      </trkpt>
      <trkpt lat="48.69845" lon="1.79647">
        <ele>183.80000305176</ele>
        <time>2014-10-20T09:44:56.000Z</time>
      </trkpt>
      <trkpt lat="48.69855" lon="1.79635">
        <ele>183.80000305176</ele>
        <time>2014-10-20T09:45:04.000Z</time>
      </trkpt>
      <trkpt lat="48.69866" lon="1.79626">
        <ele>184.19999694824</ele>
        <time>2014-10-20T09:45:11.000Z</time>
      </trkpt>
      <trkpt lat="48.69876" lon="1.79617">
        <ele>184.60000610352</ele>
        <time>2014-10-20T09:45:18.000Z</time>
      </trkpt>
      <trkpt lat="48.69884" lon="1.79608">
        <ele>185</ele>
        <time>2014-10-20T09:45:25.000Z</time>
      </trkpt>
      <trkpt lat="48.69886" lon="1.79606">
        <ele>185</ele>
        <time>2014-10-20T09:45:26.000Z</time>
      </trkpt>
      <trkpt lat="48.6989" lon="1.79604">
        <ele>185</ele>
        <time>2014-10-20T09:45:29.000Z</time>
      </trkpt>
      <trkpt lat="48.69904" lon="1.7959">
        <ele>184.80000305176</ele>
        <time>2014-10-20T09:45:38.000Z</time>
      </trkpt>
      <trkpt lat="48.69907" lon="1.79586">
        <ele>184.80000305176</ele>
        <time>2014-10-20T09:45:40.000Z</time>
      </trkpt>
      <trkpt lat="48.69919" lon="1.79577">
        <ele>184.80000305176</ele>
        <time>2014-10-20T09:45:47.000Z</time>
      </trkpt>
      <trkpt lat="48.6993" lon="1.79566">
        <ele>184.80000305176</ele>
        <time>2014-10-20T09:45:54.000Z</time>
      </trkpt>
      <trkpt lat="48.69934" lon="1.79563">
        <ele>184.80000305176</ele>
        <time>2014-10-20T09:45:56.000Z</time>
      </trkpt>
      <trkpt lat="48.69939" lon="1.79556">
        <ele>184.80000305176</ele>
        <time>2014-10-20T09:46:00.000Z</time>
      </trkpt>
      <trkpt lat="48.69954" lon="1.79542">
        <ele>185.19999694824</ele>
        <time>2014-10-20T09:46:08.000Z</time>
      </trkpt>
      <trkpt lat="48.69963" lon="1.79533">
        <ele>185.39999389648</ele>
        <time>2014-10-20T09:46:13.000Z</time>
      </trkpt>
      <trkpt lat="48.69973" lon="1.79524">
        <ele>185.60000610352</ele>
        <time>2014-10-20T09:46:19.000Z</time>
      </trkpt>
      <trkpt lat="48.69984" lon="1.79516">
        <ele>186.19999694824</ele>
        <time>2014-10-20T09:46:26.000Z</time>
      </trkpt>
      <trkpt lat="48.7" lon="1.79504">
        <ele>187</ele>
        <time>2014-10-20T09:46:33.000Z</time>
      </trkpt>
      <trkpt lat="48.70007" lon="1.79495">
        <ele>187.19999694824</ele>
        <time>2014-10-20T09:46:38.000Z</time>
      </trkpt>
      <trkpt lat="48.70016" lon="1.79483">
        <ele>187.80000305176</ele>
        <time>2014-10-20T09:46:44.000Z</time>
      </trkpt>
      <trkpt lat="48.70018" lon="1.79482">
        <ele>188</ele>
        <time>2014-10-20T09:46:45.000Z</time>
      </trkpt>
      <trkpt lat="48.7003" lon="1.79475">
        <ele>188</ele>
        <time>2014-10-20T09:46:52.000Z</time>
      </trkpt>
      <trkpt lat="48.70044" lon="1.79464">
        <ele>188</ele>
        <time>2014-10-20T09:47:00.000Z</time>
      </trkpt>
      <trkpt lat="48.70052" lon="1.79456">
        <ele>188</ele>
        <time>2014-10-20T09:47:05.000Z</time>
      </trkpt>
      <trkpt lat="48.70054" lon="1.79452">
        <ele>188</ele>
        <time>2014-10-20T09:47:07.000Z</time>
      </trkpt>
      <trkpt lat="48.70057" lon="1.79446">
        <ele>188</ele>
        <time>2014-10-20T09:47:10.000Z</time>
      </trkpt>
      <trkpt lat="48.70062" lon="1.7944">
        <ele>188</ele>
        <time>2014-10-20T09:47:16.000Z</time>
      </trkpt>
      <trkpt lat="48.70068" lon="1.79434">
        <ele>188.19999694824</ele>
        <time>2014-10-20T09:47:21.000Z</time>
      </trkpt>
      <trkpt lat="48.70081" lon="1.79425">
        <ele>188.39999389648</ele>
        <time>2014-10-20T09:47:28.000Z</time>
      </trkpt>
      <trkpt lat="48.7009" lon="1.79417">
        <ele>188.60000610352</ele>
        <time>2014-10-20T09:47:34.000Z</time>
      </trkpt>
      <trkpt lat="48.70091" lon="1.79415">
        <ele>188.80000305176</ele>
        <time>2014-10-20T09:47:35.000Z</time>
      </trkpt>
      <trkpt lat="48.70096" lon="1.79402">
        <ele>189</ele>
        <time>2014-10-20T09:47:42.000Z</time>
      </trkpt>
      <trkpt lat="48.70106" lon="1.79396">
        <ele>189</ele>
        <time>2014-10-20T09:47:48.000Z</time>
      </trkpt>
      <trkpt lat="48.70117" lon="1.79391">
        <ele>189</ele>
        <time>2014-10-20T09:47:54.000Z</time>
      </trkpt>
      <trkpt lat="48.70127" lon="1.7938">
        <ele>189</ele>
        <time>2014-10-20T09:48:01.000Z</time>
      </trkpt>
      <trkpt lat="48.70131" lon="1.79378">
        <ele>189</ele>
        <time>2014-10-20T09:48:03.000Z</time>
      </trkpt>
      <trkpt lat="48.70141" lon="1.79371">
        <ele>189</ele>
        <time>2014-10-20T09:48:07.000Z</time>
      </trkpt>
      <trkpt lat="48.70152" lon="1.79361">
        <ele>189.19999694824</ele>
        <time>2014-10-20T09:48:12.000Z</time>
      </trkpt>
      <trkpt lat="48.70159" lon="1.79352">
        <ele>189.39999389648</ele>
        <time>2014-10-20T09:48:18.000Z</time>
      </trkpt>
      <trkpt lat="48.70168" lon="1.79344">
        <ele>189.60000610352</ele>
        <time>2014-10-20T09:48:24.000Z</time>
      </trkpt>
      <trkpt lat="48.70169" lon="1.79343">
        <ele>189.60000610352</ele>
        <time>2014-10-20T09:48:25.000Z</time>
      </trkpt>
      <trkpt lat="48.70178" lon="1.79331">
        <ele>189.80000305176</ele>
        <time>2014-10-20T09:48:32.000Z</time>
      </trkpt>
      <trkpt lat="48.70186" lon="1.79326">
        <ele>190</ele>
        <time>2014-10-20T09:48:37.000Z</time>
      </trkpt>
      <trkpt lat="48.70195" lon="1.79319">
        <ele>190.19999694824</ele>
        <time>2014-10-20T09:48:43.000Z</time>
      </trkpt>
      <trkpt lat="48.70203" lon="1.79309">
        <ele>190.39999389648</ele>
        <time>2014-10-20T09:48:49.000Z</time>
      </trkpt>
      <trkpt lat="48.70213" lon="1.79299">
        <ele>190.60000610352</ele>
        <time>2014-10-20T09:48:55.000Z</time>
      </trkpt>
      <trkpt lat="48.7022" lon="1.79287">
        <ele>190.80000305176</ele>
        <time>2014-10-20T09:49:02.000Z</time>
      </trkpt>
      <trkpt lat="48.70229" lon="1.79283">
        <ele>191</ele>
        <time>2014-10-20T09:49:07.000Z</time>
      </trkpt>
      <trkpt lat="48.70239" lon="1.79277">
        <ele>190.80000305176</ele>
        <time>2014-10-20T09:49:13.000Z</time>
      </trkpt>
      <trkpt lat="48.7025" lon="1.79269">
        <ele>190.60000610352</ele>
        <time>2014-10-20T09:49:20.000Z</time>
      </trkpt>
      <trkpt lat="48.7026" lon="1.7926">
        <ele>190.39999389648</ele>
        <time>2014-10-20T09:49:26.000Z</time>
      </trkpt>
      <trkpt lat="48.70269" lon="1.79254">
        <ele>190.19999694824</ele>
        <time>2014-10-20T09:49:31.000Z</time>
      </trkpt>
      <trkpt lat="48.70271" lon="1.79253">
        <ele>190.19999694824</ele>
        <time>2014-10-20T09:49:32.000Z</time>
      </trkpt>
      <trkpt lat="48.70276" lon="1.79245">
        <ele>190</ele>
        <time>2014-10-20T09:49:36.000Z</time>
      </trkpt>
      <trkpt lat="48.70284" lon="1.79235">
        <ele>190</ele>
        <time>2014-10-20T09:49:42.000Z</time>
      </trkpt>
      <trkpt lat="48.70293" lon="1.79226">
        <ele>190.19999694824</ele>
        <time>2014-10-20T09:49:48.000Z</time>
      </trkpt>
      <trkpt lat="48.703" lon="1.79219">
        <ele>190.39999389648</ele>
        <time>2014-10-20T09:49:53.000Z</time>
      </trkpt>
      <trkpt lat="48.70309" lon="1.79212">
        <ele>190.60000610352</ele>
        <time>2014-10-20T09:49:58.000Z</time>
      </trkpt>
      <trkpt lat="48.70314" lon="1.7921">
        <ele>190.60000610352</ele>
        <time>2014-10-20T09:50:01.000Z</time>
      </trkpt>
      <trkpt lat="48.70322" lon="1.79199">
        <ele>190.60000610352</ele>
        <time>2014-10-20T09:50:07.000Z</time>
      </trkpt>
      <trkpt lat="48.70327" lon="1.79193">
        <ele>190.39999389648</ele>
        <time>2014-10-20T09:50:10.000Z</time>
      </trkpt>
      <trkpt lat="48.70337" lon="1.79188">
        <ele>190</ele>
        <time>2014-10-20T09:50:16.000Z</time>
      </trkpt>
      <trkpt lat="48.70349" lon="1.79178">
        <ele>189.39999389648</ele>
        <time>2014-10-20T09:50:22.000Z</time>
      </trkpt>
      <trkpt lat="48.70355" lon="1.79175">
        <ele>189.19999694824</ele>
        <time>2014-10-20T09:50:25.000Z</time>
      </trkpt>
      <trkpt lat="48.70365" lon="1.79165">
        <ele>188.80000305176</ele>
        <time>2014-10-20T09:50:31.000Z</time>
      </trkpt>
      <trkpt lat="48.70373" lon="1.79155">
        <ele>189</ele>
        <time>2014-10-20T09:50:37.000Z</time>
      </trkpt>
      <trkpt lat="48.70386" lon="1.79146">
        <ele>189</ele>
        <time>2014-10-20T09:50:44.000Z</time>
      </trkpt>
      <trkpt lat="48.70395" lon="1.79136">
        <ele>189</ele>
        <time>2014-10-20T09:50:51.000Z</time>
      </trkpt>
      <trkpt lat="48.704" lon="1.79129">
        <ele>189</ele>
        <time>2014-10-20T09:50:55.000Z</time>
      </trkpt>
      <trkpt lat="48.70408" lon="1.79124">
        <ele>189</ele>
        <time>2014-10-20T09:51:00.000Z</time>
      </trkpt>
      <trkpt lat="48.70412" lon="1.79121">
        <ele>189.19999694824</ele>
        <time>2014-10-20T09:51:03.000Z</time>
      </trkpt>
      <trkpt lat="48.70415" lon="1.79113">
        <ele>189.19999694824</ele>
        <time>2014-10-20T09:51:06.000Z</time>
      </trkpt>
      <trkpt lat="48.7042" lon="1.79106">
        <ele>189.39999389648</ele>
        <time>2014-10-20T09:51:10.000Z</time>
      </trkpt>
      <trkpt lat="48.70424" lon="1.79099">
        <ele>189.60000610352</ele>
        <time>2014-10-20T09:51:14.000Z</time>
      </trkpt>
      <trkpt lat="48.70444" lon="1.79089">
        <ele>189.80000305176</ele>
        <time>2014-10-20T09:51:22.000Z</time>
      </trkpt>
      <trkpt lat="48.70452" lon="1.79082">
        <ele>189.80000305176</ele>
        <time>2014-10-20T09:51:27.000Z</time>
      </trkpt>
      <trkpt lat="48.70456" lon="1.79076">
        <ele>189.39999389648</ele>
        <time>2014-10-20T09:51:32.000Z</time>
      </trkpt>
      <trkpt lat="48.70465" lon="1.79068">
        <ele>189</ele>
        <time>2014-10-20T09:51:38.000Z</time>
      </trkpt>
      <trkpt lat="48.70475" lon="1.7906">
        <ele>188.60000610352</ele>
        <time>2014-10-20T09:51:44.000Z</time>
      </trkpt>
      <trkpt lat="48.70485" lon="1.79054">
        <ele>188</ele>
        <time>2014-10-20T09:51:49.000Z</time>
      </trkpt>
      <trkpt lat="48.70491" lon="1.79045">
        <ele>187.80000305176</ele>
        <time>2014-10-20T09:51:55.000Z</time>
      </trkpt>
      <trkpt lat="48.70501" lon="1.79038">
        <ele>188</ele>
        <time>2014-10-20T09:52:00.000Z</time>
      </trkpt>
      <trkpt lat="48.70513" lon="1.79031">
        <ele>188.39999389648</ele>
        <time>2014-10-20T09:52:06.000Z</time>
      </trkpt>
      <trkpt lat="48.70519" lon="1.79023">
        <ele>188.80000305176</ele>
        <time>2014-10-20T09:52:10.000Z</time>
      </trkpt>
      <trkpt lat="48.70528" lon="1.79014">
        <ele>189.19999694824</ele>
        <time>2014-10-20T09:52:15.000Z</time>
      </trkpt>
      <trkpt lat="48.70536" lon="1.79009">
        <ele>189.39999389648</ele>
        <time>2014-10-20T09:52:20.000Z</time>
      </trkpt>
      <trkpt lat="48.7054" lon="1.78999">
        <ele>189.60000610352</ele>
        <time>2014-10-20T09:52:25.000Z</time>
      </trkpt>
      <trkpt lat="48.70547" lon="1.78988">
        <ele>189.39999389648</ele>
        <time>2014-10-20T09:52:31.000Z</time>
      </trkpt>
      <trkpt lat="48.70556" lon="1.78978">
        <ele>189</ele>
        <time>2014-10-20T09:52:37.000Z</time>
      </trkpt>
      <trkpt lat="48.70566" lon="1.78968">
        <ele>188.39999389648</ele>
        <time>2014-10-20T09:52:42.000Z</time>
      </trkpt>
      <trkpt lat="48.70574" lon="1.78965">
        <ele>188.19999694824</ele>
        <time>2014-10-20T09:52:46.000Z</time>
      </trkpt>
      <trkpt lat="48.70579" lon="1.78963">
        <ele>188</ele>
        <time>2014-10-20T09:52:49.000Z</time>
      </trkpt>
      <trkpt lat="48.70581" lon="1.7896">
        <ele>188</ele>
        <time>2014-10-20T09:52:52.000Z</time>
      </trkpt>
      <trkpt lat="48.70586" lon="1.78953">
        <ele>188</ele>
        <time>2014-10-20T09:52:57.000Z</time>
      </trkpt>
      <trkpt lat="48.7059" lon="1.78949">
        <ele>188</ele>
        <time>2014-10-20T09:53:00.000Z</time>
      </trkpt>
      <trkpt lat="48.70594" lon="1.78947">
        <ele>188</ele>
        <time>2014-10-20T09:53:03.000Z</time>
      </trkpt>
      <trkpt lat="48.70602" lon="1.78942">
        <ele>188</ele>
        <time>2014-10-20T09:53:08.000Z</time>
      </trkpt>
      <trkpt lat="48.70612" lon="1.78938">
        <ele>188</ele>
        <time>2014-10-20T09:53:14.000Z</time>
      </trkpt>
      <trkpt lat="48.70625" lon="1.78928">
        <ele>188</ele>
        <time>2014-10-20T09:53:21.000Z</time>
      </trkpt>
      <trkpt lat="48.70637" lon="1.78921">
        <ele>188.19999694824</ele>
        <time>2014-10-20T09:53:27.000Z</time>
      </trkpt>
      <trkpt lat="48.70646" lon="1.78917">
        <ele>188.39999389648</ele>
        <time>2014-10-20T09:53:32.000Z</time>
      </trkpt>
      <trkpt lat="48.70649" lon="1.78914">
        <ele>188.39999389648</ele>
        <time>2014-10-20T09:53:34.000Z</time>
      </trkpt>
      <trkpt lat="48.70654" lon="1.78908">
        <ele>188.60000610352</ele>
        <time>2014-10-20T09:53:38.000Z</time>
      </trkpt>
      <trkpt lat="48.70661" lon="1.78902">
        <ele>188.60000610352</ele>
        <time>2014-10-20T09:53:43.000Z</time>
      </trkpt>
      <trkpt lat="48.70662" lon="1.78901">
        <ele>188.60000610352</ele>
        <time>2014-10-20T09:53:44.000Z</time>
      </trkpt>
      <trkpt lat="48.70668" lon="1.78887">
        <ele>188.60000610352</ele>
        <time>2014-10-20T09:53:50.000Z</time>
      </trkpt>
      <trkpt lat="48.70675" lon="1.78876">
        <ele>188.39999389648</ele>
        <time>2014-10-20T09:53:56.000Z</time>
      </trkpt>
      <trkpt lat="48.70687" lon="1.78863">
        <ele>188</ele>
        <time>2014-10-20T09:54:03.000Z</time>
      </trkpt>
      <trkpt lat="48.70688" lon="1.7886">
        <ele>188</ele>
        <time>2014-10-20T09:54:04.000Z</time>
      </trkpt>
      <trkpt lat="48.70694" lon="1.78849">
        <ele>187.60000610352</ele>
        <time>2014-10-20T09:54:10.000Z</time>
      </trkpt>
      <trkpt lat="48.70701" lon="1.7884">
        <ele>187.19999694824</ele>
        <time>2014-10-20T09:54:15.000Z</time>
      </trkpt>
      <trkpt lat="48.70706" lon="1.78829">
        <ele>187.19999694824</ele>
        <time>2014-10-20T09:54:20.000Z</time>
      </trkpt>
      <trkpt lat="48.70707" lon="1.78826">
        <ele>187.19999694824</ele>
        <time>2014-10-20T09:54:21.000Z</time>
      </trkpt>
      <trkpt lat="48.70706" lon="1.78805">
        <ele>187.60000610352</ele>
        <time>2014-10-20T09:54:26.000Z</time>
      </trkpt>
      <trkpt lat="48.70707" lon="1.78789">
        <ele>188</ele>
        <time>2014-10-20T09:54:30.000Z</time>
      </trkpt>
      <trkpt lat="48.70715" lon="1.78785">
        <ele>188.19999694824</ele>
        <time>2014-10-20T09:54:35.000Z</time>
      </trkpt>
      <trkpt lat="48.70723" lon="1.78772">
        <ele>188.60000610352</ele>
        <time>2014-10-20T09:54:41.000Z</time>
      </trkpt>
      <trkpt lat="48.70731" lon="1.78771">
        <ele>188.60000610352</ele>
        <time>2014-10-20T09:54:45.000Z</time>
      </trkpt>
      <trkpt lat="48.70735" lon="1.78765">
        <ele>188.60000610352</ele>
        <time>2014-10-20T09:54:49.000Z</time>
      </trkpt>
      <trkpt lat="48.7074" lon="1.78748">
        <ele>188.80000305176</ele>
        <time>2014-10-20T09:54:56.000Z</time>
      </trkpt>
      <trkpt lat="48.70741" lon="1.78746">
        <ele>189</ele>
        <time>2014-10-20T09:54:57.000Z</time>
      </trkpt>
      <trkpt lat="48.70746" lon="1.78732">
        <ele>189</ele>
        <time>2014-10-20T09:55:04.000Z</time>
      </trkpt>
      <trkpt lat="48.70758" lon="1.78723">
        <ele>188.80000305176</ele>
        <time>2014-10-20T09:55:11.000Z</time>
      </trkpt>
      <trkpt lat="48.7076" lon="1.78721">
        <ele>188.80000305176</ele>
        <time>2014-10-20T09:55:12.000Z</time>
      </trkpt>
      <trkpt lat="48.70763" lon="1.78709">
        <ele>189</ele>
        <time>2014-10-20T09:55:17.000Z</time>
      </trkpt>
      <trkpt lat="48.70768" lon="1.787">
        <ele>189</ele>
        <time>2014-10-20T09:55:21.000Z</time>
      </trkpt>
      <trkpt lat="48.70772" lon="1.78694">
        <ele>189</ele>
        <time>2014-10-20T09:55:24.000Z</time>
      </trkpt>
      <trkpt lat="48.70774" lon="1.78677">
        <ele>188.80000305176</ele>
        <time>2014-10-20T09:55:30.000Z</time>
      </trkpt>
      <trkpt lat="48.70783" lon="1.78668">
        <ele>188.19999694824</ele>
        <time>2014-10-20T09:55:36.000Z</time>
      </trkpt>
      <trkpt lat="48.70789" lon="1.78656">
        <ele>187.19999694824</ele>
        <time>2014-10-20T09:55:42.000Z</time>
      </trkpt>
      <trkpt lat="48.70796" lon="1.7864">
        <ele>185.60000610352</ele>
        <time>2014-10-20T09:55:49.000Z</time>
      </trkpt>
      <trkpt lat="48.70801" lon="1.78624">
        <ele>184.19999694824</ele>
        <time>2014-10-20T09:55:56.000Z</time>
      </trkpt>
      <trkpt lat="48.70805" lon="1.78613">
        <ele>183.19999694824</ele>
        <time>2014-10-20T09:56:02.000Z</time>
      </trkpt>
      <trkpt lat="48.70805" lon="1.78612">
        <ele>183.19999694824</ele>
        <time>2014-10-20T09:56:04.000Z</time>
      </trkpt>
      <trkpt lat="48.70813" lon="1.78605">
        <ele>182</ele>
        <time>2014-10-20T09:58:34.000Z</time>
      </trkpt>
      <trkpt lat="48.70813" lon="1.78606">
        <ele>182.19999694824</ele>
        <time>2014-10-20T09:58:35.000Z</time>
      </trkpt>
      <trkpt lat="48.7081" lon="1.78609">
        <ele>182.39999389648</ele>
        <time>2014-10-20T09:59:52.000Z</time>
      </trkpt>
      <trkpt lat="48.70809" lon="1.78607">
        <ele>182.39999389648</ele>
        <time>2014-10-20T09:59:53.000Z</time>
      </trkpt>
      <trkpt lat="48.70808" lon="1.78605">
        <ele>182.39999389648</ele>
        <time>2014-10-20T09:59:57.000Z</time>
      </trkpt>
      <trkpt lat="48.70811" lon="1.78592">
        <ele>181.80000305176</ele>
        <time>2014-10-20T10:00:15.000Z</time>
      </trkpt>
      <trkpt lat="48.70816" lon="1.78586">
        <ele>181.19999694824</ele>
        <time>2014-10-20T10:00:19.000Z</time>
      </trkpt>
      <trkpt lat="48.70823" lon="1.7858">
        <ele>180.39999389648</ele>
        <time>2014-10-20T10:00:24.000Z</time>
      </trkpt>
      <trkpt lat="48.7083" lon="1.78568">
        <ele>179.80000305176</ele>
        <time>2014-10-20T10:00:31.000Z</time>
      </trkpt>
      <trkpt lat="48.70836" lon="1.78554">
        <ele>179.39999389648</ele>
        <time>2014-10-20T10:00:38.000Z</time>
      </trkpt>
      <trkpt lat="48.70841" lon="1.78545">
        <ele>179.39999389648</ele>
        <time>2014-10-20T10:00:43.000Z</time>
      </trkpt>
      <trkpt lat="48.70847" lon="1.78533">
        <ele>179.39999389648</ele>
        <time>2014-10-20T10:00:49.000Z</time>
      </trkpt>
      <trkpt lat="48.70853" lon="1.78521">
        <ele>179.19999694824</ele>
        <time>2014-10-20T10:00:55.000Z</time>
      </trkpt>
      <trkpt lat="48.70859" lon="1.78508">
        <ele>179.19999694824</ele>
        <time>2014-10-20T10:01:02.000Z</time>
      </trkpt>
      <trkpt lat="48.70864" lon="1.785">
        <ele>179.19999694824</ele>
        <time>2014-10-20T10:01:07.000Z</time>
      </trkpt>
      <trkpt lat="48.70867" lon="1.78497">
        <ele>179</ele>
        <time>2014-10-20T10:01:11.000Z</time>
      </trkpt>
      <trkpt lat="48.70871" lon="1.78489">
        <ele>178.80000305176</ele>
        <time>2014-10-20T10:01:16.000Z</time>
      </trkpt>
      <trkpt lat="48.70876" lon="1.7848">
        <ele>178.39999389648</ele>
        <time>2014-10-20T10:01:21.000Z</time>
      </trkpt>
      <trkpt lat="48.70877" lon="1.78478">
        <ele>178.39999389648</ele>
        <time>2014-10-20T10:01:22.000Z</time>
      </trkpt>
      <trkpt lat="48.70882" lon="1.78468">
        <ele>178</ele>
        <time>2014-10-20T10:01:27.000Z</time>
      </trkpt>
      <trkpt lat="48.70889" lon="1.78457">
        <ele>177.39999389648</ele>
        <time>2014-10-20T10:01:34.000Z</time>
      </trkpt>
      <trkpt lat="48.70891" lon="1.78452">
        <ele>177.39999389648</ele>
        <time>2014-10-20T10:01:36.000Z</time>
      </trkpt>
      <trkpt lat="48.70897" lon="1.78436">
        <ele>176.80000305176</ele>
        <time>2014-10-20T10:01:43.000Z</time>
      </trkpt>
      <trkpt lat="48.70898" lon="1.78434">
        <ele>176.80000305176</ele>
        <time>2014-10-20T10:01:44.000Z</time>
      </trkpt>
      <trkpt lat="48.70899" lon="1.78422">
        <ele>176.80000305176</ele>
        <time>2014-10-20T10:01:49.000Z</time>
      </trkpt>
      <trkpt lat="48.70902" lon="1.78418">
        <ele>176.60000610352</ele>
        <time>2014-10-20T10:01:51.000Z</time>
      </trkpt>
      <trkpt lat="48.70907" lon="1.78403">
        <ele>176.19999694824</ele>
        <time>2014-10-20T10:01:58.000Z</time>
      </trkpt>
      <trkpt lat="48.70913" lon="1.78394">
        <ele>175.60000610352</ele>
        <time>2014-10-20T10:02:03.000Z</time>
      </trkpt>
      <trkpt lat="48.70922" lon="1.78385">
        <ele>174.80000305176</ele>
        <time>2014-10-20T10:02:08.000Z</time>
      </trkpt>
      <trkpt lat="48.70923" lon="1.7838">
        <ele>174.80000305176</ele>
        <time>2014-10-20T10:02:10.000Z</time>
      </trkpt>
      <trkpt lat="48.70929" lon="1.78364">
        <ele>174.39999389648</ele>
        <time>2014-10-20T10:02:17.000Z</time>
      </trkpt>
      <trkpt lat="48.70935" lon="1.78347">
        <ele>174</ele>
        <time>2014-10-20T10:02:24.000Z</time>
      </trkpt>
      <trkpt lat="48.7094" lon="1.78343">
        <ele>174</ele>
        <time>2014-10-20T10:02:28.000Z</time>
      </trkpt>
      <trkpt lat="48.70944" lon="1.78328">
        <ele>174.19999694824</ele>
        <time>2014-10-20T10:02:34.000Z</time>
      </trkpt>
      <trkpt lat="48.70951" lon="1.78317">
        <ele>174</ele>
        <time>2014-10-20T10:02:39.000Z</time>
      </trkpt>
      <trkpt lat="48.70956" lon="1.78302">
        <ele>174</ele>
        <time>2014-10-20T10:02:44.000Z</time>
      </trkpt>
      <trkpt lat="48.70959" lon="1.78296">
        <ele>174</ele>
        <time>2014-10-20T10:02:47.000Z</time>
      </trkpt>
      <trkpt lat="48.70965" lon="1.78282">
        <ele>174</ele>
        <time>2014-10-20T10:02:53.000Z</time>
      </trkpt>
      <trkpt lat="48.70968" lon="1.78276">
        <ele>174</ele>
        <time>2014-10-20T10:02:56.000Z</time>
      </trkpt>
      <trkpt lat="48.70974" lon="1.78269">
        <ele>174</ele>
        <time>2014-10-20T10:03:01.000Z</time>
      </trkpt>
      <trkpt lat="48.70978" lon="1.78256">
        <ele>173.80000305176</ele>
        <time>2014-10-20T10:03:07.000Z</time>
      </trkpt>
      <trkpt lat="48.70984" lon="1.7825">
        <ele>173.60000610352</ele>
        <time>2014-10-20T10:03:12.000Z</time>
      </trkpt>
      <trkpt lat="48.70992" lon="1.78244">
        <ele>173.39999389648</ele>
        <time>2014-10-20T10:03:17.000Z</time>
      </trkpt>
      <trkpt lat="48.70995" lon="1.7824">
        <ele>173.39999389648</ele>
        <time>2014-10-20T10:03:27.000Z</time>
      </trkpt>
      <trkpt lat="48.70995" lon="1.78234">
        <ele>173.39999389648</ele>
        <time>2014-10-20T10:03:36.000Z</time>
      </trkpt>
      <trkpt lat="48.70995" lon="1.78233">
        <ele>173.39999389648</ele>
        <time>2014-10-20T10:03:40.000Z</time>
      </trkpt>
      <trkpt lat="48.70994" lon="1.78231">
        <ele>173.39999389648</ele>
        <time>2014-10-20T10:03:43.000Z</time>
      </trkpt>
      <trkpt lat="48.70996" lon="1.7823">
        <ele>173.39999389648</ele>
        <time>2014-10-20T10:03:49.000Z</time>
      </trkpt>
      <trkpt lat="48.70996" lon="1.78215">
        <ele>173.60000610352</ele>
        <time>2014-10-20T10:05:00.000Z</time>
      </trkpt>
      <trkpt lat="48.70997" lon="1.78215">
        <ele>173.60000610352</ele>
        <time>2014-10-20T10:05:01.000Z</time>
      </trkpt>
      <trkpt lat="48.71004" lon="1.78215">
        <ele>173.39999389648</ele>
        <time>2014-10-20T10:05:23.000Z</time>
      </trkpt>
      <trkpt lat="48.71006" lon="1.78214">
        <ele>173.19999694824</ele>
        <time>2014-10-20T10:05:32.000Z</time>
      </trkpt>
      <trkpt lat="48.71006" lon="1.78214">
        <ele>173.19999694824</ele>
        <time>2014-10-20T10:05:34.000Z</time>
      </trkpt>
      <trkpt lat="48.71005" lon="1.78215">
        <ele>173.19999694824</ele>
        <time>2014-10-20T10:06:38.000Z</time>
      </trkpt>
      <trkpt lat="48.71003" lon="1.78217">
        <ele>173.39999389648</ele>
        <time>2014-10-20T10:06:46.000Z</time>
      </trkpt>
      <trkpt lat="48.71003" lon="1.78217">
        <ele>173.39999389648</ele>
        <time>2014-10-20T10:06:48.000Z</time>
      </trkpt>
      <trkpt lat="48.71001" lon="1.78218">
        <ele>173.39999389648</ele>
        <time>2014-10-20T10:07:18.000Z</time>
      </trkpt>
      <trkpt lat="48.71001" lon="1.78217">
        <ele>173.39999389648</ele>
        <time>2014-10-20T10:07:19.000Z</time>
      </trkpt>
      <trkpt lat="48.71004" lon="1.78221">
        <ele>173.39999389648</ele>
        <time>2014-10-20T10:08:13.000Z</time>
      </trkpt>
      <trkpt lat="48.71007" lon="1.78221">
        <ele>173.19999694824</ele>
        <time>2014-10-20T10:08:23.000Z</time>
      </trkpt>
      <trkpt lat="48.71007" lon="1.7822">
        <ele>173.19999694824</ele>
        <time>2014-10-20T10:08:24.000Z</time>
      </trkpt>
      <trkpt lat="48.71009" lon="1.7822">
        <ele>173.19999694824</ele>
        <time>2014-10-20T10:08:28.000Z</time>
      </trkpt>
      <trkpt lat="48.71011" lon="1.78219">
        <ele>173.19999694824</ele>
        <time>2014-10-20T10:08:31.000Z</time>
      </trkpt>
      <trkpt lat="48.71013" lon="1.78217">
        <ele>173</ele>
        <time>2014-10-20T10:08:36.000Z</time>
      </trkpt>
      <trkpt lat="48.71014" lon="1.78221">
        <ele>173</ele>
        <time>2014-10-20T10:08:45.000Z</time>
      </trkpt>
      <trkpt lat="48.71015" lon="1.78222">
        <ele>173</ele>
        <time>2014-10-20T10:08:46.000Z</time>
      </trkpt>
      <trkpt lat="48.71016" lon="1.78221">
        <ele>173</ele>
        <time>2014-10-20T10:08:49.000Z</time>
      </trkpt>
      <trkpt lat="48.71016" lon="1.78218">
        <ele>173</ele>
        <time>2014-10-20T10:08:54.000Z</time>
      </trkpt>
      <trkpt lat="48.71015" lon="1.78217">
        <ele>173</ele>
        <time>2014-10-20T10:08:57.000Z</time>
      </trkpt>
      <trkpt lat="48.71012" lon="1.78231">
        <ele>173.19999694824</ele>
        <time>2014-10-20T10:09:27.000Z</time>
      </trkpt>
      <trkpt lat="48.71013" lon="1.78228">
        <ele>173.19999694824</ele>
        <time>2014-10-20T10:09:33.000Z</time>
      </trkpt>
      <trkpt lat="48.71015" lon="1.7823">
        <ele>173</ele>
        <time>2014-10-20T10:09:36.000Z</time>
      </trkpt>
      <trkpt lat="48.71023" lon="1.78232">
        <ele>173</ele>
        <time>2014-10-20T10:09:42.000Z</time>
      </trkpt>
      <trkpt lat="48.71032" lon="1.7823">
        <ele>173</ele>
        <time>2014-10-20T10:09:51.000Z</time>
      </trkpt>
      <trkpt lat="48.71036" lon="1.78228">
        <ele>173</ele>
        <time>2014-10-20T10:09:55.000Z</time>
      </trkpt>
      <trkpt lat="48.71046" lon="1.78225">
        <ele>173.19999694824</ele>
        <time>2014-10-20T10:10:02.000Z</time>
      </trkpt>
      <trkpt lat="48.71057" lon="1.78222">
        <ele>173.19999694824</ele>
        <time>2014-10-20T10:10:07.000Z</time>
      </trkpt>
      <trkpt lat="48.71064" lon="1.78216">
        <ele>173.19999694824</ele>
        <time>2014-10-20T10:10:12.000Z</time>
      </trkpt>
      <trkpt lat="48.71076" lon="1.78207">
        <ele>173.19999694824</ele>
        <time>2014-10-20T10:10:19.000Z</time>
      </trkpt>
      <trkpt lat="48.71081" lon="1.78196">
        <ele>173</ele>
        <time>2014-10-20T10:10:24.000Z</time>
      </trkpt>
      <trkpt lat="48.71084" lon="1.78188">
        <ele>172.80000305176</ele>
        <time>2014-10-20T10:10:28.000Z</time>
      </trkpt>
      <trkpt lat="48.71085" lon="1.78172">
        <ele>172.39999389648</ele>
        <time>2014-10-20T10:10:35.000Z</time>
      </trkpt>
      <trkpt lat="48.71091" lon="1.78165">
        <ele>172.19999694824</ele>
        <time>2014-10-20T10:10:40.000Z</time>
      </trkpt>
      <trkpt lat="48.71092" lon="1.78154">
        <ele>172</ele>
        <time>2014-10-20T10:10:45.000Z</time>
      </trkpt>
      <trkpt lat="48.71092" lon="1.78151">
        <ele>172</ele>
        <time>2014-10-20T10:10:46.000Z</time>
      </trkpt>
      <trkpt lat="48.71093" lon="1.78144">
        <ele>172.19999694824</ele>
        <time>2014-10-20T10:10:49.000Z</time>
      </trkpt>
      <trkpt lat="48.71101" lon="1.78131">
        <ele>172.60000610352</ele>
        <time>2014-10-20T10:10:55.000Z</time>
      </trkpt>
      <trkpt lat="48.71102" lon="1.78129">
        <ele>172.60000610352</ele>
        <time>2014-10-20T10:10:56.000Z</time>
      </trkpt>
      <trkpt lat="48.71105" lon="1.78121">
        <ele>172.80000305176</ele>
        <time>2014-10-20T10:11:00.000Z</time>
      </trkpt>
      <trkpt lat="48.71105" lon="1.78102">
        <ele>173.39999389648</ele>
        <time>2014-10-20T10:11:07.000Z</time>
      </trkpt>
      <trkpt lat="48.71109" lon="1.78091">
        <ele>173.80000305176</ele>
        <time>2014-10-20T10:11:11.000Z</time>
      </trkpt>
      <trkpt lat="48.71114" lon="1.78075">
        <ele>174</ele>
        <time>2014-10-20T10:11:17.000Z</time>
      </trkpt>
      <trkpt lat="48.71119" lon="1.78061">
        <ele>173.80000305176</ele>
        <time>2014-10-20T10:11:23.000Z</time>
      </trkpt>
      <trkpt lat="48.71121" lon="1.78048">
        <ele>173.39999389648</ele>
        <time>2014-10-20T10:11:27.000Z</time>
      </trkpt>
      <trkpt lat="48.71121" lon="1.78029">
        <ele>173</ele>
        <time>2014-10-20T10:11:34.000Z</time>
      </trkpt>
      <trkpt lat="48.71124" lon="1.7802">
        <ele>172.80000305176</ele>
        <time>2014-10-20T10:11:39.000Z</time>
      </trkpt>
      <trkpt lat="48.71127" lon="1.78006">
        <ele>172.39999389648</ele>
        <time>2014-10-20T10:11:45.000Z</time>
      </trkpt>
      <trkpt lat="48.71128" lon="1.77998">
        <ele>172</ele>
        <time>2014-10-20T10:11:48.000Z</time>
      </trkpt>
      <trkpt lat="48.71131" lon="1.77981">
        <ele>171.39999389648</ele>
        <time>2014-10-20T10:11:55.000Z</time>
      </trkpt>
      <trkpt lat="48.71133" lon="1.77974">
        <ele>171.19999694824</ele>
        <time>2014-10-20T10:11:58.000Z</time>
      </trkpt>
      <trkpt lat="48.71136" lon="1.77964">
        <ele>170.80000305176</ele>
        <time>2014-10-20T10:12:03.000Z</time>
      </trkpt>
      <trkpt lat="48.71135" lon="1.77961">
        <ele>170.60000610352</ele>
        <time>2014-10-20T10:12:04.000Z</time>
      </trkpt>
      <trkpt lat="48.71136" lon="1.77956">
        <ele>170.39999389648</ele>
        <time>2014-10-20T10:12:06.000Z</time>
      </trkpt>
      <trkpt lat="48.71139" lon="1.77943">
        <ele>170</ele>
        <time>2014-10-20T10:12:12.000Z</time>
      </trkpt>
      <trkpt lat="48.71138" lon="1.77941">
        <ele>169.80000305176</ele>
        <time>2014-10-20T10:12:13.000Z</time>
      </trkpt>
      <trkpt lat="48.71132" lon="1.77931">
        <ele>169.80000305176</ele>
        <time>2014-10-20T10:12:19.000Z</time>
      </trkpt>
      <trkpt lat="48.7113" lon="1.77916">
        <ele>169.80000305176</ele>
        <time>2014-10-20T10:12:25.000Z</time>
      </trkpt>
      <trkpt lat="48.71125" lon="1.77898">
        <ele>169.80000305176</ele>
        <time>2014-10-20T10:12:32.000Z</time>
      </trkpt>
      <trkpt lat="48.71121" lon="1.77881">
        <ele>170</ele>
        <time>2014-10-20T10:12:39.000Z</time>
      </trkpt>
      <trkpt lat="48.71118" lon="1.77864">
        <ele>170</ele>
        <time>2014-10-20T10:12:46.000Z</time>
      </trkpt>
      <trkpt lat="48.71117" lon="1.77851">
        <ele>170.19999694824</ele>
        <time>2014-10-20T10:12:52.000Z</time>
      </trkpt>
      <trkpt lat="48.71115" lon="1.77838">
        <ele>170.19999694824</ele>
        <time>2014-10-20T10:12:59.000Z</time>
      </trkpt>
      <trkpt lat="48.71113" lon="1.77835">
        <ele>170.19999694824</ele>
        <time>2014-10-20T10:13:01.000Z</time>
      </trkpt>
      <trkpt lat="48.71112" lon="1.77824">
        <ele>170</ele>
        <time>2014-10-20T10:13:05.000Z</time>
      </trkpt>
      <trkpt lat="48.7111" lon="1.7781">
        <ele>169.80000305176</ele>
        <time>2014-10-20T10:13:09.000Z</time>
      </trkpt>
      <trkpt lat="48.71105" lon="1.77795">
        <ele>169.60000610352</ele>
        <time>2014-10-20T10:13:14.000Z</time>
      </trkpt>
      <trkpt lat="48.711" lon="1.77778">
        <ele>169.60000610352</ele>
        <time>2014-10-20T10:13:20.000Z</time>
      </trkpt>
      <trkpt lat="48.71097" lon="1.77766">
        <ele>169.39999389648</ele>
        <time>2014-10-20T10:13:26.000Z</time>
      </trkpt>
      <trkpt lat="48.71093" lon="1.77753">
        <ele>169.39999389648</ele>
        <time>2014-10-20T10:13:32.000Z</time>
      </trkpt>
      <trkpt lat="48.71092" lon="1.77749">
        <ele>169.39999389648</ele>
        <time>2014-10-20T10:13:37.000Z</time>
      </trkpt>
      <trkpt lat="48.71086" lon="1.77746">
        <ele>169.60000610352</ele>
        <time>2014-10-20T10:13:43.000Z</time>
      </trkpt>
      <trkpt lat="48.71084" lon="1.77746">
        <ele>169.60000610352</ele>
        <time>2014-10-20T10:13:47.000Z</time>
      </trkpt>
      <trkpt lat="48.71087" lon="1.77733">
        <ele>169.39999389648</ele>
        <time>2014-10-20T10:14:34.000Z</time>
      </trkpt>
      <trkpt lat="48.71083" lon="1.77725">
        <ele>169.60000610352</ele>
        <time>2014-10-20T10:14:37.000Z</time>
      </trkpt>
      <trkpt lat="48.71075" lon="1.7771">
        <ele>170</ele>
        <time>2014-10-20T10:14:45.000Z</time>
      </trkpt>
      <trkpt lat="48.71067" lon="1.77697">
        <ele>170.39999389648</ele>
        <time>2014-10-20T10:14:51.000Z</time>
      </trkpt>
      <trkpt lat="48.71065" lon="1.77694">
        <ele>170.39999389648</ele>
        <time>2014-10-20T10:14:52.000Z</time>
      </trkpt>
      <trkpt lat="48.71059" lon="1.77673">
        <ele>170.80000305176</ele>
        <time>2014-10-20T10:15:00.000Z</time>
      </trkpt>
      <trkpt lat="48.71054" lon="1.77664">
        <ele>171</ele>
        <time>2014-10-20T10:15:05.000Z</time>
      </trkpt>
      <trkpt lat="48.71049" lon="1.77649">
        <ele>171.39999389648</ele>
        <time>2014-10-20T10:15:11.000Z</time>
      </trkpt>
      <trkpt lat="48.71042" lon="1.77633">
        <ele>171.39999389648</ele>
        <time>2014-10-20T10:15:19.000Z</time>
      </trkpt>
      <trkpt lat="48.71034" lon="1.77613">
        <ele>171.60000610352</ele>
        <time>2014-10-20T10:15:27.000Z</time>
      </trkpt>
      <trkpt lat="48.71027" lon="1.77591">
        <ele>171.80000305176</ele>
        <time>2014-10-20T10:15:36.000Z</time>
      </trkpt>
      <trkpt lat="48.71021" lon="1.77575">
        <ele>172</ele>
        <time>2014-10-20T10:15:43.000Z</time>
      </trkpt>
      <trkpt lat="48.71016" lon="1.77562">
        <ele>172.19999694824</ele>
        <time>2014-10-20T10:15:50.000Z</time>
      </trkpt>
      <trkpt lat="48.71013" lon="1.77552">
        <ele>172.39999389648</ele>
        <time>2014-10-20T10:15:55.000Z</time>
      </trkpt>
      <trkpt lat="48.7101" lon="1.77543">
        <ele>172.60000610352</ele>
        <time>2014-10-20T10:15:59.000Z</time>
      </trkpt>
      <trkpt lat="48.71007" lon="1.77534">
        <ele>172.80000305176</ele>
        <time>2014-10-20T10:16:03.000Z</time>
      </trkpt>
      <trkpt lat="48.71001" lon="1.7752">
        <ele>173.19999694824</ele>
        <time>2014-10-20T10:16:09.000Z</time>
      </trkpt>
      <trkpt lat="48.70996" lon="1.77511">
        <ele>173.39999389648</ele>
        <time>2014-10-20T10:16:15.000Z</time>
      </trkpt>
      <trkpt lat="48.70989" lon="1.77496">
        <ele>173.80000305176</ele>
        <time>2014-10-20T10:16:21.000Z</time>
      </trkpt>
      <trkpt lat="48.70978" lon="1.7748">
        <ele>174</ele>
        <time>2014-10-20T10:16:29.000Z</time>
      </trkpt>
      <trkpt lat="48.70972" lon="1.77467">
        <ele>174.19999694824</ele>
        <time>2014-10-20T10:16:35.000Z</time>
      </trkpt>
      <trkpt lat="48.70967" lon="1.77456">
        <ele>174.39999389648</ele>
        <time>2014-10-20T10:16:40.000Z</time>
      </trkpt>
      <trkpt lat="48.70962" lon="1.77443">
        <ele>174.60000610352</ele>
        <time>2014-10-20T10:16:46.000Z</time>
      </trkpt>
      <trkpt lat="48.70957" lon="1.77431">
        <ele>174.60000610352</ele>
        <time>2014-10-20T10:16:52.000Z</time>
      </trkpt>
      <trkpt lat="48.70953" lon="1.77422">
        <ele>174.80000305176</ele>
        <time>2014-10-20T10:16:56.000Z</time>
      </trkpt>
      <trkpt lat="48.70946" lon="1.77409">
        <ele>175</ele>
        <time>2014-10-20T10:17:03.000Z</time>
      </trkpt>
      <trkpt lat="48.70939" lon="1.77395">
        <ele>175.39999389648</ele>
        <time>2014-10-20T10:17:10.000Z</time>
      </trkpt>
      <trkpt lat="48.70932" lon="1.77378">
        <ele>175.80000305176</ele>
        <time>2014-10-20T10:17:18.000Z</time>
      </trkpt>
      <trkpt lat="48.70924" lon="1.77365">
        <ele>176.19999694824</ele>
        <time>2014-10-20T10:17:25.000Z</time>
      </trkpt>
      <trkpt lat="48.70917" lon="1.77352">
        <ele>176.60000610352</ele>
        <time>2014-10-20T10:17:32.000Z</time>
      </trkpt>
      <trkpt lat="48.7091" lon="1.77339">
        <ele>177</ele>
        <time>2014-10-20T10:17:39.000Z</time>
      </trkpt>
      <trkpt lat="48.70903" lon="1.77324">
        <ele>177.39999389648</ele>
        <time>2014-10-20T10:17:46.000Z</time>
      </trkpt>
      <trkpt lat="48.70897" lon="1.77304">
        <ele>177.39999389648</ele>
        <time>2014-10-20T10:17:55.000Z</time>
      </trkpt>
      <trkpt lat="48.70891" lon="1.77285">
        <ele>177</ele>
        <time>2014-10-20T10:18:04.000Z</time>
      </trkpt>
      <trkpt lat="48.70885" lon="1.77269">
        <ele>176.80000305176</ele>
        <time>2014-10-20T10:18:12.000Z</time>
      </trkpt>
      <trkpt lat="48.70881" lon="1.77257">
        <ele>176.39999389648</ele>
        <time>2014-10-20T10:18:18.000Z</time>
      </trkpt>
      <trkpt lat="48.70874" lon="1.77251">
        <ele>176.39999389648</ele>
        <time>2014-10-20T10:18:26.000Z</time>
      </trkpt>
      <trkpt lat="48.70876" lon="1.77251">
        <ele>176.39999389648</ele>
        <time>2014-10-20T10:18:33.000Z</time>
      </trkpt>
      <trkpt lat="48.7088" lon="1.7725">
        <ele>176.19999694824</ele>
        <time>2014-10-20T10:18:38.000Z</time>
      </trkpt>
      <trkpt lat="48.70882" lon="1.77249">
        <ele>176.19999694824</ele>
        <time>2014-10-20T10:18:39.000Z</time>
      </trkpt>
      <trkpt lat="48.70889" lon="1.77248">
        <ele>176.19999694824</ele>
        <time>2014-10-20T10:18:44.000Z</time>
      </trkpt>
      <trkpt lat="48.70897" lon="1.77242">
        <ele>176</ele>
        <time>2014-10-20T10:18:50.000Z</time>
      </trkpt>
      <trkpt lat="48.70898" lon="1.77241">
        <ele>176</ele>
        <time>2014-10-20T10:18:51.000Z</time>
      </trkpt>
      <trkpt lat="48.70906" lon="1.77238">
        <ele>176</ele>
        <time>2014-10-20T10:18:57.000Z</time>
      </trkpt>
      <trkpt lat="48.70914" lon="1.77236">
        <ele>175.80000305176</ele>
        <time>2014-10-20T10:19:02.000Z</time>
      </trkpt>
      <trkpt lat="48.70924" lon="1.77228">
        <ele>175.39999389648</ele>
        <time>2014-10-20T10:19:09.000Z</time>
      </trkpt>
      <trkpt lat="48.70927" lon="1.77227">
        <ele>175.39999389648</ele>
        <time>2014-10-20T10:19:11.000Z</time>
      </trkpt>
      <trkpt lat="48.70938" lon="1.77222">
        <ele>175.39999389648</ele>
        <time>2014-10-20T10:19:18.000Z</time>
      </trkpt>
      <trkpt lat="48.70946" lon="1.77221">
        <ele>175.19999694824</ele>
        <time>2014-10-20T10:19:24.000Z</time>
      </trkpt>
      <trkpt lat="48.70948" lon="1.7722">
        <ele>175</ele>
        <time>2014-10-20T10:19:26.000Z</time>
      </trkpt>
      <trkpt lat="48.70955" lon="1.77223">
        <ele>175</ele>
        <time>2014-10-20T10:19:31.000Z</time>
      </trkpt>
      <trkpt lat="48.70959" lon="1.77225">
        <ele>175</ele>
        <time>2014-10-20T10:19:34.000Z</time>
      </trkpt>
      <trkpt lat="48.70967" lon="1.77225">
        <ele>174.80000305176</ele>
        <time>2014-10-20T10:19:39.000Z</time>
      </trkpt>
      <trkpt lat="48.70968" lon="1.77226">
        <ele>174.80000305176</ele>
        <time>2014-10-20T10:19:40.000Z</time>
      </trkpt>
      <trkpt lat="48.70977" lon="1.77225">
        <ele>174.60000610352</ele>
        <time>2014-10-20T10:19:46.000Z</time>
      </trkpt>
      <trkpt lat="48.70989" lon="1.77222">
        <ele>174.19999694824</ele>
        <time>2014-10-20T10:19:53.000Z</time>
      </trkpt>
      <trkpt lat="48.71002" lon="1.77218">
        <ele>173.60000610352</ele>
        <time>2014-10-20T10:19:59.000Z</time>
      </trkpt>
      <trkpt lat="48.7101" lon="1.77216">
        <ele>173.39999389648</ele>
        <time>2014-10-20T10:20:04.000Z</time>
      </trkpt>
      <trkpt lat="48.71018" lon="1.77213">
        <ele>172.80000305176</ele>
        <time>2014-10-20T10:20:10.000Z</time>
      </trkpt>
      <trkpt lat="48.71023" lon="1.77211">
        <ele>172.80000305176</ele>
        <time>2014-10-20T10:20:13.000Z</time>
      </trkpt>
      <trkpt lat="48.71032" lon="1.77206">
        <ele>172.39999389648</ele>
        <time>2014-10-20T10:20:19.000Z</time>
      </trkpt>
      <trkpt lat="48.71035" lon="1.77205">
        <ele>172.39999389648</ele>
        <time>2014-10-20T10:20:21.000Z</time>
      </trkpt>
      <trkpt lat="48.71045" lon="1.77203">
        <ele>172.39999389648</ele>
        <time>2014-10-20T10:20:27.000Z</time>
      </trkpt>
      <trkpt lat="48.71054" lon="1.77201">
        <ele>172.19999694824</ele>
        <time>2014-10-20T10:20:32.000Z</time>
      </trkpt>
      <trkpt lat="48.71063" lon="1.77197">
        <ele>172</ele>
        <time>2014-10-20T10:20:38.000Z</time>
      </trkpt>
      <trkpt lat="48.71071" lon="1.77192">
        <ele>171.80000305176</ele>
        <time>2014-10-20T10:20:43.000Z</time>
      </trkpt>
      <trkpt lat="48.71074" lon="1.7719">
        <ele>171.80000305176</ele>
        <time>2014-10-20T10:20:45.000Z</time>
      </trkpt>
      <trkpt lat="48.71081" lon="1.77187">
        <ele>171.60000610352</ele>
        <time>2014-10-20T10:20:50.000Z</time>
      </trkpt>
      <trkpt lat="48.71082" lon="1.77187">
        <ele>171.60000610352</ele>
        <time>2014-10-20T10:20:51.000Z</time>
      </trkpt>
      <trkpt lat="48.71091" lon="1.77182">
        <ele>171.39999389648</ele>
        <time>2014-10-20T10:20:57.000Z</time>
      </trkpt>
      <trkpt lat="48.71103" lon="1.77174">
        <ele>171</ele>
        <time>2014-10-20T10:21:03.000Z</time>
      </trkpt>
      <trkpt lat="48.71112" lon="1.7717">
        <ele>170.60000610352</ele>
        <time>2014-10-20T10:21:09.000Z</time>
      </trkpt>
      <trkpt lat="48.71122" lon="1.77166">
        <ele>170.19999694824</ele>
        <time>2014-10-20T10:21:15.000Z</time>
      </trkpt>
      <trkpt lat="48.71129" lon="1.7716">
        <ele>169.80000305176</ele>
        <time>2014-10-20T10:21:21.000Z</time>
      </trkpt>
      <trkpt lat="48.71134" lon="1.77155">
        <ele>169.60000610352</ele>
        <time>2014-10-20T10:21:25.000Z</time>
      </trkpt>
      <trkpt lat="48.71137" lon="1.77152">
        <ele>169.39999389648</ele>
        <time>2014-10-20T10:21:28.000Z</time>
      </trkpt>
      <trkpt lat="48.71146" lon="1.77147">
        <ele>169</ele>
        <time>2014-10-20T10:21:33.000Z</time>
      </trkpt>
      <trkpt lat="48.71156" lon="1.77142">
        <ele>168.60000610352</ele>
        <time>2014-10-20T10:21:39.000Z</time>
      </trkpt>
      <trkpt lat="48.71165" lon="1.77137">
        <ele>168.19999694824</ele>
        <time>2014-10-20T10:21:45.000Z</time>
      </trkpt>
      <trkpt lat="48.71174" lon="1.77133">
        <ele>168</ele>
        <time>2014-10-20T10:21:50.000Z</time>
      </trkpt>
      <trkpt lat="48.71178" lon="1.7713">
        <ele>168</ele>
        <time>2014-10-20T10:21:53.000Z</time>
      </trkpt>
      <trkpt lat="48.71184" lon="1.77122">
        <ele>167.80000305176</ele>
        <time>2014-10-20T10:21:58.000Z</time>
      </trkpt>
      <trkpt lat="48.71186" lon="1.7712">
        <ele>167.80000305176</ele>
        <time>2014-10-20T10:22:00.000Z</time>
      </trkpt>
      <trkpt lat="48.71189" lon="1.77118">
        <ele>167.80000305176</ele>
        <time>2014-10-20T10:22:02.000Z</time>
      </trkpt>
      <trkpt lat="48.71197" lon="1.77115">
        <ele>167.60000610352</ele>
        <time>2014-10-20T10:22:07.000Z</time>
      </trkpt>
      <trkpt lat="48.71208" lon="1.77108">
        <ele>167.39999389648</ele>
        <time>2014-10-20T10:22:14.000Z</time>
      </trkpt>
      <trkpt lat="48.71225" lon="1.77098">
        <ele>167.19999694824</ele>
        <time>2014-10-20T10:22:24.000Z</time>
      </trkpt>
      <trkpt lat="48.71241" lon="1.7709">
        <ele>167.19999694824</ele>
        <time>2014-10-20T10:22:34.000Z</time>
      </trkpt>
      <trkpt lat="48.71249" lon="1.7709">
        <ele>167.19999694824</ele>
        <time>2014-10-20T10:22:39.000Z</time>
      </trkpt>
      <trkpt lat="48.71259" lon="1.77091">
        <ele>167.39999389648</ele>
        <time>2014-10-20T10:22:46.000Z</time>
      </trkpt>
      <trkpt lat="48.71266" lon="1.77091">
        <ele>167.39999389648</ele>
        <time>2014-10-20T10:22:50.000Z</time>
      </trkpt>
      <trkpt lat="48.71274" lon="1.77091">
        <ele>167.39999389648</ele>
        <time>2014-10-20T10:22:56.000Z</time>
      </trkpt>
      <trkpt lat="48.71287" lon="1.7709">
        <ele>167.19999694824</ele>
        <time>2014-10-20T10:23:04.000Z</time>
      </trkpt>
      <trkpt lat="48.7129" lon="1.77091">
        <ele>167.19999694824</ele>
        <time>2014-10-20T10:23:08.000Z</time>
      </trkpt>
      <trkpt lat="48.71296" lon="1.77091">
        <ele>167.19999694824</ele>
        <time>2014-10-20T10:23:14.000Z</time>
      </trkpt>
      <trkpt lat="48.71303" lon="1.77093">
        <ele>167</ele>
        <time>2014-10-20T10:23:18.000Z</time>
      </trkpt>
      <trkpt lat="48.71312" lon="1.77091">
        <ele>166.80000305176</ele>
        <time>2014-10-20T10:23:23.000Z</time>
      </trkpt>
      <trkpt lat="48.71317" lon="1.77092">
        <ele>166.60000610352</ele>
        <time>2014-10-20T10:23:26.000Z</time>
      </trkpt>
      <trkpt lat="48.71323" lon="1.77091">
        <ele>166.39999389648</ele>
        <time>2014-10-20T10:23:31.000Z</time>
      </trkpt>
      <trkpt lat="48.71331" lon="1.77088">
        <ele>166.19999694824</ele>
        <time>2014-10-20T10:23:37.000Z</time>
      </trkpt>
      <trkpt lat="48.7134" lon="1.77083">
        <ele>165.80000305176</ele>
        <time>2014-10-20T10:23:43.000Z</time>
      </trkpt>
      <trkpt lat="48.71349" lon="1.77076">
        <ele>165.19999694824</ele>
        <time>2014-10-20T10:23:49.000Z</time>
      </trkpt>
      <trkpt lat="48.71358" lon="1.77073">
        <ele>165</ele>
        <time>2014-10-20T10:23:55.000Z</time>
      </trkpt>
      <trkpt lat="48.71366" lon="1.77067">
        <ele>165</ele>
        <time>2014-10-20T10:24:02.000Z</time>
      </trkpt>
      <trkpt lat="48.71374" lon="1.77061">
        <ele>164.80000305176</ele>
        <time>2014-10-20T10:24:09.000Z</time>
      </trkpt>
      <trkpt lat="48.71386" lon="1.77053">
        <ele>164.80000305176</ele>
        <time>2014-10-20T10:24:17.000Z</time>
      </trkpt>
      <trkpt lat="48.71394" lon="1.77046">
        <ele>164.60000610352</ele>
        <time>2014-10-20T10:24:24.000Z</time>
      </trkpt>
      <trkpt lat="48.71398" lon="1.77042">
        <ele>164.60000610352</ele>
        <time>2014-10-20T10:24:27.000Z</time>
      </trkpt>
      <trkpt lat="48.71398" lon="1.77042">
        <ele>164.60000610352</ele>
        <time>2014-10-20T10:24:30.000Z</time>
      </trkpt>
      <trkpt lat="48.71404" lon="1.77036">
        <ele>164.60000610352</ele>
        <time>2014-10-20T10:24:42.000Z</time>
      </trkpt>
      <trkpt lat="48.71414" lon="1.77026">
        <ele>164.19999694824</ele>
        <time>2014-10-20T10:24:50.000Z</time>
      </trkpt>
      <trkpt lat="48.71426" lon="1.77014">
        <ele>163.80000305176</ele>
        <time>2014-10-20T10:24:59.000Z</time>
      </trkpt>
      <trkpt lat="48.71429" lon="1.77012">
        <ele>163.60000610352</ele>
        <time>2014-10-20T10:25:01.000Z</time>
      </trkpt>
      <trkpt lat="48.7144" lon="1.77">
        <ele>163.39999389648</ele>
        <time>2014-10-20T10:25:09.000Z</time>
      </trkpt>
      <trkpt lat="48.71452" lon="1.76989">
        <ele>163.19999694824</ele>
        <time>2014-10-20T10:25:17.000Z</time>
      </trkpt>
      <trkpt lat="48.71463" lon="1.7698">
        <ele>163</ele>
        <time>2014-10-20T10:25:24.000Z</time>
      </trkpt>
      <trkpt lat="48.71469" lon="1.76974">
        <ele>162.80000305176</ele>
        <time>2014-10-20T10:25:28.000Z</time>
      </trkpt>
      <trkpt lat="48.71476" lon="1.76965">
        <ele>162.60000610352</ele>
        <time>2014-10-20T10:25:34.000Z</time>
      </trkpt>
      <trkpt lat="48.71484" lon="1.76958">
        <ele>162.39999389648</ele>
        <time>2014-10-20T10:25:40.000Z</time>
      </trkpt>
      <trkpt lat="48.71489" lon="1.76954">
        <ele>162.39999389648</ele>
        <time>2014-10-20T10:25:43.000Z</time>
      </trkpt>
      <trkpt lat="48.71491" lon="1.76937">
        <ele>161.39999389648</ele>
        <time>2014-10-20T10:25:50.000Z</time>
      </trkpt>
      <trkpt lat="48.71484" lon="1.76931">
        <ele>161</ele>
        <time>2014-10-20T10:25:57.000Z</time>
      </trkpt>
      <trkpt lat="48.71473" lon="1.76931">
        <ele>161.19999694824</ele>
        <time>2014-10-20T10:26:04.000Z</time>
      </trkpt>
      <trkpt lat="48.7146" lon="1.76933">
        <ele>161.39999389648</ele>
        <time>2014-10-20T10:26:12.000Z</time>
      </trkpt>
      <trkpt lat="48.7145" lon="1.76933">
        <ele>161.19999694824</ele>
        <time>2014-10-20T10:26:18.000Z</time>
      </trkpt>
      <trkpt lat="48.71437" lon="1.76934">
        <ele>161</ele>
        <time>2014-10-20T10:26:26.000Z</time>
      </trkpt>
      <trkpt lat="48.71432" lon="1.76934">
        <ele>161.19999694824</ele>
        <time>2014-10-20T10:26:30.000Z</time>
      </trkpt>
      <trkpt lat="48.71425" lon="1.7693">
        <ele>161</ele>
        <time>2014-10-20T10:26:36.000Z</time>
      </trkpt>
      <trkpt lat="48.71413" lon="1.76928">
        <ele>161.19999694824</ele>
        <time>2014-10-20T10:26:42.000Z</time>
      </trkpt>
      <trkpt lat="48.71403" lon="1.76926">
        <ele>161.19999694824</ele>
        <time>2014-10-20T10:26:49.000Z</time>
      </trkpt>
      <trkpt lat="48.71398" lon="1.76927">
        <ele>161.19999694824</ele>
        <time>2014-10-20T10:26:52.000Z</time>
      </trkpt>
      <trkpt lat="48.71391" lon="1.7693">
        <ele>161.39999389648</ele>
        <time>2014-10-20T10:26:57.000Z</time>
      </trkpt>
      <trkpt lat="48.71379" lon="1.76934">
        <ele>161.80000305176</ele>
        <time>2014-10-20T10:27:04.000Z</time>
      </trkpt>
      <trkpt lat="48.71365" lon="1.76937">
        <ele>162</ele>
        <time>2014-10-20T10:27:13.000Z</time>
      </trkpt>
      <trkpt lat="48.71352" lon="1.76942">
        <ele>162.39999389648</ele>
        <time>2014-10-20T10:27:22.000Z</time>
      </trkpt>
      <trkpt lat="48.71344" lon="1.76937">
        <ele>162.19999694824</ele>
        <time>2014-10-20T10:27:27.000Z</time>
      </trkpt>
      <trkpt lat="48.71339" lon="1.76926">
        <ele>162</ele>
        <time>2014-10-20T10:27:32.000Z</time>
      </trkpt>
      <trkpt lat="48.71338" lon="1.76907">
        <ele>161.19999694824</ele>
        <time>2014-10-20T10:27:39.000Z</time>
      </trkpt>
      <trkpt lat="48.71338" lon="1.76889">
        <ele>161</ele>
        <time>2014-10-20T10:27:46.000Z</time>
      </trkpt>
      <trkpt lat="48.71339" lon="1.76873">
        <ele>160.80000305176</ele>
        <time>2014-10-20T10:27:52.000Z</time>
      </trkpt>
      <trkpt lat="48.71337" lon="1.76851">
        <ele>160.60000610352</ele>
        <time>2014-10-20T10:28:01.000Z</time>
      </trkpt>
      <trkpt lat="48.71337" lon="1.76827">
        <ele>160.19999694824</ele>
        <time>2014-10-20T10:28:10.000Z</time>
      </trkpt>
      <trkpt lat="48.71337" lon="1.76809">
        <ele>160.39999389648</ele>
        <time>2014-10-20T10:28:17.000Z</time>
      </trkpt>
      <trkpt lat="48.71335" lon="1.76785">
        <ele>160.19999694824</ele>
        <time>2014-10-20T10:28:27.000Z</time>
      </trkpt>
      <trkpt lat="48.71331" lon="1.76763">
        <ele>160.19999694824</ele>
        <time>2014-10-20T10:28:37.000Z</time>
      </trkpt>
      <trkpt lat="48.71329" lon="1.76741">
        <ele>160</ele>
        <time>2014-10-20T10:28:46.000Z</time>
      </trkpt>
      <trkpt lat="48.71329" lon="1.76732">
        <ele>160.19999694824</ele>
        <time>2014-10-20T10:28:50.000Z</time>
      </trkpt>
      <trkpt lat="48.71328" lon="1.76715">
        <ele>160.80000305176</ele>
        <time>2014-10-20T10:28:57.000Z</time>
      </trkpt>
      <trkpt lat="48.71329" lon="1.76693">
        <ele>161</ele>
        <time>2014-10-20T10:29:07.000Z</time>
      </trkpt>
      <trkpt lat="48.71331" lon="1.76674">
        <ele>161.19999694824</ele>
        <time>2014-10-20T10:29:15.000Z</time>
      </trkpt>
      <trkpt lat="48.71331" lon="1.76658">
        <ele>161.39999389648</ele>
        <time>2014-10-20T10:29:22.000Z</time>
      </trkpt>
      <trkpt lat="48.71331" lon="1.76651">
        <ele>161.39999389648</ele>
        <time>2014-10-20T10:29:25.000Z</time>
      </trkpt>
      <trkpt lat="48.7133" lon="1.76642">
        <ele>161.19999694824</ele>
        <time>2014-10-20T10:29:29.000Z</time>
      </trkpt>
      <trkpt lat="48.7133" lon="1.7662">
        <ele>161.80000305176</ele>
        <time>2014-10-20T10:29:38.000Z</time>
      </trkpt>
      <trkpt lat="48.71329" lon="1.76603">
        <ele>162.80000305176</ele>
        <time>2014-10-20T10:29:45.000Z</time>
      </trkpt>
      <trkpt lat="48.71329" lon="1.76592">
        <ele>163.39999389648</ele>
        <time>2014-10-20T10:29:50.000Z</time>
      </trkpt>
      <trkpt lat="48.71328" lon="1.76586">
        <ele>163.80000305176</ele>
        <time>2014-10-20T10:29:52.000Z</time>
      </trkpt>
      <trkpt lat="48.71327" lon="1.7657">
        <ele>164.60000610352</ele>
        <time>2014-10-20T10:29:58.000Z</time>
      </trkpt>
      <trkpt lat="48.71328" lon="1.76566">
        <ele>164.80000305176</ele>
        <time>2014-10-20T10:30:00.000Z</time>
      </trkpt>
      <trkpt lat="48.71329" lon="1.76561">
        <ele>164.80000305176</ele>
        <time>2014-10-20T10:30:03.000Z</time>
      </trkpt>
      <trkpt lat="48.7133" lon="1.76547">
        <ele>165</ele>
        <time>2014-10-20T10:30:09.000Z</time>
      </trkpt>
      <trkpt lat="48.71331" lon="1.76526">
        <ele>165.80000305176</ele>
        <time>2014-10-20T10:30:18.000Z</time>
      </trkpt>
      <trkpt lat="48.71331" lon="1.76512">
        <ele>166.39999389648</ele>
        <time>2014-10-20T10:30:24.000Z</time>
      </trkpt>
      <trkpt lat="48.71333" lon="1.76502">
        <ele>166.80000305176</ele>
        <time>2014-10-20T10:30:29.000Z</time>
      </trkpt>
      <trkpt lat="48.71334" lon="1.76496">
        <ele>167</ele>
        <time>2014-10-20T10:30:32.000Z</time>
      </trkpt>
      <trkpt lat="48.71334" lon="1.7648">
        <ele>167.60000610352</ele>
        <time>2014-10-20T10:30:39.000Z</time>
      </trkpt>
      <trkpt lat="48.71334" lon="1.76478">
        <ele>167.60000610352</ele>
        <time>2014-10-20T10:30:40.000Z</time>
      </trkpt>
      <trkpt lat="48.71334" lon="1.76463">
        <ele>167.80000305176</ele>
        <time>2014-10-20T10:30:47.000Z</time>
      </trkpt>
      <trkpt lat="48.71333" lon="1.76452">
        <ele>167.60000610352</ele>
        <time>2014-10-20T10:30:52.000Z</time>
      </trkpt>
      <trkpt lat="48.71332" lon="1.76431">
        <ele>167.19999694824</ele>
        <time>2014-10-20T10:31:02.000Z</time>
      </trkpt>
      <trkpt lat="48.7133" lon="1.76409">
        <ele>166.60000610352</ele>
        <time>2014-10-20T10:31:13.000Z</time>
      </trkpt>
      <trkpt lat="48.71327" lon="1.7639">
        <ele>166.60000610352</ele>
        <time>2014-10-20T10:31:22.000Z</time>
      </trkpt>
      <trkpt lat="48.71319" lon="1.76386">
        <ele>166.80000305176</ele>
        <time>2014-10-20T10:31:28.000Z</time>
      </trkpt>
      <trkpt lat="48.71306" lon="1.7639">
        <ele>167.19999694824</ele>
        <time>2014-10-20T10:31:37.000Z</time>
      </trkpt>
      <trkpt lat="48.71294" lon="1.76393">
        <ele>167.39999389648</ele>
        <time>2014-10-20T10:31:45.000Z</time>
      </trkpt>
      <trkpt lat="48.71281" lon="1.76398">
        <ele>167.80000305176</ele>
        <time>2014-10-20T10:31:54.000Z</time>
      </trkpt>
      <trkpt lat="48.71264" lon="1.76401">
        <ele>168.19999694824</ele>
        <time>2014-10-20T10:32:05.000Z</time>
      </trkpt>
      <trkpt lat="48.71254" lon="1.76404">
        <ele>168.19999694824</ele>
        <time>2014-10-20T10:32:12.000Z</time>
      </trkpt>
      <trkpt lat="48.71244" lon="1.76407">
        <ele>168.19999694824</ele>
        <time>2014-10-20T10:32:18.000Z</time>
      </trkpt>
      <trkpt lat="48.71233" lon="1.76407">
        <ele>168.39999389648</ele>
        <time>2014-10-20T10:32:25.000Z</time>
      </trkpt>
      <trkpt lat="48.71221" lon="1.7641">
        <ele>168.39999389648</ele>
        <time>2014-10-20T10:32:32.000Z</time>
      </trkpt>
      <trkpt lat="48.71211" lon="1.76412">
        <ele>168.39999389648</ele>
        <time>2014-10-20T10:32:38.000Z</time>
      </trkpt>
      <trkpt lat="48.71197" lon="1.76418">
        <ele>168.39999389648</ele>
        <time>2014-10-20T10:32:47.000Z</time>
      </trkpt>
      <trkpt lat="48.71188" lon="1.76421">
        <ele>168.39999389648</ele>
        <time>2014-10-20T10:32:53.000Z</time>
      </trkpt>
      <trkpt lat="48.71186" lon="1.76422">
        <ele>168.39999389648</ele>
        <time>2014-10-20T10:32:54.000Z</time>
      </trkpt>
      <trkpt lat="48.71183" lon="1.76422">
        <ele>168.39999389648</ele>
        <time>2014-10-20T10:32:56.000Z</time>
      </trkpt>
      <trkpt lat="48.71177" lon="1.7642">
        <ele>168.39999389648</ele>
        <time>2014-10-20T10:33:00.000Z</time>
      </trkpt>
      <trkpt lat="48.71166" lon="1.76422">
        <ele>168.39999389648</ele>
        <time>2014-10-20T10:33:07.000Z</time>
      </trkpt>
      <trkpt lat="48.71164" lon="1.76422">
        <ele>168.39999389648</ele>
        <time>2014-10-20T10:33:08.000Z</time>
      </trkpt>
      <trkpt lat="48.71147" lon="1.76426">
        <ele>168.19999694824</ele>
        <time>2014-10-20T10:33:19.000Z</time>
      </trkpt>
      <trkpt lat="48.71135" lon="1.76432">
        <ele>168</ele>
        <time>2014-10-20T10:33:27.000Z</time>
      </trkpt>
      <trkpt lat="48.71121" lon="1.76437">
        <ele>168</ele>
        <time>2014-10-20T10:33:35.000Z</time>
      </trkpt>
      <trkpt lat="48.71105" lon="1.76446">
        <ele>168</ele>
        <time>2014-10-20T10:33:45.000Z</time>
      </trkpt>
      <trkpt lat="48.71088" lon="1.76453">
        <ele>168</ele>
        <time>2014-10-20T10:33:55.000Z</time>
      </trkpt>
      <trkpt lat="48.71081" lon="1.76454">
        <ele>168</ele>
        <time>2014-10-20T10:33:59.000Z</time>
      </trkpt>
      <trkpt lat="48.71078" lon="1.76454">
        <ele>168.19999694824</ele>
        <time>2014-10-20T10:34:01.000Z</time>
      </trkpt>
      <trkpt lat="48.71065" lon="1.76459">
        <ele>168.39999389648</ele>
        <time>2014-10-20T10:34:09.000Z</time>
      </trkpt>
      <trkpt lat="48.71052" lon="1.76461">
        <ele>168.80000305176</ele>
        <time>2014-10-20T10:34:17.000Z</time>
      </trkpt>
      <trkpt lat="48.71042" lon="1.76465">
        <ele>169.19999694824</ele>
        <time>2014-10-20T10:34:24.000Z</time>
      </trkpt>
      <trkpt lat="48.71032" lon="1.76469">
        <ele>169.60000610352</ele>
        <time>2014-10-20T10:34:31.000Z</time>
      </trkpt>
      <trkpt lat="48.71026" lon="1.7647">
        <ele>169.80000305176</ele>
        <time>2014-10-20T10:34:34.000Z</time>
      </trkpt>
      <trkpt lat="48.71019" lon="1.76471">
        <ele>170</ele>
        <time>2014-10-20T10:34:39.000Z</time>
      </trkpt>
      <trkpt lat="48.70995" lon="1.76472">
        <ele>170.39999389648</ele>
        <time>2014-10-20T10:34:54.000Z</time>
      </trkpt>
      <trkpt lat="48.70974" lon="1.76472">
        <ele>170.80000305176</ele>
        <time>2014-10-20T10:35:08.000Z</time>
      </trkpt>
      <trkpt lat="48.70963" lon="1.76473">
        <ele>170.80000305176</ele>
        <time>2014-10-20T10:35:15.000Z</time>
      </trkpt>
      <trkpt lat="48.7095" lon="1.76474">
        <ele>171</ele>
        <time>2014-10-20T10:35:23.000Z</time>
      </trkpt>
      <trkpt lat="48.7094" lon="1.76475">
        <ele>171.19999694824</ele>
        <time>2014-10-20T10:35:30.000Z</time>
      </trkpt>
      <trkpt lat="48.70932" lon="1.76476">
        <ele>171.19999694824</ele>
        <time>2014-10-20T10:35:35.000Z</time>
      </trkpt>
      <trkpt lat="48.70923" lon="1.76476">
        <ele>171.39999389648</ele>
        <time>2014-10-20T10:35:42.000Z</time>
      </trkpt>
      <trkpt lat="48.70911" lon="1.76475">
        <ele>171.39999389648</ele>
        <time>2014-10-20T10:35:49.000Z</time>
      </trkpt>
      <trkpt lat="48.70894" lon="1.76475">
        <ele>171.60000610352</ele>
        <time>2014-10-20T10:36:00.000Z</time>
      </trkpt>
      <trkpt lat="48.70881" lon="1.76475">
        <ele>171.80000305176</ele>
        <time>2014-10-20T10:36:08.000Z</time>
      </trkpt>
      <trkpt lat="48.70863" lon="1.76474">
        <ele>172</ele>
        <time>2014-10-20T10:36:19.000Z</time>
      </trkpt>
      <trkpt lat="48.70851" lon="1.76473">
        <ele>172.19999694824</ele>
        <time>2014-10-20T10:36:26.000Z</time>
      </trkpt>
      <trkpt lat="48.7084" lon="1.76472">
        <ele>172.39999389648</ele>
        <time>2014-10-20T10:36:33.000Z</time>
      </trkpt>
      <trkpt lat="48.7083" lon="1.76472">
        <ele>172.39999389648</ele>
        <time>2014-10-20T10:36:39.000Z</time>
      </trkpt>
      <trkpt lat="48.70805" lon="1.76472">
        <ele>172.39999389648</ele>
        <time>2014-10-20T10:36:54.000Z</time>
      </trkpt>
      <trkpt lat="48.70791" lon="1.76473">
        <ele>172.39999389648</ele>
        <time>2014-10-20T10:37:03.000Z</time>
      </trkpt>
      <trkpt lat="48.70777" lon="1.76473">
        <ele>172.39999389648</ele>
        <time>2014-10-20T10:37:12.000Z</time>
      </trkpt>
      <trkpt lat="48.70761" lon="1.76473">
        <ele>172.19999694824</ele>
        <time>2014-10-20T10:37:22.000Z</time>
      </trkpt>
      <trkpt lat="48.70746" lon="1.7647">
        <ele>172.19999694824</ele>
        <time>2014-10-20T10:37:31.000Z</time>
      </trkpt>
      <trkpt lat="48.70735" lon="1.76468">
        <ele>172.19999694824</ele>
        <time>2014-10-20T10:37:38.000Z</time>
      </trkpt>
      <trkpt lat="48.70723" lon="1.76464">
        <ele>172.19999694824</ele>
        <time>2014-10-20T10:37:46.000Z</time>
      </trkpt>
      <trkpt lat="48.70712" lon="1.76462">
        <ele>172.39999389648</ele>
        <time>2014-10-20T10:37:53.000Z</time>
      </trkpt>
      <trkpt lat="48.70701" lon="1.76458">
        <ele>172.39999389648</ele>
        <time>2014-10-20T10:38:00.000Z</time>
      </trkpt>
      <trkpt lat="48.70688" lon="1.76454">
        <ele>172.39999389648</ele>
        <time>2014-10-20T10:38:09.000Z</time>
      </trkpt>
      <trkpt lat="48.70678" lon="1.7645">
        <ele>172.39999389648</ele>
        <time>2014-10-20T10:38:16.000Z</time>
      </trkpt>
      <trkpt lat="48.70674" lon="1.76449">
        <ele>172.39999389648</ele>
        <time>2014-10-20T10:38:19.000Z</time>
      </trkpt>
      <trkpt lat="48.70661" lon="1.76445">
        <ele>172.19999694824</ele>
        <time>2014-10-20T10:38:28.000Z</time>
      </trkpt>
      <trkpt lat="48.70658" lon="1.76443">
        <ele>172.19999694824</ele>
        <time>2014-10-20T10:38:33.000Z</time>
      </trkpt>
      <trkpt lat="48.70651" lon="1.7644">
        <ele>172.19999694824</ele>
        <time>2014-10-20T10:39:17.000Z</time>
      </trkpt>
      <trkpt lat="48.70643" lon="1.76437">
        <ele>172</ele>
        <time>2014-10-20T10:39:22.000Z</time>
      </trkpt>
      <trkpt lat="48.70635" lon="1.76433">
        <ele>172</ele>
        <time>2014-10-20T10:39:28.000Z</time>
      </trkpt>
      <trkpt lat="48.7062" lon="1.76428">
        <ele>172</ele>
        <time>2014-10-20T10:39:38.000Z</time>
      </trkpt>
      <trkpt lat="48.70605" lon="1.76422">
        <ele>172</ele>
        <time>2014-10-20T10:39:48.000Z</time>
      </trkpt>
      <trkpt lat="48.70593" lon="1.7642">
        <ele>172.39999389648</ele>
        <time>2014-10-20T10:39:56.000Z</time>
      </trkpt>
      <trkpt lat="48.70579" lon="1.76415">
        <ele>172.80000305176</ele>
        <time>2014-10-20T10:40:05.000Z</time>
      </trkpt>
      <trkpt lat="48.70568" lon="1.7641">
        <ele>173.19999694824</ele>
        <time>2014-10-20T10:40:13.000Z</time>
      </trkpt>
      <trkpt lat="48.70553" lon="1.76404">
        <ele>173.80000305176</ele>
        <time>2014-10-20T10:40:23.000Z</time>
      </trkpt>
      <trkpt lat="48.70546" lon="1.76402">
        <ele>174</ele>
        <time>2014-10-20T10:40:28.000Z</time>
      </trkpt>
      <trkpt lat="48.70538" lon="1.76399">
        <ele>174.19999694824</ele>
        <time>2014-10-20T10:40:33.000Z</time>
      </trkpt>
      <trkpt lat="48.70525" lon="1.76394">
        <ele>174.39999389648</ele>
        <time>2014-10-20T10:40:42.000Z</time>
      </trkpt>
      <trkpt lat="48.70517" lon="1.76389">
        <ele>174.39999389648</ele>
        <time>2014-10-20T10:40:48.000Z</time>
      </trkpt>
      <trkpt lat="48.70509" lon="1.76385">
        <ele>174.39999389648</ele>
        <time>2014-10-20T10:40:54.000Z</time>
      </trkpt>
      <trkpt lat="48.70501" lon="1.76383">
        <ele>174.60000610352</ele>
        <time>2014-10-20T10:41:00.000Z</time>
      </trkpt>
      <trkpt lat="48.70491" lon="1.76381">
        <ele>175</ele>
        <time>2014-10-20T10:41:07.000Z</time>
      </trkpt>
      <trkpt lat="48.70478" lon="1.76378">
        <ele>175.19999694824</ele>
        <time>2014-10-20T10:41:15.000Z</time>
      </trkpt>
      <trkpt lat="48.70468" lon="1.76377">
        <ele>175.60000610352</ele>
        <time>2014-10-20T10:41:21.000Z</time>
      </trkpt>
      <trkpt lat="48.7046" lon="1.76373">
        <ele>175.60000610352</ele>
        <time>2014-10-20T10:41:27.000Z</time>
      </trkpt>
      <trkpt lat="48.7046" lon="1.76372">
        <ele>175.60000610352</ele>
        <time>2014-10-20T10:41:28.000Z</time>
      </trkpt>
      <trkpt lat="48.70456" lon="1.76367">
        <ele>175.60000610352</ele>
        <time>2014-10-20T10:41:32.000Z</time>
      </trkpt>
      <trkpt lat="48.70453" lon="1.76357">
        <ele>175.19999694824</ele>
        <time>2014-10-20T10:41:37.000Z</time>
      </trkpt>
      <trkpt lat="48.70449" lon="1.76336">
        <ele>174.19999694824</ele>
        <time>2014-10-20T10:41:46.000Z</time>
      </trkpt>
      <trkpt lat="48.70448" lon="1.76324">
        <ele>173.80000305176</ele>
        <time>2014-10-20T10:41:52.000Z</time>
      </trkpt>
      <trkpt lat="48.70448" lon="1.76312">
        <ele>173.60000610352</ele>
        <time>2014-10-20T10:41:58.000Z</time>
      </trkpt>
      <trkpt lat="48.70449" lon="1.76296">
        <ele>173.60000610352</ele>
        <time>2014-10-20T10:42:04.000Z</time>
      </trkpt>
      <trkpt lat="48.70452" lon="1.76278">
        <ele>173.39999389648</ele>
        <time>2014-10-20T10:42:13.000Z</time>
      </trkpt>
      <trkpt lat="48.70453" lon="1.76274">
        <ele>173.39999389648</ele>
        <time>2014-10-20T10:42:15.000Z</time>
      </trkpt>
      <trkpt lat="48.70455" lon="1.76258">
        <ele>173.39999389648</ele>
        <time>2014-10-20T10:42:22.000Z</time>
      </trkpt>
      <trkpt lat="48.70457" lon="1.76254">
        <ele>173.19999694824</ele>
        <time>2014-10-20T10:42:24.000Z</time>
      </trkpt>
      <trkpt lat="48.70461" lon="1.76234">
        <ele>172.60000610352</ele>
        <time>2014-10-20T10:42:33.000Z</time>
      </trkpt>
      <trkpt lat="48.70461" lon="1.76221">
        <ele>173</ele>
        <time>2014-10-20T10:42:38.000Z</time>
      </trkpt>
      <trkpt lat="48.70459" lon="1.76209">
        <ele>173.39999389648</ele>
        <time>2014-10-20T10:42:42.000Z</time>
      </trkpt>
      <trkpt lat="48.70455" lon="1.76193">
        <ele>174</ele>
        <time>2014-10-20T10:42:49.000Z</time>
      </trkpt>
      <trkpt lat="48.70454" lon="1.76187">
        <ele>174.19999694824</ele>
        <time>2014-10-20T10:42:51.000Z</time>
      </trkpt>
      <trkpt lat="48.7045" lon="1.76174">
        <ele>174.80000305176</ele>
        <time>2014-10-20T10:42:56.000Z</time>
      </trkpt>
      <trkpt lat="48.7045" lon="1.7616">
        <ele>175.19999694824</ele>
        <time>2014-10-20T10:43:02.000Z</time>
      </trkpt>
      <trkpt lat="48.7045" lon="1.76157">
        <ele>175.19999694824</ele>
        <time>2014-10-20T10:43:03.000Z</time>
      </trkpt>
      <trkpt lat="48.70453" lon="1.76137">
        <ele>175.39999389648</ele>
        <time>2014-10-20T10:43:12.000Z</time>
      </trkpt>
      <trkpt lat="48.70453" lon="1.76131">
        <ele>175.39999389648</ele>
        <time>2014-10-20T10:43:16.000Z</time>
      </trkpt>
      <trkpt lat="48.70457" lon="1.7611">
        <ele>175.60000610352</ele>
        <time>2014-10-20T10:43:24.000Z</time>
      </trkpt>
      <trkpt lat="48.70461" lon="1.76098">
        <ele>175.39999389648</ele>
        <time>2014-10-20T10:43:30.000Z</time>
      </trkpt>
      <trkpt lat="48.70466" lon="1.76079">
        <ele>175.60000610352</ele>
        <time>2014-10-20T10:43:37.000Z</time>
      </trkpt>
      <trkpt lat="48.70467" lon="1.76074">
        <ele>175.60000610352</ele>
        <time>2014-10-20T10:43:39.000Z</time>
      </trkpt>
      <trkpt lat="48.70468" lon="1.76064">
        <ele>175.80000305176</ele>
        <time>2014-10-20T10:43:43.000Z</time>
      </trkpt>
      <trkpt lat="48.7047" lon="1.76053">
        <ele>176.19999694824</ele>
        <time>2014-10-20T10:43:49.000Z</time>
      </trkpt>
      <trkpt lat="48.70474" lon="1.76039">
        <ele>176.80000305176</ele>
        <time>2014-10-20T10:43:56.000Z</time>
      </trkpt>
      <trkpt lat="48.70475" lon="1.76037">
        <ele>176.80000305176</ele>
        <time>2014-10-20T10:43:57.000Z</time>
      </trkpt>
      <trkpt lat="48.70475" lon="1.76032">
        <ele>177</ele>
        <time>2014-10-20T10:43:59.000Z</time>
      </trkpt>
      <trkpt lat="48.70476" lon="1.76019">
        <ele>177.80000305176</ele>
        <time>2014-10-20T10:44:05.000Z</time>
      </trkpt>
      <trkpt lat="48.70476" lon="1.76014">
        <ele>178</ele>
        <time>2014-10-20T10:44:07.000Z</time>
      </trkpt>
      <trkpt lat="48.7048" lon="1.76">
        <ele>178.80000305176</ele>
        <time>2014-10-20T10:44:14.000Z</time>
      </trkpt>
      <trkpt lat="48.70482" lon="1.75994">
        <ele>179</ele>
        <time>2014-10-20T10:44:17.000Z</time>
      </trkpt>
      <trkpt lat="48.70485" lon="1.75991">
        <ele>179</ele>
        <time>2014-10-20T10:44:19.000Z</time>
      </trkpt>
      <trkpt lat="48.70489" lon="1.75978">
        <ele>179.19999694824</ele>
        <time>2014-10-20T10:44:24.000Z</time>
      </trkpt>
      <trkpt lat="48.70495" lon="1.75963">
        <ele>179.19999694824</ele>
        <time>2014-10-20T10:44:31.000Z</time>
      </trkpt>
      <trkpt lat="48.705" lon="1.75951">
        <ele>179.80000305176</ele>
        <time>2014-10-20T10:44:37.000Z</time>
      </trkpt>
      <trkpt lat="48.70505" lon="1.75943">
        <ele>180.19999694824</ele>
        <time>2014-10-20T10:44:42.000Z</time>
      </trkpt>
      <trkpt lat="48.70511" lon="1.75935">
        <ele>180.60000610352</ele>
        <time>2014-10-20T10:44:47.000Z</time>
      </trkpt>
      <trkpt lat="48.70521" lon="1.75928">
        <ele>180.80000305176</ele>
        <time>2014-10-20T10:44:55.000Z</time>
      </trkpt>
      <trkpt lat="48.70529" lon="1.75916">
        <ele>181</ele>
        <time>2014-10-20T10:45:01.000Z</time>
      </trkpt>
      <trkpt lat="48.70537" lon="1.75907">
        <ele>180.80000305176</ele>
        <time>2014-10-20T10:45:08.000Z</time>
      </trkpt>
      <trkpt lat="48.70544" lon="1.75895">
        <ele>180.60000610352</ele>
        <time>2014-10-20T10:45:15.000Z</time>
      </trkpt>
      <trkpt lat="48.70549" lon="1.75883">
        <ele>180.39999389648</ele>
        <time>2014-10-20T10:45:22.000Z</time>
      </trkpt>
      <trkpt lat="48.70553" lon="1.75876">
        <ele>180.39999389648</ele>
        <time>2014-10-20T10:45:26.000Z</time>
      </trkpt>
      <trkpt lat="48.70559" lon="1.7586">
        <ele>180.19999694824</ele>
        <time>2014-10-20T10:45:34.000Z</time>
      </trkpt>
      <trkpt lat="48.70559" lon="1.75857">
        <ele>180.19999694824</ele>
        <time>2014-10-20T10:45:35.000Z</time>
      </trkpt>
      <trkpt lat="48.70561" lon="1.75854">
        <ele>180</ele>
        <time>2014-10-20T10:45:37.000Z</time>
      </trkpt>
      <trkpt lat="48.70569" lon="1.75842">
        <ele>179</ele>
        <time>2014-10-20T10:45:44.000Z</time>
      </trkpt>
      <trkpt lat="48.7057" lon="1.75841">
        <ele>179</ele>
        <time>2014-10-20T10:45:45.000Z</time>
      </trkpt>
      <trkpt lat="48.70575" lon="1.75828">
        <ele>178.19999694824</ele>
        <time>2014-10-20T10:45:52.000Z</time>
      </trkpt>
      <trkpt lat="48.7058" lon="1.75814">
        <ele>177.60000610352</ele>
        <time>2014-10-20T10:45:59.000Z</time>
      </trkpt>
      <trkpt lat="48.70581" lon="1.75813">
        <ele>177.60000610352</ele>
        <time>2014-10-20T10:46:00.000Z</time>
      </trkpt>
      <trkpt lat="48.7059" lon="1.75797">
        <ele>177.19999694824</ele>
        <time>2014-10-20T10:46:09.000Z</time>
      </trkpt>
      <trkpt lat="48.70595" lon="1.75787">
        <ele>177.19999694824</ele>
        <time>2014-10-20T10:46:15.000Z</time>
      </trkpt>
      <trkpt lat="48.70596" lon="1.75785">
        <ele>177.19999694824</ele>
        <time>2014-10-20T10:46:16.000Z</time>
      </trkpt>
      <trkpt lat="48.70599" lon="1.7578">
        <ele>177.19999694824</ele>
        <time>2014-10-20T10:46:20.000Z</time>
      </trkpt>
      <trkpt lat="48.70601" lon="1.7577">
        <ele>177.60000610352</ele>
        <time>2014-10-20T10:46:26.000Z</time>
      </trkpt>
      <trkpt lat="48.70608" lon="1.75759">
        <ele>177.80000305176</ele>
        <time>2014-10-20T10:46:33.000Z</time>
      </trkpt>
      <trkpt lat="48.70611" lon="1.75752">
        <ele>178</ele>
        <time>2014-10-20T10:46:37.000Z</time>
      </trkpt>
      <trkpt lat="48.70615" lon="1.75743">
        <ele>178.19999694824</ele>
        <time>2014-10-20T10:46:42.000Z</time>
      </trkpt>
      <trkpt lat="48.70617" lon="1.75739">
        <ele>178.19999694824</ele>
        <time>2014-10-20T10:46:45.000Z</time>
      </trkpt>
      <trkpt lat="48.70618" lon="1.75734">
        <ele>178.39999389648</ele>
        <time>2014-10-20T10:46:48.000Z</time>
      </trkpt>
      <trkpt lat="48.70626" lon="1.75724">
        <ele>178.60000610352</ele>
        <time>2014-10-20T10:46:55.000Z</time>
      </trkpt>
      <trkpt lat="48.70628" lon="1.75718">
        <ele>179</ele>
        <time>2014-10-20T10:47:01.000Z</time>
      </trkpt>
      <trkpt lat="48.70629" lon="1.75718">
        <ele>178.80000305176</ele>
        <time>2014-10-20T10:47:05.000Z</time>
      </trkpt>
      <trkpt lat="48.70641" lon="1.75673">
        <ele>180.19999694824</ele>
        <time>2014-10-20T10:49:00.000Z</time>
      </trkpt>
      <trkpt lat="48.70641" lon="1.75666">
        <ele>180.39999389648</ele>
        <time>2014-10-20T10:49:02.000Z</time>
      </trkpt>
      <trkpt lat="48.70641" lon="1.75661">
        <ele>180.39999389648</ele>
        <time>2014-10-20T10:49:06.000Z</time>
      </trkpt>
      <trkpt lat="48.70641" lon="1.75642">
        <ele>180.19999694824</ele>
        <time>2014-10-20T10:49:15.000Z</time>
      </trkpt>
      <trkpt lat="48.70644" lon="1.7563">
        <ele>179.60000610352</ele>
        <time>2014-10-20T10:49:21.000Z</time>
      </trkpt>
      <trkpt lat="48.7065" lon="1.75617">
        <ele>178.60000610352</ele>
        <time>2014-10-20T10:49:29.000Z</time>
      </trkpt>
      <trkpt lat="48.70655" lon="1.75603">
        <ele>178</ele>
        <time>2014-10-20T10:49:36.000Z</time>
      </trkpt>
      <trkpt lat="48.70656" lon="1.75596">
        <ele>178</ele>
        <time>2014-10-20T10:49:40.000Z</time>
      </trkpt>
      <trkpt lat="48.70663" lon="1.75582">
        <ele>177.19999694824</ele>
        <time>2014-10-20T10:49:48.000Z</time>
      </trkpt>
      <trkpt lat="48.70668" lon="1.75573">
        <ele>176.80000305176</ele>
        <time>2014-10-20T10:49:54.000Z</time>
      </trkpt>
      <trkpt lat="48.70674" lon="1.75559">
        <ele>175</ele>
        <time>2014-10-20T10:50:02.000Z</time>
      </trkpt>
      <trkpt lat="48.70678" lon="1.7555">
        <ele>174.60000610352</ele>
        <time>2014-10-20T10:50:08.000Z</time>
      </trkpt>
      <trkpt lat="48.70681" lon="1.75544">
        <ele>174.39999389648</ele>
        <time>2014-10-20T10:50:11.000Z</time>
      </trkpt>
      <trkpt lat="48.70684" lon="1.75537">
        <ele>174.19999694824</ele>
        <time>2014-10-20T10:50:15.000Z</time>
      </trkpt>
      <trkpt lat="48.7069" lon="1.75523">
        <ele>173.60000610352</ele>
        <time>2014-10-20T10:50:23.000Z</time>
      </trkpt>
      <trkpt lat="48.70694" lon="1.75512">
        <ele>173.19999694824</ele>
        <time>2014-10-20T10:50:30.000Z</time>
      </trkpt>
      <trkpt lat="48.70698" lon="1.75501">
        <ele>172.80000305176</ele>
        <time>2014-10-20T10:50:36.000Z</time>
      </trkpt>
      <trkpt lat="48.70701" lon="1.7549">
        <ele>172.60000610352</ele>
        <time>2014-10-20T10:50:43.000Z</time>
      </trkpt>
      <trkpt lat="48.70702" lon="1.75483">
        <ele>172.60000610352</ele>
        <time>2014-10-20T10:50:47.000Z</time>
      </trkpt>
      <trkpt lat="48.70702" lon="1.75482">
        <ele>172.39999389648</ele>
        <time>2014-10-20T10:50:50.000Z</time>
      </trkpt>
      <trkpt lat="48.70702" lon="1.75462">
        <ele>172</ele>
        <time>2014-10-20T10:51:50.000Z</time>
      </trkpt>
      <trkpt lat="48.70707" lon="1.7545">
        <ele>171.60000610352</ele>
        <time>2014-10-20T10:51:57.000Z</time>
      </trkpt>
      <trkpt lat="48.70709" lon="1.75447">
        <ele>171.60000610352</ele>
        <time>2014-10-20T10:51:59.000Z</time>
      </trkpt>
      <trkpt lat="48.7071" lon="1.75447">
        <ele>171.39999389648</ele>
        <time>2014-10-20T10:52:02.000Z</time>
      </trkpt>
    </trkseg>
  </trk>
</gpx>